<?xml version="1.0" encoding="UTF-8" standalone="no" ?>
<gpx xmlns="http://www.topografix.com/GPX/1/1" xmlns:xsi="http://www.w3.org/2001/XMLSchema-instance" xsi:schemaLocation="http://www.topografix.com/GPX/1/1 http://www.topografix.com/GPX/1/1/gpx.xsd" version="1.1" creator="VisuGPX - https://www.visugpx.com">
  <metadata>
    <name>J3 - De ORBEY à ORBEY</name>
    <desc><![CDATA[Boucle vers le Lac Blanc, le château Hans.]]></desc>
  </metadata>
  <trk>
    <name><![CDATA[Tracé 003]]></name>
    <trkseg>
      <trkpt lat="48.1263" lon="7.15955">
        <ele>472.6</ele>
        <time>2010-01-01T03:02:48Z</time>
      </trkpt>
      <trkpt lat="48.12631" lon="7.15948">
        <ele>495.2265625</ele>
      </trkpt>
      <trkpt lat="48.12631" lon="7.15883">
        <ele>472</ele>
        <time>2010-01-01T03:02:59Z</time>
      </trkpt>
      <trkpt lat="48.12674" lon="7.15867">
        <ele>472</ele>
        <time>2010-01-01T03:03:01Z</time>
      </trkpt>
      <trkpt lat="48.12667" lon="7.15813">
        <ele>472.6</ele>
        <time>2010-01-01T03:03:16Z</time>
      </trkpt>
      <trkpt lat="48.12649" lon="7.1576">
        <ele>498.05078125</ele>
      </trkpt>
      <trkpt lat="48.12644" lon="7.15741">
        <ele>474</ele>
        <time>2010-01-01T03:03:26Z</time>
      </trkpt>
      <trkpt lat="48.12643" lon="7.15711">
        <ele>475.20001</ele>
        <time>2010-01-01T03:03:40Z</time>
      </trkpt>
      <trkpt lat="48.12636" lon="7.15664">
        <ele>476</ele>
        <time>2010-01-01T03:03:53Z</time>
      </trkpt>
      <trkpt lat="48.12628" lon="7.15636">
        <ele>477</ele>
        <time>2010-01-01T03:04:01Z</time>
      </trkpt>
      <trkpt lat="48.12615" lon="7.15621">
        <ele>477.79998</ele>
        <time>2010-01-01T03:04:10Z</time>
      </trkpt>
      <trkpt lat="48.1261" lon="7.15614">
        <ele>478.20001</ele>
        <time>2010-01-01T03:04:12Z</time>
      </trkpt>
      <trkpt lat="48.1261" lon="7.15589">
        <ele>478.79998</ele>
        <time>2010-01-01T03:04:19Z</time>
      </trkpt>
      <trkpt lat="48.12614" lon="7.15556">
        <ele>479.79998</ele>
        <time>2010-01-01T03:04:28Z</time>
      </trkpt>
      <trkpt lat="48.12614" lon="7.15518">
        <ele>481.79998</ele>
        <time>2010-01-01T03:04:38Z</time>
      </trkpt>
      <trkpt lat="48.12612" lon="7.15495">
        <ele>483.6</ele>
        <time>2010-01-01T03:04:44Z</time>
      </trkpt>
      <trkpt lat="48.12611" lon="7.15466">
        <ele>485.79998</ele>
        <time>2010-01-01T03:04:52Z</time>
      </trkpt>
      <trkpt lat="48.12614" lon="7.1544">
        <ele>487.79998</ele>
        <time>2010-01-01T03:04:59Z</time>
      </trkpt>
      <trkpt lat="48.12626" lon="7.15419">
        <ele>489</ele>
        <time>2010-01-01T03:05:07Z</time>
      </trkpt>
      <trkpt lat="48.12644" lon="7.15393">
        <ele>490.6</ele>
        <time>2010-01-01T03:05:17Z</time>
      </trkpt>
      <trkpt lat="48.12665" lon="7.15361">
        <ele>492.79998</ele>
        <time>2010-01-01T03:05:29Z</time>
      </trkpt>
      <trkpt lat="48.12682" lon="7.15333">
        <ele>493.6</ele>
        <time>2010-01-01T03:05:39Z</time>
      </trkpt>
      <trkpt lat="48.12692" lon="7.15313">
        <ele>494.20001</ele>
        <time>2010-01-01T03:05:45Z</time>
      </trkpt>
      <trkpt lat="48.12707" lon="7.15275">
        <ele>495.6</ele>
        <time>2010-01-01T03:05:57Z</time>
      </trkpt>
      <trkpt lat="48.12712" lon="7.15235">
        <ele>496.39999</ele>
        <time>2010-01-01T03:06:08Z</time>
      </trkpt>
      <trkpt lat="48.12715" lon="7.15193">
        <ele>497.79998</ele>
        <time>2010-01-01T03:06:19Z</time>
      </trkpt>
      <trkpt lat="48.1272" lon="7.15152">
        <ele>500</ele>
        <time>2010-01-01T03:06:31Z</time>
      </trkpt>
      <trkpt lat="48.12733" lon="7.15124">
        <ele>500.79998</ele>
        <time>2010-01-01T03:06:40Z</time>
      </trkpt>
      <trkpt lat="48.1275" lon="7.15103">
        <ele>502.39999</ele>
        <time>2010-01-01T03:06:49Z</time>
      </trkpt>
      <trkpt lat="48.12764" lon="7.1508">
        <ele>505</ele>
        <time>2010-01-01T03:06:57Z</time>
      </trkpt>
      <trkpt lat="48.12774" lon="7.15047">
        <ele>507.6</ele>
        <time>2010-01-01T03:07:06Z</time>
      </trkpt>
      <trkpt lat="48.12779" lon="7.15029">
        <ele>509</ele>
        <time>2010-01-01T03:07:12Z</time>
      </trkpt>
      <trkpt lat="48.12798" lon="7.15009">
        <ele>510.39999</ele>
        <time>2010-01-01T03:07:21Z</time>
      </trkpt>
      <trkpt lat="48.12818" lon="7.14983">
        <ele>511.6</ele>
        <time>2010-01-01T03:07:32Z</time>
      </trkpt>
      <trkpt lat="48.12833" lon="7.14955">
        <ele>513.40002</ele>
        <time>2010-01-01T03:07:41Z</time>
      </trkpt>
      <trkpt lat="48.12852" lon="7.14918">
        <ele>516.40002</ele>
        <time>2010-01-01T03:07:54Z</time>
      </trkpt>
      <trkpt lat="48.12872" lon="7.14887">
        <ele>518.79998</ele>
        <time>2010-01-01T03:08:05Z</time>
      </trkpt>
      <trkpt lat="48.12892" lon="7.14864">
        <ele>520.40002</ele>
        <time>2010-01-01T03:08:15Z</time>
      </trkpt>
      <trkpt lat="48.1292" lon="7.14837">
        <ele>522.40002</ele>
        <time>2010-01-01T03:08:28Z</time>
      </trkpt>
      <trkpt lat="48.12944" lon="7.14816">
        <ele>524.79998</ele>
        <time>2010-01-01T03:08:40Z</time>
      </trkpt>
      <trkpt lat="48.12969" lon="7.14793">
        <ele>527.20001</ele>
        <time>2010-01-01T03:08:51Z</time>
      </trkpt>
      <trkpt lat="48.1298" lon="7.14782">
        <ele>528.40002</ele>
        <time>2010-01-01T03:08:57Z</time>
      </trkpt>
      <trkpt lat="48.12996" lon="7.14767">
        <ele>530.20001</ele>
        <time>2010-01-01T03:09:04Z</time>
      </trkpt>
      <trkpt lat="48.13012" lon="7.14752">
        <ele>531.20001</ele>
        <time>2010-01-01T03:09:12Z</time>
      </trkpt>
      <trkpt lat="48.13031" lon="7.14733">
        <ele>532.20001</ele>
        <time>2010-01-01T03:09:21Z</time>
      </trkpt>
      <trkpt lat="48.13054" lon="7.14716">
        <ele>533.40002</ele>
        <time>2010-01-01T03:09:31Z</time>
      </trkpt>
      <trkpt lat="48.13078" lon="7.14701">
        <ele>534.79998</ele>
        <time>2010-01-01T03:09:42Z</time>
      </trkpt>
      <trkpt lat="48.13104" lon="7.14684">
        <ele>536.40002</ele>
        <time>2010-01-01T03:09:53Z</time>
      </trkpt>
      <trkpt lat="48.1313" lon="7.1467">
        <ele>538.40002</ele>
        <time>2010-01-01T03:10:04Z</time>
      </trkpt>
      <trkpt lat="48.13153" lon="7.14655">
        <ele>540.40002</ele>
        <time>2010-01-01T03:10:14Z</time>
      </trkpt>
      <trkpt lat="48.13179" lon="7.14641">
        <ele>543</ele>
        <time>2010-01-01T03:10:25Z</time>
      </trkpt>
      <trkpt lat="48.13197" lon="7.14632">
        <ele>544.79998</ele>
        <time>2010-01-01T03:10:33Z</time>
      </trkpt>
      <trkpt lat="48.13224" lon="7.14619">
        <ele>546.79998</ele>
        <time>2010-01-01T03:10:44Z</time>
      </trkpt>
      <trkpt lat="48.13248" lon="7.14605">
        <ele>549.40002</ele>
        <time>2010-01-01T03:10:55Z</time>
      </trkpt>
      <trkpt lat="48.13275" lon="7.14584">
        <ele>552</ele>
        <time>2010-01-01T03:11:07Z</time>
      </trkpt>
      <trkpt lat="48.13299" lon="7.14564">
        <ele>554.59997</ele>
        <time>2010-01-01T03:11:18Z</time>
      </trkpt>
      <trkpt lat="48.13322" lon="7.14547">
        <ele>556.79998</ele>
        <time>2010-01-01T03:11:28Z</time>
      </trkpt>
      <trkpt lat="48.13342" lon="7.14534">
        <ele>558.20001</ele>
        <time>2010-01-01T03:11:36Z</time>
      </trkpt>
      <trkpt lat="48.13359" lon="7.14521">
        <ele>560</ele>
        <time>2010-01-01T03:11:44Z</time>
      </trkpt>
      <trkpt lat="48.13378" lon="7.14504">
        <ele>561.40002</ele>
        <time>2010-01-01T03:11:53Z</time>
      </trkpt>
      <trkpt lat="48.13388" lon="7.14488">
        <ele>563</ele>
        <time>2010-01-01T03:11:59Z</time>
      </trkpt>
      <trkpt lat="48.13384" lon="7.14475">
        <ele>563.59997</ele>
        <time>2010-01-01T03:12:03Z</time>
      </trkpt>
      <trkpt lat="48.13371" lon="7.14462">
        <ele>564.59997</ele>
        <time>2010-01-01T03:12:09Z</time>
      </trkpt>
      <trkpt lat="48.13354" lon="7.14449">
        <ele>566.40002</ele>
        <time>2010-01-01T03:12:17Z</time>
      </trkpt>
      <trkpt lat="48.13331" lon="7.14429">
        <ele>570</ele>
        <time>2010-01-01T03:12:27Z</time>
      </trkpt>
      <trkpt lat="48.13313" lon="7.1441">
        <ele>572.79998</ele>
        <time>2010-01-01T03:12:36Z</time>
      </trkpt>
      <trkpt lat="48.133" lon="7.14393">
        <ele>575</ele>
        <time>2010-01-01T03:12:43Z</time>
      </trkpt>
      <trkpt lat="48.13281" lon="7.1438">
        <ele>575.79998</ele>
        <time>2010-01-01T03:12:51Z</time>
      </trkpt>
      <trkpt lat="48.13255" lon="7.14368">
        <ele>575</ele>
        <time>2010-01-01T03:13:02Z</time>
      </trkpt>
      <trkpt lat="48.13212" lon="7.14347">
        <ele>572.59997</ele>
        <time>2010-01-01T03:13:20Z</time>
      </trkpt>
      <trkpt lat="48.13172" lon="7.14328">
        <ele>571.20001</ele>
        <time>2010-01-01T03:13:37Z</time>
      </trkpt>
      <trkpt lat="48.13129" lon="7.14311">
        <ele>569.40002</ele>
        <time>2010-01-01T03:13:55Z</time>
      </trkpt>
      <trkpt lat="48.131" lon="7.14296">
        <ele>568.59997</ele>
        <time>2010-01-01T03:14:07Z</time>
      </trkpt>
      <trkpt lat="48.13076" lon="7.14284">
        <ele>569.40002</ele>
        <time>2010-01-01T03:14:17Z</time>
      </trkpt>
      <trkpt lat="48.13055" lon="7.14274">
        <ele>571</ele>
        <time>2010-01-01T03:14:26Z</time>
      </trkpt>
      <trkpt lat="48.13035" lon="7.14266">
        <ele>573</ele>
        <time>2010-01-01T03:14:34Z</time>
      </trkpt>
      <trkpt lat="48.13013" lon="7.14255">
        <ele>576</ele>
        <time>2010-01-01T03:14:44Z</time>
      </trkpt>
      <trkpt lat="48.12996" lon="7.14244">
        <ele>578</ele>
        <time>2010-01-01T03:14:51Z</time>
      </trkpt>
      <trkpt lat="48.12978" lon="7.14229">
        <ele>580.79998</ele>
        <time>2010-01-01T03:15:00Z</time>
      </trkpt>
      <trkpt lat="48.12962" lon="7.14217">
        <ele>582.59997</ele>
        <time>2010-01-01T03:15:07Z</time>
      </trkpt>
      <trkpt lat="48.1296" lon="7.14216">
        <ele>583.59997</ele>
        <time>2010-01-01T03:15:08Z</time>
      </trkpt>
      <trkpt lat="48.1296" lon="7.14218">
        <ele>583.79998</ele>
        <time>2010-01-01T03:15:08Z</time>
      </trkpt>
      <trkpt lat="48.12955" lon="7.14206">
        <ele>584.20001</ele>
        <time>2010-01-01T03:15:12Z</time>
      </trkpt>
      <trkpt lat="48.12938" lon="7.14187">
        <ele>586.20001</ele>
        <time>2010-01-01T03:15:21Z</time>
      </trkpt>
      <trkpt lat="48.12919" lon="7.14172">
        <ele>588.59997</ele>
        <time>2010-01-01T03:15:29Z</time>
      </trkpt>
      <trkpt lat="48.12894" lon="7.14153">
        <ele>591.59997</ele>
        <time>2010-01-01T03:15:41Z</time>
      </trkpt>
      <trkpt lat="48.12867" lon="7.14134">
        <ele>594.79998</ele>
        <time>2010-01-01T03:15:53Z</time>
      </trkpt>
      <trkpt lat="48.12842" lon="7.14118">
        <ele>597.40002</ele>
        <time>2010-01-01T03:16:04Z</time>
      </trkpt>
      <trkpt lat="48.12822" lon="7.14113">
        <ele>599.59997</ele>
        <time>2010-01-01T03:16:12Z</time>
      </trkpt>
      <trkpt lat="48.12798" lon="7.14111">
        <ele>602.20001</ele>
        <time>2010-01-01T03:16:21Z</time>
      </trkpt>
      <trkpt lat="48.12777" lon="7.14101">
        <ele>604.40002</ele>
        <time>2010-01-01T03:16:30Z</time>
      </trkpt>
      <trkpt lat="48.12766" lon="7.1408">
        <ele>605.59997</ele>
        <time>2010-01-01T03:16:37Z</time>
      </trkpt>
      <trkpt lat="48.12764" lon="7.14058">
        <ele>606.40002</ele>
        <time>2010-01-01T03:16:43Z</time>
      </trkpt>
      <trkpt lat="48.12774" lon="7.14038">
        <ele>608</ele>
        <time>2010-01-01T03:16:50Z</time>
      </trkpt>
      <trkpt lat="48.12791" lon="7.14029">
        <ele>610.20001</ele>
        <time>2010-01-01T03:16:57Z</time>
      </trkpt>
      <trkpt lat="48.12816" lon="7.14016">
        <ele>613.59997</ele>
        <time>2010-01-01T03:17:08Z</time>
      </trkpt>
      <trkpt lat="48.12831" lon="7.14004">
        <ele>615.79998</ele>
        <time>2010-01-01T03:17:14Z</time>
      </trkpt>
      <trkpt lat="48.12843" lon="7.13977">
        <ele>618.40002</ele>
        <time>2010-01-01T03:17:23Z</time>
      </trkpt>
      <trkpt lat="48.12855" lon="7.1394">
        <ele>621</ele>
        <time>2010-01-01T03:17:34Z</time>
      </trkpt>
      <trkpt lat="48.12862" lon="7.13909">
        <ele>622.40002</ele>
        <time>2010-01-01T03:17:43Z</time>
      </trkpt>
      <trkpt lat="48.1287" lon="7.13868">
        <ele>623.59997</ele>
        <time>2010-01-01T03:17:54Z</time>
      </trkpt>
      <trkpt lat="48.12882" lon="7.13819">
        <ele>625</ele>
        <time>2010-01-01T03:18:08Z</time>
      </trkpt>
      <trkpt lat="48.12901" lon="7.13767">
        <ele>626.79998</ele>
        <time>2010-01-01T03:18:24Z</time>
      </trkpt>
      <trkpt lat="48.12917" lon="7.13725">
        <ele>628</ele>
        <time>2010-01-01T03:18:37Z</time>
      </trkpt>
      <trkpt lat="48.12918" lon="7.13699">
        <ele>629.59997</ele>
        <time>2010-01-01T03:18:44Z</time>
      </trkpt>
      <trkpt lat="48.12926" lon="7.1369">
        <ele>631</ele>
        <time>2010-01-01T03:18:48Z</time>
      </trkpt>
      <trkpt lat="48.12941" lon="7.1369">
        <ele>632.79998</ele>
        <time>2010-01-01T03:18:54Z</time>
      </trkpt>
      <trkpt lat="48.12959" lon="7.13683">
        <ele>635.40002</ele>
        <time>2010-01-01T03:19:01Z</time>
      </trkpt>
      <trkpt lat="48.12973" lon="7.13679">
        <ele>637.40002</ele>
        <time>2010-01-01T03:19:07Z</time>
      </trkpt>
      <trkpt lat="48.12991" lon="7.13679">
        <ele>639.59997</ele>
        <time>2010-01-01T03:19:15Z</time>
      </trkpt>
      <trkpt lat="48.12995" lon="7.13676">
        <ele>640</ele>
        <time>2010-01-01T03:19:16Z</time>
      </trkpt>
      <trkpt lat="48.12993" lon="7.13664">
        <ele>641.40002</ele>
        <time>2010-01-01T03:19:20Z</time>
      </trkpt>
      <trkpt lat="48.12988" lon="7.13662">
        <ele>641.79998</ele>
        <time>2010-01-01T03:19:21Z</time>
      </trkpt>
      <trkpt lat="48.12967" lon="7.13658">
        <ele>643.20001</ele>
        <time>2010-01-01T03:19:30Z</time>
      </trkpt>
      <trkpt lat="48.12946" lon="7.13636">
        <ele>644.40002</ele>
        <time>2010-01-01T03:19:40Z</time>
      </trkpt>
      <trkpt lat="48.12934" lon="7.13614">
        <ele>646.20001</ele>
        <time>2010-01-01T03:19:48Z</time>
      </trkpt>
      <trkpt lat="48.12921" lon="7.13589">
        <ele>648.20001</ele>
        <time>2010-01-01T03:19:56Z</time>
      </trkpt>
      <trkpt lat="48.1291" lon="7.13566">
        <ele>649.79998</ele>
        <time>2010-01-01T03:20:04Z</time>
      </trkpt>
      <trkpt lat="48.12897" lon="7.1353">
        <ele>652.79998</ele>
        <time>2010-01-01T03:20:15Z</time>
      </trkpt>
      <trkpt lat="48.12889" lon="7.13499">
        <ele>655</ele>
        <time>2010-01-01T03:20:24Z</time>
      </trkpt>
      <trkpt lat="48.12886" lon="7.13464">
        <ele>657.59997</ele>
        <time>2010-01-01T03:20:33Z</time>
      </trkpt>
      <trkpt lat="48.12886" lon="7.13424">
        <ele>660.20001</ele>
        <time>2010-01-01T03:20:44Z</time>
      </trkpt>
      <trkpt lat="48.12893" lon="7.13388">
        <ele>661.40002</ele>
        <time>2010-01-01T03:20:54Z</time>
      </trkpt>
      <trkpt lat="48.1291" lon="7.1335">
        <ele>663.20001</ele>
        <time>2010-01-01T03:21:06Z</time>
      </trkpt>
      <trkpt lat="48.12925" lon="7.13321">
        <ele>665.40002</ele>
        <time>2010-01-01T03:21:16Z</time>
      </trkpt>
      <trkpt lat="48.12946" lon="7.13296">
        <ele>667.40002</ele>
        <time>2010-01-01T03:21:27Z</time>
      </trkpt>
      <trkpt lat="48.12963" lon="7.13265">
        <ele>669</ele>
        <time>2010-01-01T03:21:37Z</time>
      </trkpt>
      <trkpt lat="48.12979" lon="7.13229">
        <ele>669.79998</ele>
        <time>2010-01-01T03:21:49Z</time>
      </trkpt>
      <trkpt lat="48.12996" lon="7.13206">
        <ele>671</ele>
        <time>2010-01-01T03:21:58Z</time>
      </trkpt>
      <trkpt lat="48.13012" lon="7.1319">
        <ele>672.59997</ele>
        <time>2010-01-01T03:22:06Z</time>
      </trkpt>
      <trkpt lat="48.13033" lon="7.13174">
        <ele>675.20001</ele>
        <time>2010-01-01T03:22:15Z</time>
      </trkpt>
      <trkpt lat="48.13052" lon="7.13151">
        <ele>678.40002</ele>
        <time>2010-01-01T03:22:25Z</time>
      </trkpt>
      <trkpt lat="48.13071" lon="7.13124">
        <ele>681.79998</ele>
        <time>2010-01-01T03:22:35Z</time>
      </trkpt>
      <trkpt lat="48.13086" lon="7.131">
        <ele>684.59997</ele>
        <time>2010-01-01T03:22:44Z</time>
      </trkpt>
      <trkpt lat="48.13097" lon="7.13081">
        <ele>686.79998</ele>
        <time>2010-01-01T03:22:51Z</time>
      </trkpt>
      <trkpt lat="48.13105" lon="7.1306">
        <ele>689.59997</ele>
        <time>2010-01-01T03:22:57Z</time>
      </trkpt>
      <trkpt lat="48.13106" lon="7.13029">
        <ele>692.20001</ele>
        <time>2010-01-01T03:23:05Z</time>
      </trkpt>
      <trkpt lat="48.13107" lon="7.12999">
        <ele>695</ele>
        <time>2010-01-01T03:23:14Z</time>
      </trkpt>
      <trkpt lat="48.13109" lon="7.12965">
        <ele>697.79998</ele>
        <time>2010-01-01T03:23:23Z</time>
      </trkpt>
      <trkpt lat="48.13111" lon="7.12939">
        <ele>700</ele>
        <time>2010-01-01T03:23:30Z</time>
      </trkpt>
      <trkpt lat="48.13108" lon="7.12912">
        <ele>702</ele>
        <time>2010-01-01T03:23:37Z</time>
      </trkpt>
      <trkpt lat="48.13103" lon="7.12886">
        <ele>703.79998</ele>
        <time>2010-01-01T03:23:44Z</time>
      </trkpt>
      <trkpt lat="48.13101" lon="7.12853">
        <ele>705.59997</ele>
        <time>2010-01-01T03:23:53Z</time>
      </trkpt>
      <trkpt lat="48.13102" lon="7.12824">
        <ele>707.40002</ele>
        <time>2010-01-01T03:24:01Z</time>
      </trkpt>
      <trkpt lat="48.13102" lon="7.12794">
        <ele>709</ele>
        <time>2010-01-01T03:24:09Z</time>
      </trkpt>
      <trkpt lat="48.13108" lon="7.12758">
        <ele>711.20001</ele>
        <time>2010-01-01T03:24:19Z</time>
      </trkpt>
      <trkpt lat="48.13113" lon="7.12728">
        <ele>713</ele>
        <time>2010-01-01T03:24:27Z</time>
      </trkpt>
      <trkpt lat="48.13117" lon="7.12702">
        <ele>715</ele>
        <time>2010-01-01T03:24:34Z</time>
      </trkpt>
      <trkpt lat="48.13122" lon="7.12684">
        <ele>716.59997</ele>
        <time>2010-01-01T03:24:39Z</time>
      </trkpt>
      <trkpt lat="48.13125" lon="7.1267">
        <ele>718</ele>
        <time>2010-01-01T03:24:43Z</time>
      </trkpt>
      <trkpt lat="48.13134" lon="7.12653">
        <ele>720</ele>
        <time>2010-01-01T03:24:49Z</time>
      </trkpt>
      <trkpt lat="48.1314" lon="7.12662">
        <ele>721</ele>
        <time>2010-01-01T03:24:53Z</time>
      </trkpt>
      <trkpt lat="48.13142" lon="7.12676">
        <ele>721.79998</ele>
        <time>2010-01-01T03:24:56Z</time>
      </trkpt>
      <trkpt lat="48.13147" lon="7.12705">
        <ele>723.59997</ele>
        <time>2010-01-01T03:25:04Z</time>
      </trkpt>
      <trkpt lat="48.13154" lon="7.12725">
        <ele>725.20001</ele>
        <time>2010-01-01T03:25:10Z</time>
      </trkpt>
      <trkpt lat="48.13163" lon="7.12748">
        <ele>727.59997</ele>
        <time>2010-01-01T03:25:18Z</time>
      </trkpt>
      <trkpt lat="48.13172" lon="7.12769">
        <ele>729.59997</ele>
        <time>2010-01-01T03:25:24Z</time>
      </trkpt>
      <trkpt lat="48.13182" lon="7.12792">
        <ele>732</ele>
        <time>2010-01-01T03:25:32Z</time>
      </trkpt>
      <trkpt lat="48.13191" lon="7.12818">
        <ele>734.59997</ele>
        <time>2010-01-01T03:25:39Z</time>
      </trkpt>
      <trkpt lat="48.13195" lon="7.12834">
        <ele>736</ele>
        <time>2010-01-01T03:25:44Z</time>
      </trkpt>
      <trkpt lat="48.132" lon="7.12849">
        <ele>737.20001</ele>
        <time>2010-01-01T03:25:48Z</time>
      </trkpt>
      <trkpt lat="48.13203" lon="7.12858">
        <ele>738.40002</ele>
        <time>2010-01-01T03:25:51Z</time>
      </trkpt>
      <trkpt lat="48.1321" lon="7.12864">
        <ele>740</ele>
        <time>2010-01-01T03:25:54Z</time>
      </trkpt>
      <trkpt lat="48.13215" lon="7.12859">
        <ele>740.79998</ele>
        <time>2010-01-01T03:25:57Z</time>
      </trkpt>
      <trkpt lat="48.13225" lon="7.12836">
        <ele>743</ele>
        <time>2010-01-01T03:26:04Z</time>
      </trkpt>
      <trkpt lat="48.13234" lon="7.12807">
        <ele>747</ele>
        <time>2010-01-01T03:26:12Z</time>
      </trkpt>
      <trkpt lat="48.13237" lon="7.12779">
        <ele>749.79998</ele>
        <time>2010-01-01T03:26:20Z</time>
      </trkpt>
      <trkpt lat="48.13241" lon="7.12755">
        <ele>751.79998</ele>
        <time>2010-01-01T03:26:27Z</time>
      </trkpt>
      <trkpt lat="48.13248" lon="7.12747">
        <ele>753.40002</ele>
        <time>2010-01-01T03:26:30Z</time>
      </trkpt>
      <trkpt lat="48.13258" lon="7.12754">
        <ele>756.20001</ele>
        <time>2010-01-01T03:26:35Z</time>
      </trkpt>
      <trkpt lat="48.13266" lon="7.12773">
        <ele>759</ele>
        <time>2010-01-01T03:26:41Z</time>
      </trkpt>
      <trkpt lat="48.13275" lon="7.12796">
        <ele>761.20001</ele>
        <time>2010-01-01T03:26:48Z</time>
      </trkpt>
      <trkpt lat="48.13281" lon="7.12812">
        <ele>762.40002</ele>
        <time>2010-01-01T03:26:53Z</time>
      </trkpt>
      <trkpt lat="48.13292" lon="7.12833">
        <ele>765.40002</ele>
        <time>2010-01-01T03:27:00Z</time>
      </trkpt>
      <trkpt lat="48.13293" lon="7.12834">
        <ele>765.59997</ele>
        <time>2010-01-01T03:27:00Z</time>
      </trkpt>
      <trkpt lat="48.13296" lon="7.12829">
        <ele>766.40002</ele>
        <time>2010-01-01T03:27:02Z</time>
      </trkpt>
      <trkpt lat="48.13294" lon="7.12813">
        <ele>767</ele>
        <time>2010-01-01T03:27:07Z</time>
      </trkpt>
      <trkpt lat="48.13294" lon="7.12811">
        <ele>767</ele>
        <time>2010-01-01T03:27:07Z</time>
      </trkpt>
      <trkpt lat="48.13296" lon="7.12795">
        <ele>769.40002</ele>
        <time>2010-01-01T03:27:12Z</time>
      </trkpt>
      <trkpt lat="48.13298" lon="7.1278">
        <ele>771.20001</ele>
        <time>2010-01-01T03:27:16Z</time>
      </trkpt>
      <trkpt lat="48.13299" lon="7.12774">
        <ele>771.59997</ele>
        <time>2010-01-01T03:27:17Z</time>
      </trkpt>
      <trkpt lat="48.133" lon="7.12763">
        <ele>772.59997</ele>
        <time>2010-01-01T03:27:20Z</time>
      </trkpt>
      <trkpt lat="48.133" lon="7.1276">
        <ele>772.79998</ele>
        <time>2010-01-01T03:27:21Z</time>
      </trkpt>
      <trkpt lat="48.13299" lon="7.12736">
        <ele>773.79998</ele>
        <time>2010-01-01T03:27:28Z</time>
      </trkpt>
      <trkpt lat="48.13293" lon="7.12709">
        <ele>774.40002</ele>
        <time>2010-01-01T03:27:35Z</time>
      </trkpt>
      <trkpt lat="48.13291" lon="7.12694">
        <ele>774.59997</ele>
        <time>2010-01-01T03:27:39Z</time>
      </trkpt>
      <trkpt lat="48.13289" lon="7.1268">
        <ele>775</ele>
        <time>2010-01-01T03:27:43Z</time>
      </trkpt>
      <trkpt lat="48.13289" lon="7.12677">
        <ele>775.20001</ele>
        <time>2010-01-01T03:27:44Z</time>
      </trkpt>
      <trkpt lat="48.13289" lon="7.12673">
        <ele>775.59997</ele>
        <time>2010-01-01T03:27:45Z</time>
      </trkpt>
      <trkpt lat="48.13284" lon="7.12653">
        <ele>776.59997</ele>
        <time>2010-01-01T03:27:51Z</time>
      </trkpt>
      <trkpt lat="48.1328" lon="7.12629">
        <ele>777</ele>
        <time>2010-01-01T03:27:57Z</time>
      </trkpt>
      <trkpt lat="48.13276" lon="7.12609">
        <ele>777.20001</ele>
        <time>2010-01-01T03:28:03Z</time>
      </trkpt>
      <trkpt lat="48.13271" lon="7.12589">
        <ele>778.40002</ele>
        <time>2010-01-01T03:28:08Z</time>
      </trkpt>
      <trkpt lat="48.1327" lon="7.12585">
        <ele>778.59997</ele>
        <time>2010-01-01T03:28:10Z</time>
      </trkpt>
      <trkpt lat="48.13265" lon="7.12552">
        <ele>779.59997</ele>
        <time>2010-01-01T03:28:19Z</time>
      </trkpt>
      <trkpt lat="48.1326" lon="7.12529">
        <ele>780</ele>
        <time>2010-01-01T03:28:25Z</time>
      </trkpt>
      <trkpt lat="48.13255" lon="7.12512">
        <ele>780.40002</ele>
        <time>2010-01-01T03:28:30Z</time>
      </trkpt>
      <trkpt lat="48.13252" lon="7.12499">
        <ele>780.59997</ele>
        <time>2010-01-01T03:28:34Z</time>
      </trkpt>
      <trkpt lat="48.13249" lon="7.1248">
        <ele>781</ele>
        <time>2010-01-01T03:28:39Z</time>
      </trkpt>
      <trkpt lat="48.13242" lon="7.12453">
        <ele>781.79998</ele>
        <time>2010-01-01T03:28:47Z</time>
      </trkpt>
      <trkpt lat="48.13242" lon="7.1245">
        <ele>782</ele>
        <time>2010-01-01T03:28:48Z</time>
      </trkpt>
      <trkpt lat="48.13242" lon="7.12436">
        <ele>782.40002</ele>
        <time>2010-01-01T03:28:51Z</time>
      </trkpt>
      <trkpt lat="48.13241" lon="7.12433">
        <ele>782.40002</ele>
        <time>2010-01-01T03:28:52Z</time>
      </trkpt>
      <trkpt lat="48.13242" lon="7.12416">
        <ele>783</ele>
        <time>2010-01-01T03:28:57Z</time>
      </trkpt>
      <trkpt lat="48.13246" lon="7.12392">
        <ele>783.20001</ele>
        <time>2010-01-01T03:29:03Z</time>
      </trkpt>
      <trkpt lat="48.13246" lon="7.12372">
        <ele>783.20001</ele>
        <time>2010-01-01T03:29:09Z</time>
      </trkpt>
      <trkpt lat="48.13248" lon="7.12351">
        <ele>783.40002</ele>
        <time>2010-01-01T03:29:14Z</time>
      </trkpt>
      <trkpt lat="48.13245" lon="7.12324">
        <ele>783.79998</ele>
        <time>2010-01-01T03:29:21Z</time>
      </trkpt>
      <trkpt lat="48.13246" lon="7.123">
        <ele>783.79998</ele>
        <time>2010-01-01T03:29:28Z</time>
      </trkpt>
      <trkpt lat="48.13249" lon="7.12271">
        <ele>783.79998</ele>
        <time>2010-01-01T03:29:36Z</time>
      </trkpt>
      <trkpt lat="48.13251" lon="7.12242">
        <ele>783.79998</ele>
        <time>2010-01-01T03:29:44Z</time>
      </trkpt>
      <trkpt lat="48.13243" lon="7.12213">
        <ele>783.59997</ele>
        <time>2010-01-01T03:29:52Z</time>
      </trkpt>
      <trkpt lat="48.13238" lon="7.12202">
        <ele>782.59997</ele>
        <time>2010-01-01T03:29:56Z</time>
      </trkpt>
      <trkpt lat="48.13236" lon="7.12184">
        <ele>780.59997</ele>
        <time>2010-01-01T03:30:00Z</time>
      </trkpt>
      <trkpt lat="48.1324" lon="7.12169">
        <ele>781</ele>
        <time>2010-01-01T03:30:05Z</time>
      </trkpt>
      <trkpt lat="48.13241" lon="7.12154">
        <ele>781.59997</ele>
        <time>2010-01-01T03:30:09Z</time>
      </trkpt>
      <trkpt lat="48.13244" lon="7.12129">
        <ele>782</ele>
        <time>2010-01-01T03:30:15Z</time>
      </trkpt>
      <trkpt lat="48.13252" lon="7.12091">
        <ele>782.40002</ele>
        <time>2010-01-01T03:30:26Z</time>
      </trkpt>
      <trkpt lat="48.13254" lon="7.12073">
        <ele>782.40002</ele>
        <time>2010-01-01T03:30:31Z</time>
      </trkpt>
      <trkpt lat="48.13256" lon="7.12052">
        <ele>782.59997</ele>
        <time>2010-01-01T03:30:36Z</time>
      </trkpt>
      <trkpt lat="48.13256" lon="7.12024">
        <ele>782.59997</ele>
        <time>2010-01-01T03:30:44Z</time>
      </trkpt>
      <trkpt lat="48.13258" lon="7.12">
        <ele>783</ele>
        <time>2010-01-01T03:30:51Z</time>
      </trkpt>
      <trkpt lat="48.13266" lon="7.11972">
        <ele>783.20001</ele>
        <time>2010-01-01T03:30:58Z</time>
      </trkpt>
      <trkpt lat="48.13267" lon="7.1196">
        <ele>783.59997</ele>
        <time>2010-01-01T03:31:02Z</time>
      </trkpt>
      <trkpt lat="48.13268" lon="7.11938">
        <ele>784.20001</ele>
        <time>2010-01-01T03:31:08Z</time>
      </trkpt>
      <trkpt lat="48.13267" lon="7.11931">
        <ele>784.40002</ele>
        <time>2010-01-01T03:31:10Z</time>
      </trkpt>
      <trkpt lat="48.13261" lon="7.11921">
        <ele>785.40002</ele>
        <time>2010-01-01T03:31:13Z</time>
      </trkpt>
      <trkpt lat="48.13256" lon="7.11914">
        <ele>787.20001</ele>
        <time>2010-01-01T03:31:16Z</time>
      </trkpt>
      <trkpt lat="48.13251" lon="7.11903">
        <ele>788.59997</ele>
        <time>2010-01-01T03:31:19Z</time>
      </trkpt>
      <trkpt lat="48.13245" lon="7.11889">
        <ele>790</ele>
        <time>2010-01-01T03:31:24Z</time>
      </trkpt>
      <trkpt lat="48.13243" lon="7.11883">
        <ele>790.59997</ele>
        <time>2010-01-01T03:31:26Z</time>
      </trkpt>
      <trkpt lat="48.13241" lon="7.11876">
        <ele>791.40002</ele>
        <time>2010-01-01T03:31:28Z</time>
      </trkpt>
      <trkpt lat="48.13238" lon="7.11866">
        <ele>791.59997</ele>
        <time>2010-01-01T03:31:31Z</time>
      </trkpt>
      <trkpt lat="48.1323" lon="7.11851">
        <ele>793</ele>
        <time>2010-01-01T03:31:36Z</time>
      </trkpt>
      <trkpt lat="48.13223" lon="7.11842">
        <ele>794.20001</ele>
        <time>2010-01-01T03:31:40Z</time>
      </trkpt>
      <trkpt lat="48.13219" lon="7.11836">
        <ele>794.79998</ele>
        <time>2010-01-01T03:31:42Z</time>
      </trkpt>
      <trkpt lat="48.13213" lon="7.11822">
        <ele>795.79998</ele>
        <time>2010-01-01T03:31:46Z</time>
      </trkpt>
      <trkpt lat="48.13208" lon="7.11804">
        <ele>796.79998</ele>
        <time>2010-01-01T03:31:51Z</time>
      </trkpt>
      <trkpt lat="48.13201" lon="7.11786">
        <ele>798</ele>
        <time>2010-01-01T03:31:57Z</time>
      </trkpt>
      <trkpt lat="48.13197" lon="7.11775">
        <ele>798.79998</ele>
        <time>2010-01-01T03:32:00Z</time>
      </trkpt>
      <trkpt lat="48.13196" lon="7.11772">
        <ele>799.20001</ele>
        <time>2010-01-01T03:32:01Z</time>
      </trkpt>
      <trkpt lat="48.13195" lon="7.11769">
        <ele>800</ele>
        <time>2010-01-01T03:32:02Z</time>
      </trkpt>
      <trkpt lat="48.13192" lon="7.11763">
        <ele>800</ele>
        <time>2010-01-01T03:32:04Z</time>
      </trkpt>
      <trkpt lat="48.13189" lon="7.11754">
        <ele>801</ele>
        <time>2010-01-01T03:32:07Z</time>
      </trkpt>
      <trkpt lat="48.13186" lon="7.11736">
        <ele>802.59997</ele>
        <time>2010-01-01T03:32:12Z</time>
      </trkpt>
      <trkpt lat="48.13183" lon="7.11722">
        <ele>803.79998</ele>
        <time>2010-01-01T03:32:16Z</time>
      </trkpt>
      <trkpt lat="48.13179" lon="7.11706">
        <ele>804.79998</ele>
        <time>2010-01-01T03:32:20Z</time>
      </trkpt>
      <trkpt lat="48.13179" lon="7.11703">
        <ele>805</ele>
        <time>2010-01-01T03:32:21Z</time>
      </trkpt>
      <trkpt lat="48.1318" lon="7.11688">
        <ele>806.79998</ele>
        <time>2010-01-01T03:32:25Z</time>
      </trkpt>
      <trkpt lat="48.13181" lon="7.11683">
        <ele>807.59997</ele>
        <time>2010-01-01T03:32:26Z</time>
      </trkpt>
      <trkpt lat="48.13183" lon="7.11674">
        <ele>808.79998</ele>
        <time>2010-01-01T03:32:29Z</time>
      </trkpt>
      <trkpt lat="48.13183" lon="7.11671">
        <ele>809.40002</ele>
        <time>2010-01-01T03:32:30Z</time>
      </trkpt>
      <trkpt lat="48.13184" lon="7.11666">
        <ele>810</ele>
        <time>2010-01-01T03:32:31Z</time>
      </trkpt>
      <trkpt lat="48.13182" lon="7.1166">
        <ele>810.40002</ele>
        <time>2010-01-01T03:32:33Z</time>
      </trkpt>
      <trkpt lat="48.1318" lon="7.11651">
        <ele>811.59997</ele>
        <time>2010-01-01T03:32:36Z</time>
      </trkpt>
      <trkpt lat="48.1318" lon="7.11639">
        <ele>813.20001</ele>
        <time>2010-01-01T03:32:39Z</time>
      </trkpt>
      <trkpt lat="48.1318" lon="7.11632">
        <ele>814.40002</ele>
        <time>2010-01-01T03:32:41Z</time>
      </trkpt>
      <trkpt lat="48.13179" lon="7.11622">
        <ele>816</ele>
        <time>2010-01-01T03:32:43Z</time>
      </trkpt>
      <trkpt lat="48.13179" lon="7.116">
        <ele>817.79998</ele>
        <time>2010-01-01T03:32:49Z</time>
      </trkpt>
      <trkpt lat="48.1318" lon="7.11593">
        <ele>818.79998</ele>
        <time>2010-01-01T03:32:51Z</time>
      </trkpt>
      <trkpt lat="48.13181" lon="7.11579">
        <ele>820.20001</ele>
        <time>2010-01-01T03:32:55Z</time>
      </trkpt>
      <trkpt lat="48.13184" lon="7.1157">
        <ele>821.20001</ele>
        <time>2010-01-01T03:32:57Z</time>
      </trkpt>
      <trkpt lat="48.13186" lon="7.11565">
        <ele>822.20001</ele>
        <time>2010-01-01T03:32:59Z</time>
      </trkpt>
      <trkpt lat="48.13185" lon="7.11559">
        <ele>823.40002</ele>
        <time>2010-01-01T03:33:01Z</time>
      </trkpt>
      <trkpt lat="48.13186" lon="7.11556">
        <ele>823.59997</ele>
        <time>2010-01-01T03:33:02Z</time>
      </trkpt>
      <trkpt lat="48.13186" lon="7.11549">
        <ele>823.79998</ele>
        <time>2010-01-01T03:33:03Z</time>
      </trkpt>
      <trkpt lat="48.13186" lon="7.11533">
        <ele>825</ele>
        <time>2010-01-01T03:33:08Z</time>
      </trkpt>
      <trkpt lat="48.13186" lon="7.11512">
        <ele>827.40002</ele>
        <time>2010-01-01T03:33:13Z</time>
      </trkpt>
      <trkpt lat="48.13187" lon="7.11491">
        <ele>829.59997</ele>
        <time>2010-01-01T03:33:19Z</time>
      </trkpt>
      <trkpt lat="48.13187" lon="7.11467">
        <ele>831.79998</ele>
        <time>2010-01-01T03:33:25Z</time>
      </trkpt>
      <trkpt lat="48.13188" lon="7.11451">
        <ele>833.20001</ele>
        <time>2010-01-01T03:33:30Z</time>
      </trkpt>
      <trkpt lat="48.13187" lon="7.11437">
        <ele>834.20001</ele>
        <time>2010-01-01T03:33:33Z</time>
      </trkpt>
      <trkpt lat="48.13185" lon="7.11417">
        <ele>835.59997</ele>
        <time>2010-01-01T03:33:39Z</time>
      </trkpt>
      <trkpt lat="48.13186" lon="7.11401">
        <ele>836.79998</ele>
        <time>2010-01-01T03:33:43Z</time>
      </trkpt>
      <trkpt lat="48.13187" lon="7.11383">
        <ele>838.20001</ele>
        <time>2010-01-01T03:33:48Z</time>
      </trkpt>
      <trkpt lat="48.13185" lon="7.11365">
        <ele>839.40002</ele>
        <time>2010-01-01T03:33:53Z</time>
      </trkpt>
      <trkpt lat="48.13181" lon="7.11343">
        <ele>840.40002</ele>
        <time>2010-01-01T03:33:59Z</time>
      </trkpt>
      <trkpt lat="48.13176" lon="7.11312">
        <ele>840.20001</ele>
        <time>2010-01-01T03:34:07Z</time>
      </trkpt>
      <trkpt lat="48.13168" lon="7.11289">
        <ele>840</ele>
        <time>2010-01-01T03:34:14Z</time>
      </trkpt>
      <trkpt lat="48.13162" lon="7.11267">
        <ele>839.40002</ele>
        <time>2010-01-01T03:34:21Z</time>
      </trkpt>
      <trkpt lat="48.13159" lon="7.1122">
        <ele>837.59997</ele>
        <time>2010-01-01T03:34:33Z</time>
      </trkpt>
      <trkpt lat="48.1316" lon="7.11193">
        <ele>837.20001</ele>
        <time>2010-01-01T03:34:40Z</time>
      </trkpt>
      <trkpt lat="48.13163" lon="7.11173">
        <ele>837</ele>
        <time>2010-01-01T03:34:46Z</time>
      </trkpt>
      <trkpt lat="48.13162" lon="7.11138">
        <ele>836.79998</ele>
        <time>2010-01-01T03:34:55Z</time>
      </trkpt>
      <trkpt lat="48.13157" lon="7.11128">
        <ele>837</ele>
        <time>2010-01-01T03:34:59Z</time>
      </trkpt>
      <trkpt lat="48.13133" lon="7.111">
        <ele>837.59997</ele>
        <time>2010-01-01T03:35:11Z</time>
      </trkpt>
      <trkpt lat="48.13114" lon="7.11072">
        <ele>836.79998</ele>
        <time>2010-01-01T03:35:22Z</time>
      </trkpt>
      <trkpt lat="48.13089" lon="7.11029">
        <ele>835.59997</ele>
        <time>2010-01-01T03:35:37Z</time>
      </trkpt>
      <trkpt lat="48.13085" lon="7.11023">
        <ele>835.79998</ele>
        <time>2010-01-01T03:35:39Z</time>
      </trkpt>
      <trkpt lat="48.13079" lon="7.1101">
        <ele>835.79998</ele>
        <time>2010-01-01T03:35:43Z</time>
      </trkpt>
      <trkpt lat="48.13059" lon="7.10987">
        <ele>836.20001</ele>
        <time>2010-01-01T03:35:53Z</time>
      </trkpt>
      <trkpt lat="48.13054" lon="7.10983">
        <ele>836.20001</ele>
        <time>2010-01-01T03:35:56Z</time>
      </trkpt>
      <trkpt lat="48.13036" lon="7.10971">
        <ele>836.40002</ele>
        <time>2010-01-01T03:36:03Z</time>
      </trkpt>
      <trkpt lat="48.13003" lon="7.10961">
        <ele>837.59997</ele>
        <time>2010-01-01T03:36:17Z</time>
      </trkpt>
      <trkpt lat="48.1299" lon="7.10949">
        <ele>839.59997</ele>
        <time>2010-01-01T03:36:23Z</time>
      </trkpt>
      <trkpt lat="48.1298" lon="7.10926">
        <ele>842.59997</ele>
        <time>2010-01-01T03:36:30Z</time>
      </trkpt>
      <trkpt lat="48.12974" lon="7.10901">
        <ele>846.59997</ele>
        <time>2010-01-01T03:36:38Z</time>
      </trkpt>
      <trkpt lat="48.12966" lon="7.10878">
        <ele>849.59997</ele>
        <time>2010-01-01T03:36:44Z</time>
      </trkpt>
      <trkpt lat="48.1295" lon="7.10864">
        <ele>851.59997</ele>
        <time>2010-01-01T03:36:52Z</time>
      </trkpt>
      <trkpt lat="48.12935" lon="7.10855">
        <ele>853.40002</ele>
        <time>2010-01-01T03:36:59Z</time>
      </trkpt>
      <trkpt lat="48.12916" lon="7.1084">
        <ele>856</ele>
        <time>2010-01-01T03:37:07Z</time>
      </trkpt>
      <trkpt lat="48.12905" lon="7.1084">
        <ele>856.79998</ele>
        <time>2010-01-01T03:37:12Z</time>
      </trkpt>
      <trkpt lat="48.12894" lon="7.10842">
        <ele>856.40002</ele>
        <time>2010-01-01T03:37:16Z</time>
      </trkpt>
      <trkpt lat="48.12893" lon="7.10842">
        <ele>856.20001</ele>
        <time>2010-01-01T03:37:16Z</time>
      </trkpt>
      <trkpt lat="48.12891" lon="7.10844">
        <ele>855.79998</ele>
        <time>2010-01-01T03:37:17Z</time>
      </trkpt>
      <trkpt lat="48.12887" lon="7.10846">
        <ele>855.79998</ele>
        <time>2010-01-01T03:37:19Z</time>
      </trkpt>
      <trkpt lat="48.12879" lon="7.10842">
        <ele>856</ele>
        <time>2010-01-01T03:37:22Z</time>
      </trkpt>
      <trkpt lat="48.1288" lon="7.10841">
        <ele>856</ele>
        <time>2010-01-01T03:37:22Z</time>
      </trkpt>
      <trkpt lat="48.12876" lon="7.10844">
        <ele>856</ele>
        <time>2010-01-01T03:37:24Z</time>
      </trkpt>
      <trkpt lat="48.12868" lon="7.10847">
        <ele>856</ele>
        <time>2010-01-01T03:37:27Z</time>
      </trkpt>
      <trkpt lat="48.12862" lon="7.1085">
        <ele>856.40002</ele>
        <time>2010-01-01T03:37:30Z</time>
      </trkpt>
      <trkpt lat="48.12848" lon="7.1085">
        <ele>856.59997</ele>
        <time>2010-01-01T03:37:36Z</time>
      </trkpt>
      <trkpt lat="48.1283" lon="7.10849">
        <ele>856.40002</ele>
        <time>2010-01-01T03:37:43Z</time>
      </trkpt>
      <trkpt lat="48.12818" lon="7.10841">
        <ele>856.79998</ele>
        <time>2010-01-01T03:37:48Z</time>
      </trkpt>
      <trkpt lat="48.12816" lon="7.10835">
        <ele>857.40002</ele>
        <time>2010-01-01T03:37:50Z</time>
      </trkpt>
      <trkpt lat="48.12808" lon="7.10824">
        <ele>858.59997</ele>
        <time>2010-01-01T03:37:54Z</time>
      </trkpt>
      <trkpt lat="48.12806" lon="7.1082">
        <ele>859.20001</ele>
        <time>2010-01-01T03:37:56Z</time>
      </trkpt>
      <trkpt lat="48.12798" lon="7.10813">
        <ele>860.79998</ele>
        <time>2010-01-01T03:37:59Z</time>
      </trkpt>
      <trkpt lat="48.1279" lon="7.10806">
        <ele>861.59997</ele>
        <time>2010-01-01T03:38:03Z</time>
      </trkpt>
      <trkpt lat="48.1278" lon="7.10804">
        <ele>862.79998</ele>
        <time>2010-01-01T03:38:07Z</time>
      </trkpt>
      <trkpt lat="48.12776" lon="7.10805">
        <ele>863.59997</ele>
        <time>2010-01-01T03:38:09Z</time>
      </trkpt>
      <trkpt lat="48.12771" lon="7.10798">
        <ele>864.40002</ele>
        <time>2010-01-01T03:38:11Z</time>
      </trkpt>
      <trkpt lat="48.12768" lon="7.10799">
        <ele>865.40002</ele>
        <time>2010-01-01T03:38:13Z</time>
      </trkpt>
      <trkpt lat="48.12765" lon="7.10799">
        <ele>866.40002</ele>
        <time>2010-01-01T03:38:14Z</time>
      </trkpt>
      <trkpt lat="48.12763" lon="7.10792">
        <ele>866.79998</ele>
        <time>2010-01-01T03:38:16Z</time>
      </trkpt>
      <trkpt lat="48.12758" lon="7.10791">
        <ele>866.59997</ele>
        <time>2010-01-01T03:38:18Z</time>
      </trkpt>
      <trkpt lat="48.12753" lon="7.1079">
        <ele>866.79998</ele>
        <time>2010-01-01T03:38:20Z</time>
      </trkpt>
      <trkpt lat="48.12744" lon="7.10783">
        <ele>867</ele>
        <time>2010-01-01T03:38:24Z</time>
      </trkpt>
      <trkpt lat="48.12736" lon="7.10776">
        <ele>867</ele>
        <time>2010-01-01T03:38:28Z</time>
      </trkpt>
      <trkpt lat="48.12724" lon="7.10767">
        <ele>867</ele>
        <time>2010-01-01T03:38:33Z</time>
      </trkpt>
      <trkpt lat="48.12715" lon="7.10758">
        <ele>867.20001</ele>
        <time>2010-01-01T03:38:37Z</time>
      </trkpt>
      <trkpt lat="48.1271" lon="7.10744">
        <ele>867.59997</ele>
        <time>2010-01-01T03:38:42Z</time>
      </trkpt>
      <trkpt lat="48.12704" lon="7.10736">
        <ele>868</ele>
        <time>2010-01-01T03:38:45Z</time>
      </trkpt>
      <trkpt lat="48.12698" lon="7.10728">
        <ele>868.40002</ele>
        <time>2010-01-01T03:38:48Z</time>
      </trkpt>
      <trkpt lat="48.12694" lon="7.10719">
        <ele>868.79998</ele>
        <time>2010-01-01T03:38:51Z</time>
      </trkpt>
      <trkpt lat="48.12689" lon="7.10711">
        <ele>869.20001</ele>
        <time>2010-01-01T03:38:54Z</time>
      </trkpt>
      <trkpt lat="48.12689" lon="7.1071">
        <ele>869.20001</ele>
        <time>2010-01-01T03:38:54Z</time>
      </trkpt>
      <trkpt lat="48.12684" lon="7.10695">
        <ele>870</ele>
        <time>2010-01-01T03:38:59Z</time>
      </trkpt>
      <trkpt lat="48.12678" lon="7.10678">
        <ele>870.79998</ele>
        <time>2010-01-01T03:39:04Z</time>
      </trkpt>
      <trkpt lat="48.12678" lon="7.10671">
        <ele>871.40002</ele>
        <time>2010-01-01T03:39:06Z</time>
      </trkpt>
      <trkpt lat="48.12675" lon="7.10661">
        <ele>871.79998</ele>
        <time>2010-01-01T03:39:09Z</time>
      </trkpt>
      <trkpt lat="48.12671" lon="7.10646">
        <ele>872.20001</ele>
        <time>2010-01-01T03:39:13Z</time>
      </trkpt>
      <trkpt lat="48.12665" lon="7.1063">
        <ele>872.59997</ele>
        <time>2010-01-01T03:39:18Z</time>
      </trkpt>
      <trkpt lat="48.12663" lon="7.10622">
        <ele>873</ele>
        <time>2010-01-01T03:39:20Z</time>
      </trkpt>
      <trkpt lat="48.12661" lon="7.10619">
        <ele>873.20001</ele>
        <time>2010-01-01T03:39:21Z</time>
      </trkpt>
      <trkpt lat="48.1266" lon="7.10616">
        <ele>873.20001</ele>
        <time>2010-01-01T03:39:22Z</time>
      </trkpt>
      <trkpt lat="48.12656" lon="7.1061">
        <ele>873.79998</ele>
        <time>2010-01-01T03:39:25Z</time>
      </trkpt>
      <trkpt lat="48.12653" lon="7.106">
        <ele>874.20001</ele>
        <time>2010-01-01T03:39:27Z</time>
      </trkpt>
      <trkpt lat="48.12645" lon="7.10582">
        <ele>874.40002</ele>
        <time>2010-01-01T03:39:33Z</time>
      </trkpt>
      <trkpt lat="48.12639" lon="7.10567">
        <ele>874.79998</ele>
        <time>2010-01-01T03:39:38Z</time>
      </trkpt>
      <trkpt lat="48.12636" lon="7.10562">
        <ele>874.79998</ele>
        <time>2010-01-01T03:39:40Z</time>
      </trkpt>
      <trkpt lat="48.12631" lon="7.10557">
        <ele>874.79998</ele>
        <time>2010-01-01T03:39:42Z</time>
      </trkpt>
      <trkpt lat="48.1263" lon="7.10551">
        <ele>875</ele>
        <time>2010-01-01T03:39:44Z</time>
      </trkpt>
      <trkpt lat="48.12624" lon="7.10544">
        <ele>874.79998</ele>
        <time>2010-01-01T03:39:47Z</time>
      </trkpt>
      <trkpt lat="48.12622" lon="7.10541">
        <ele>875</ele>
        <time>2010-01-01T03:39:48Z</time>
      </trkpt>
      <trkpt lat="48.12617" lon="7.10531">
        <ele>876.20001</ele>
        <time>2010-01-01T03:39:51Z</time>
      </trkpt>
      <trkpt lat="48.12616" lon="7.10531">
        <ele>879</ele>
        <time>2010-01-01T03:39:51Z</time>
      </trkpt>
      <trkpt lat="48.12614" lon="7.10524">
        <ele>890.40002</ele>
        <time>2010-01-01T03:39:53Z</time>
      </trkpt>
      <trkpt lat="48.12613" lon="7.10521">
        <ele>896.20001</ele>
        <time>2010-01-01T03:39:54Z</time>
      </trkpt>
      <trkpt lat="48.12612" lon="7.10518">
        <ele>898.40002</ele>
        <time>2010-01-01T03:39:55Z</time>
      </trkpt>
      <trkpt lat="48.12613" lon="7.10511">
        <ele>899</ele>
        <time>2010-01-01T03:39:57Z</time>
      </trkpt>
      <trkpt lat="48.12612" lon="7.10499">
        <ele>899.59997</ele>
        <time>2010-01-01T03:40:00Z</time>
      </trkpt>
      <trkpt lat="48.12614" lon="7.10484">
        <ele>900.79998</ele>
        <time>2010-01-01T03:40:04Z</time>
      </trkpt>
      <trkpt lat="48.12613" lon="7.10475">
        <ele>902</ele>
        <time>2010-01-01T03:40:07Z</time>
      </trkpt>
      <trkpt lat="48.12614" lon="7.10469">
        <ele>903</ele>
        <time>2010-01-01T03:40:09Z</time>
      </trkpt>
      <trkpt lat="48.12615" lon="7.10464">
        <ele>904.20001</ele>
        <time>2010-01-01T03:40:10Z</time>
      </trkpt>
      <trkpt lat="48.12613" lon="7.10456">
        <ele>905.40002</ele>
        <time>2010-01-01T03:40:12Z</time>
      </trkpt>
      <trkpt lat="48.1261" lon="7.10447">
        <ele>905.79998</ele>
        <time>2010-01-01T03:40:15Z</time>
      </trkpt>
      <trkpt lat="48.12604" lon="7.10434">
        <ele>906.79998</ele>
        <time>2010-01-01T03:40:19Z</time>
      </trkpt>
      <trkpt lat="48.12599" lon="7.10423">
        <ele>907.40002</ele>
        <time>2010-01-01T03:40:23Z</time>
      </trkpt>
      <trkpt lat="48.1259" lon="7.10415">
        <ele>908.59997</ele>
        <time>2010-01-01T03:40:27Z</time>
      </trkpt>
      <trkpt lat="48.12579" lon="7.10405">
        <ele>910</ele>
        <time>2010-01-01T03:40:32Z</time>
      </trkpt>
      <trkpt lat="48.12562" lon="7.1039">
        <ele>911.79998</ele>
        <time>2010-01-01T03:40:40Z</time>
      </trkpt>
      <trkpt lat="48.12547" lon="7.10376">
        <ele>913</ele>
        <time>2010-01-01T03:40:47Z</time>
      </trkpt>
      <trkpt lat="48.12538" lon="7.10368">
        <ele>913.59997</ele>
        <time>2010-01-01T03:40:51Z</time>
      </trkpt>
      <trkpt lat="48.12539" lon="7.10362">
        <ele>914.20001</ele>
        <time>2010-01-01T03:40:53Z</time>
      </trkpt>
      <trkpt lat="48.12541" lon="7.10363">
        <ele>914.40002</ele>
        <time>2010-01-01T03:40:54Z</time>
      </trkpt>
      <trkpt lat="48.12556" lon="7.10373">
        <ele>916</ele>
        <time>2010-01-01T03:41:00Z</time>
      </trkpt>
      <trkpt lat="48.12568" lon="7.10374">
        <ele>916.79998</ele>
        <time>2010-01-01T03:41:05Z</time>
      </trkpt>
      <trkpt lat="48.12587" lon="7.10377">
        <ele>918.20001</ele>
        <time>2010-01-01T03:41:13Z</time>
      </trkpt>
      <trkpt lat="48.12605" lon="7.10383">
        <ele>919.79998</ele>
        <time>2010-01-01T03:41:20Z</time>
      </trkpt>
      <trkpt lat="48.12628" lon="7.10386">
        <ele>921.20001</ele>
        <time>2010-01-01T03:41:30Z</time>
      </trkpt>
      <trkpt lat="48.12646" lon="7.10395">
        <ele>921.79998</ele>
        <time>2010-01-01T03:41:37Z</time>
      </trkpt>
      <trkpt lat="48.12661" lon="7.10413">
        <ele>922.79998</ele>
        <time>2010-01-01T03:41:45Z</time>
      </trkpt>
      <trkpt lat="48.12674" lon="7.1044">
        <ele>924.40002</ele>
        <time>2010-01-01T03:41:54Z</time>
      </trkpt>
      <trkpt lat="48.12685" lon="7.10454">
        <ele>926</ele>
        <time>2010-01-01T03:41:59Z</time>
      </trkpt>
      <trkpt lat="48.12699" lon="7.10463">
        <ele>926.79998</ele>
        <time>2010-01-01T03:42:05Z</time>
      </trkpt>
      <trkpt lat="48.12718" lon="7.10478">
        <ele>928.40002</ele>
        <time>2010-01-01T03:42:14Z</time>
      </trkpt>
      <trkpt lat="48.12733" lon="7.10495">
        <ele>929.79998</ele>
        <time>2010-01-01T03:42:22Z</time>
      </trkpt>
      <trkpt lat="48.1275" lon="7.10501">
        <ele>930.79998</ele>
        <time>2010-01-01T03:42:29Z</time>
      </trkpt>
      <trkpt lat="48.12771" lon="7.10501">
        <ele>931.59997</ele>
        <time>2010-01-01T03:42:37Z</time>
      </trkpt>
      <trkpt lat="48.12789" lon="7.10502">
        <ele>932.59997</ele>
        <time>2010-01-01T03:42:44Z</time>
      </trkpt>
      <trkpt lat="48.12809" lon="7.10502">
        <ele>933.40002</ele>
        <time>2010-01-01T03:42:52Z</time>
      </trkpt>
      <trkpt lat="48.12823" lon="7.10502">
        <ele>934.40002</ele>
        <time>2010-01-01T03:42:58Z</time>
      </trkpt>
      <trkpt lat="48.12836" lon="7.105">
        <ele>935.79998</ele>
        <time>2010-01-01T03:43:03Z</time>
      </trkpt>
      <trkpt lat="48.12849" lon="7.10503">
        <ele>937.20001</ele>
        <time>2010-01-01T03:43:08Z</time>
      </trkpt>
      <trkpt lat="48.12864" lon="7.10504">
        <ele>937.59997</ele>
        <time>2010-01-01T03:43:14Z</time>
      </trkpt>
      <trkpt lat="48.12877" lon="7.105">
        <ele>938</ele>
        <time>2010-01-01T03:43:20Z</time>
      </trkpt>
      <trkpt lat="48.12887" lon="7.10497">
        <ele>939</ele>
        <time>2010-01-01T03:43:24Z</time>
      </trkpt>
      <trkpt lat="48.12897" lon="7.10493">
        <ele>940.59997</ele>
        <time>2010-01-01T03:43:28Z</time>
      </trkpt>
      <trkpt lat="48.1291" lon="7.10492">
        <ele>943.20001</ele>
        <time>2010-01-01T03:43:33Z</time>
      </trkpt>
      <trkpt lat="48.1292" lon="7.10488">
        <ele>945.40002</ele>
        <time>2010-01-01T03:43:37Z</time>
      </trkpt>
      <trkpt lat="48.1293" lon="7.1048">
        <ele>947.20001</ele>
        <time>2010-01-01T03:43:42Z</time>
      </trkpt>
      <trkpt lat="48.12932" lon="7.10478">
        <ele>947.59997</ele>
        <time>2010-01-01T03:43:43Z</time>
      </trkpt>
      <trkpt lat="48.12934" lon="7.10472">
        <ele>948.40002</ele>
        <time>2010-01-01T03:43:45Z</time>
      </trkpt>
      <trkpt lat="48.12935" lon="7.1047">
        <ele>949</ele>
        <time>2010-01-01T03:43:45Z</time>
      </trkpt>
      <trkpt lat="48.12936" lon="7.10459">
        <ele>950.79998</ele>
        <time>2010-01-01T03:43:48Z</time>
      </trkpt>
      <trkpt lat="48.12935" lon="7.10443">
        <ele>952.59997</ele>
        <time>2010-01-01T03:43:52Z</time>
      </trkpt>
      <trkpt lat="48.12931" lon="7.10428">
        <ele>954.20001</ele>
        <time>2010-01-01T03:43:57Z</time>
      </trkpt>
      <trkpt lat="48.12925" lon="7.10416">
        <ele>955.20001</ele>
        <time>2010-01-01T03:44:01Z</time>
      </trkpt>
      <trkpt lat="48.12917" lon="7.10403">
        <ele>956.20001</ele>
        <time>2010-01-01T03:44:06Z</time>
      </trkpt>
      <trkpt lat="48.12916" lon="7.1039">
        <ele>957.59997</ele>
        <time>2010-01-01T03:44:09Z</time>
      </trkpt>
      <trkpt lat="48.12916" lon="7.10377">
        <ele>959.59997</ele>
        <time>2010-01-01T03:44:13Z</time>
      </trkpt>
      <trkpt lat="48.1292" lon="7.10371">
        <ele>961.20001</ele>
        <time>2010-01-01T03:44:15Z</time>
      </trkpt>
      <trkpt lat="48.12929" lon="7.10364">
        <ele>962.40002</ele>
        <time>2010-01-01T03:44:19Z</time>
      </trkpt>
      <trkpt lat="48.12936" lon="7.10365">
        <ele>963</ele>
        <time>2010-01-01T03:44:22Z</time>
      </trkpt>
      <trkpt lat="48.12944" lon="7.10365">
        <ele>963.40002</ele>
        <time>2010-01-01T03:44:25Z</time>
      </trkpt>
      <trkpt lat="48.12952" lon="7.10363">
        <ele>963.79998</ele>
        <time>2010-01-01T03:44:28Z</time>
      </trkpt>
      <trkpt lat="48.12965" lon="7.10362">
        <ele>965</ele>
        <time>2010-01-01T03:44:33Z</time>
      </trkpt>
      <trkpt lat="48.1298" lon="7.10367">
        <ele>965.79998</ele>
        <time>2010-01-01T03:44:40Z</time>
      </trkpt>
      <trkpt lat="48.12998" lon="7.10368">
        <ele>965.79998</ele>
        <time>2010-01-01T03:44:47Z</time>
      </trkpt>
      <trkpt lat="48.13012" lon="7.10369">
        <ele>966.20001</ele>
        <time>2010-01-01T03:44:52Z</time>
      </trkpt>
      <trkpt lat="48.13024" lon="7.10361">
        <ele>967.20001</ele>
        <time>2010-01-01T03:44:58Z</time>
      </trkpt>
      <trkpt lat="48.13035" lon="7.10352">
        <ele>968.59997</ele>
        <time>2010-01-01T03:45:03Z</time>
      </trkpt>
      <trkpt lat="48.13045" lon="7.10343">
        <ele>970</ele>
        <time>2010-01-01T03:45:07Z</time>
      </trkpt>
      <trkpt lat="48.13052" lon="7.10332">
        <ele>971.20001</ele>
        <time>2010-01-01T03:45:11Z</time>
      </trkpt>
      <trkpt lat="48.13059" lon="7.10321">
        <ele>973.40002</ele>
        <time>2010-01-01T03:45:15Z</time>
      </trkpt>
      <trkpt lat="48.13067" lon="7.10311">
        <ele>975.40002</ele>
        <time>2010-01-01T03:45:20Z</time>
      </trkpt>
      <trkpt lat="48.13075" lon="7.10299">
        <ele>976.79998</ele>
        <time>2010-01-01T03:45:24Z</time>
      </trkpt>
      <trkpt lat="48.13079" lon="7.10292">
        <ele>978</ele>
        <time>2010-01-01T03:45:27Z</time>
      </trkpt>
      <trkpt lat="48.13084" lon="7.10283">
        <ele>979.40002</ele>
        <time>2010-01-01T03:45:30Z</time>
      </trkpt>
      <trkpt lat="48.13083" lon="7.10275">
        <ele>980.59997</ele>
        <time>2010-01-01T03:45:32Z</time>
      </trkpt>
      <trkpt lat="48.13081" lon="7.10269">
        <ele>981.40002</ele>
        <time>2010-01-01T03:45:33Z</time>
      </trkpt>
      <trkpt lat="48.13071" lon="7.10263">
        <ele>982.40002</ele>
        <time>2010-01-01T03:45:38Z</time>
      </trkpt>
      <trkpt lat="48.13057" lon="7.10257">
        <ele>982.59997</ele>
        <time>2010-01-01T03:45:44Z</time>
      </trkpt>
      <trkpt lat="48.13043" lon="7.10249">
        <ele>983</ele>
        <time>2010-01-01T03:45:50Z</time>
      </trkpt>
      <trkpt lat="48.13035" lon="7.10242">
        <ele>983.79998</ele>
        <time>2010-01-01T03:45:53Z</time>
      </trkpt>
      <trkpt lat="48.13022" lon="7.10231">
        <ele>984.59997</ele>
        <time>2010-01-01T03:45:59Z</time>
      </trkpt>
      <trkpt lat="48.13012" lon="7.10219">
        <ele>985.40002</ele>
        <time>2010-01-01T03:46:05Z</time>
      </trkpt>
      <trkpt lat="48.13003" lon="7.10213">
        <ele>986.40002</ele>
        <time>2010-01-01T03:46:09Z</time>
      </trkpt>
      <trkpt lat="48.12994" lon="7.10209">
        <ele>986.79998</ele>
        <time>2010-01-01T03:46:12Z</time>
      </trkpt>
      <trkpt lat="48.12981" lon="7.10203">
        <ele>987.79998</ele>
        <time>2010-01-01T03:46:18Z</time>
      </trkpt>
      <trkpt lat="48.12963" lon="7.10193">
        <ele>989.40002</ele>
        <time>2010-01-01T03:46:25Z</time>
      </trkpt>
      <trkpt lat="48.12945" lon="7.10188">
        <ele>990.59997</ele>
        <time>2010-01-01T03:46:33Z</time>
      </trkpt>
      <trkpt lat="48.12925" lon="7.10186">
        <ele>992</ele>
        <time>2010-01-01T03:46:41Z</time>
      </trkpt>
      <trkpt lat="48.12913" lon="7.10184">
        <ele>992.79998</ele>
        <time>2010-01-01T03:46:46Z</time>
      </trkpt>
      <trkpt lat="48.12892" lon="7.10179">
        <ele>993.79998</ele>
        <time>2010-01-01T03:46:54Z</time>
      </trkpt>
      <trkpt lat="48.12875" lon="7.10178">
        <ele>994.40002</ele>
        <time>2010-01-01T03:47:01Z</time>
      </trkpt>
      <trkpt lat="48.12862" lon="7.10175">
        <ele>995</ele>
        <time>2010-01-01T03:47:06Z</time>
      </trkpt>
      <trkpt lat="48.12847" lon="7.1017">
        <ele>995.79998</ele>
        <time>2010-01-01T03:47:12Z</time>
      </trkpt>
      <trkpt lat="48.12832" lon="7.10165">
        <ele>997</ele>
        <time>2010-01-01T03:47:18Z</time>
      </trkpt>
      <trkpt lat="48.12818" lon="7.10159">
        <ele>998.59997</ele>
        <time>2010-01-01T03:47:24Z</time>
      </trkpt>
      <trkpt lat="48.12801" lon="7.10154">
        <ele>1000</ele>
        <time>2010-01-01T03:47:31Z</time>
      </trkpt>
      <trkpt lat="48.12786" lon="7.1015">
        <ele>1000.5999</ele>
        <time>2010-01-01T03:47:37Z</time>
      </trkpt>
      <trkpt lat="48.12776" lon="7.10147">
        <ele>1001.5999</ele>
        <time>2010-01-01T03:47:41Z</time>
      </trkpt>
      <trkpt lat="48.1276" lon="7.10138">
        <ele>1002.7999</ele>
        <time>2010-01-01T03:47:48Z</time>
      </trkpt>
      <trkpt lat="48.12749" lon="7.10117">
        <ele>1002.7999</ele>
        <time>2010-01-01T03:47:55Z</time>
      </trkpt>
      <trkpt lat="48.12734" lon="7.10073">
        <ele>1002</ele>
        <time>2010-01-01T03:48:08Z</time>
      </trkpt>
      <trkpt lat="48.12731" lon="7.10055">
        <ele>1003</ele>
        <time>2010-01-01T03:48:13Z</time>
      </trkpt>
      <trkpt lat="48.12727" lon="7.10033">
        <ele>1005.4</ele>
        <time>2010-01-01T03:48:20Z</time>
      </trkpt>
      <trkpt lat="48.1272" lon="7.10015">
        <ele>1007.4</ele>
        <time>2010-01-01T03:48:25Z</time>
      </trkpt>
      <trkpt lat="48.12712" lon="7.10004">
        <ele>1008.2</ele>
        <time>2010-01-01T03:48:29Z</time>
      </trkpt>
      <trkpt lat="48.12701" lon="7.09989">
        <ele>1009</ele>
        <time>2010-01-01T03:48:35Z</time>
      </trkpt>
      <trkpt lat="48.12691" lon="7.09974">
        <ele>1011.4</ele>
        <time>2010-01-01T03:48:41Z</time>
      </trkpt>
      <trkpt lat="48.1268" lon="7.09958">
        <ele>1014</ele>
        <time>2010-01-01T03:48:47Z</time>
      </trkpt>
      <trkpt lat="48.1267" lon="7.09942">
        <ele>1015.7999</ele>
        <time>2010-01-01T03:48:53Z</time>
      </trkpt>
      <trkpt lat="48.12657" lon="7.09923">
        <ele>1017.4</ele>
        <time>2010-01-01T03:49:00Z</time>
      </trkpt>
      <trkpt lat="48.12646" lon="7.09903">
        <ele>1019.2</ele>
        <time>2010-01-01T03:49:07Z</time>
      </trkpt>
      <trkpt lat="48.12634" lon="7.09886">
        <ele>1020.5999</ele>
        <time>2010-01-01T03:49:14Z</time>
      </trkpt>
      <trkpt lat="48.1262" lon="7.09872">
        <ele>1023.2</ele>
        <time>2010-01-01T03:49:21Z</time>
      </trkpt>
      <trkpt lat="48.12606" lon="7.09859">
        <ele>1024.8</ele>
        <time>2010-01-01T03:49:27Z</time>
      </trkpt>
      <trkpt lat="48.12592" lon="7.09851">
        <ele>1026.4</ele>
        <time>2010-01-01T03:49:33Z</time>
      </trkpt>
      <trkpt lat="48.12582" lon="7.09844">
        <ele>1027</ele>
        <time>2010-01-01T03:49:37Z</time>
      </trkpt>
      <trkpt lat="48.12565" lon="7.09831">
        <ele>1027</ele>
        <time>2010-01-01T03:49:45Z</time>
      </trkpt>
      <trkpt lat="48.12554" lon="7.09818">
        <ele>1027.8</ele>
        <time>2010-01-01T03:49:51Z</time>
      </trkpt>
      <trkpt lat="48.12543" lon="7.09812">
        <ele>1029.8</ele>
        <time>2010-01-01T03:49:56Z</time>
      </trkpt>
      <trkpt lat="48.12541" lon="7.09811">
        <ele>1030</ele>
        <time>2010-01-01T03:49:56Z</time>
      </trkpt>
      <trkpt lat="48.12541" lon="7.09801">
        <ele>1031.1999</ele>
        <time>2010-01-01T03:49:59Z</time>
      </trkpt>
      <trkpt lat="48.12548" lon="7.09794">
        <ele>1032.4</ele>
        <time>2010-01-01T03:50:02Z</time>
      </trkpt>
      <trkpt lat="48.12559" lon="7.09794">
        <ele>1034.8</ele>
        <time>2010-01-01T03:50:07Z</time>
      </trkpt>
      <trkpt lat="48.12565" lon="7.09796">
        <ele>1036.4</ele>
        <time>2010-01-01T03:50:09Z</time>
      </trkpt>
      <trkpt lat="48.12567" lon="7.09796">
        <ele>1036.4</ele>
        <time>2010-01-01T03:50:10Z</time>
      </trkpt>
      <trkpt lat="48.12568" lon="7.09796">
        <ele>1036.4</ele>
        <time>2010-01-01T03:50:11Z</time>
      </trkpt>
      <trkpt lat="48.12576" lon="7.09799">
        <ele>1038</ele>
        <time>2010-01-01T03:50:14Z</time>
      </trkpt>
      <trkpt lat="48.12588" lon="7.09799">
        <ele>1040.1999</ele>
        <time>2010-01-01T03:50:18Z</time>
      </trkpt>
      <trkpt lat="48.12595" lon="7.09794">
        <ele>1041.4</ele>
        <time>2010-01-01T03:50:22Z</time>
      </trkpt>
      <trkpt lat="48.12602" lon="7.09788">
        <ele>1041.8</ele>
        <time>2010-01-01T03:50:25Z</time>
      </trkpt>
      <trkpt lat="48.12613" lon="7.09788">
        <ele>1041.8</ele>
        <time>2010-01-01T03:50:29Z</time>
      </trkpt>
      <trkpt lat="48.12619" lon="7.09797">
        <ele>1042.5999</ele>
        <time>2010-01-01T03:50:33Z</time>
      </trkpt>
      <trkpt lat="48.12633" lon="7.09813">
        <ele>1043.4</ele>
        <time>2010-01-01T03:50:40Z</time>
      </trkpt>
      <trkpt lat="48.1265" lon="7.09824">
        <ele>1044.1999</ele>
        <time>2010-01-01T03:50:47Z</time>
      </trkpt>
      <trkpt lat="48.12665" lon="7.09832">
        <ele>1045</ele>
        <time>2010-01-01T03:50:53Z</time>
      </trkpt>
      <trkpt lat="48.12683" lon="7.09847">
        <ele>1046</ele>
        <time>2010-01-01T03:51:02Z</time>
      </trkpt>
      <trkpt lat="48.12694" lon="7.09868">
        <ele>1047</ele>
        <time>2010-01-01T03:51:09Z</time>
      </trkpt>
      <trkpt lat="48.12709" lon="7.09891">
        <ele>1047</ele>
        <time>2010-01-01T03:51:17Z</time>
      </trkpt>
      <trkpt lat="48.12729" lon="7.09911">
        <ele>1047.5999</ele>
        <time>2010-01-01T03:51:27Z</time>
      </trkpt>
      <trkpt lat="48.12751" lon="7.09921">
        <ele>1048.5999</ele>
        <time>2010-01-01T03:51:36Z</time>
      </trkpt>
      <trkpt lat="48.12755" lon="7.09922">
        <ele>1048.5999</ele>
        <time>2010-01-01T03:51:38Z</time>
      </trkpt>
      <trkpt lat="48.1276" lon="7.09914">
        <ele>1048.8</ele>
        <time>2010-01-01T03:51:41Z</time>
      </trkpt>
      <trkpt lat="48.12758" lon="7.09909">
        <ele>1049.5999</ele>
        <time>2010-01-01T03:51:43Z</time>
      </trkpt>
      <trkpt lat="48.12745" lon="7.09894">
        <ele>1052.4</ele>
        <time>2010-01-01T03:51:49Z</time>
      </trkpt>
      <trkpt lat="48.12734" lon="7.09871">
        <ele>1054.1999</ele>
        <time>2010-01-01T03:51:56Z</time>
      </trkpt>
      <trkpt lat="48.12723" lon="7.09847">
        <ele>1055.8</ele>
        <time>2010-01-01T03:52:04Z</time>
      </trkpt>
      <trkpt lat="48.12721" lon="7.09831">
        <ele>1057</ele>
        <time>2010-01-01T03:52:09Z</time>
      </trkpt>
      <trkpt lat="48.12721" lon="7.09816">
        <ele>1058.5999</ele>
        <time>2010-01-01T03:52:13Z</time>
      </trkpt>
      <trkpt lat="48.12725" lon="7.09804">
        <ele>1059.8</ele>
        <time>2010-01-01T03:52:16Z</time>
      </trkpt>
      <trkpt lat="48.12731" lon="7.09797">
        <ele>1061.1999</ele>
        <time>2010-01-01T03:52:19Z</time>
      </trkpt>
      <trkpt lat="48.12739" lon="7.0979">
        <ele>1062.5999</ele>
        <time>2010-01-01T03:52:23Z</time>
      </trkpt>
      <trkpt lat="48.12752" lon="7.09787">
        <ele>1064.1999</ele>
        <time>2010-01-01T03:52:28Z</time>
      </trkpt>
      <trkpt lat="48.12761" lon="7.09787">
        <ele>1065</ele>
        <time>2010-01-01T03:52:32Z</time>
      </trkpt>
      <trkpt lat="48.12774" lon="7.09779">
        <ele>1066.5999</ele>
        <time>2010-01-01T03:52:37Z</time>
      </trkpt>
      <trkpt lat="48.12788" lon="7.09768">
        <ele>1068.8</ele>
        <time>2010-01-01T03:52:44Z</time>
      </trkpt>
      <trkpt lat="48.12798" lon="7.09753">
        <ele>1069.5999</ele>
        <time>2010-01-01T03:52:49Z</time>
      </trkpt>
      <trkpt lat="48.12795" lon="7.0974">
        <ele>1070.4</ele>
        <time>2010-01-01T03:52:53Z</time>
      </trkpt>
      <trkpt lat="48.12784" lon="7.09734">
        <ele>1071</ele>
        <time>2010-01-01T03:52:58Z</time>
      </trkpt>
      <trkpt lat="48.12764" lon="7.09738">
        <ele>1072.1999</ele>
        <time>2010-01-01T03:53:06Z</time>
      </trkpt>
      <trkpt lat="48.12746" lon="7.09743">
        <ele>1074.1999</ele>
        <time>2010-01-01T03:53:13Z</time>
      </trkpt>
      <trkpt lat="48.12736" lon="7.0974">
        <ele>1075.5999</ele>
        <time>2010-01-01T03:53:17Z</time>
      </trkpt>
      <trkpt lat="48.12727" lon="7.09729">
        <ele>1076.8</ele>
        <time>2010-01-01T03:53:22Z</time>
      </trkpt>
      <trkpt lat="48.12712" lon="7.09707">
        <ele>1078</ele>
        <time>2010-01-01T03:53:30Z</time>
      </trkpt>
      <trkpt lat="48.12698" lon="7.09686">
        <ele>1077.5999</ele>
        <time>2010-01-01T03:53:38Z</time>
      </trkpt>
      <trkpt lat="48.12688" lon="7.09673">
        <ele>1077.4</ele>
        <time>2010-01-01T03:53:43Z</time>
      </trkpt>
      <trkpt lat="48.12689" lon="7.09662">
        <ele>1078.4</ele>
        <time>2010-01-01T03:53:46Z</time>
      </trkpt>
      <trkpt lat="48.12697" lon="7.09657">
        <ele>1079.5999</ele>
        <time>2010-01-01T03:53:50Z</time>
      </trkpt>
      <trkpt lat="48.12717" lon="7.09657">
        <ele>1080.1999</ele>
        <time>2010-01-01T03:53:58Z</time>
      </trkpt>
      <trkpt lat="48.12729" lon="7.09653">
        <ele>1081</ele>
        <time>2010-01-01T03:54:03Z</time>
      </trkpt>
      <trkpt lat="48.12737" lon="7.09644">
        <ele>1082.4</ele>
        <time>2010-01-01T03:54:07Z</time>
      </trkpt>
      <trkpt lat="48.12737" lon="7.0963">
        <ele>1083.4</ele>
        <time>2010-01-01T03:54:11Z</time>
      </trkpt>
      <trkpt lat="48.1273" lon="7.09614">
        <ele>1084.8</ele>
        <time>2010-01-01T03:54:16Z</time>
      </trkpt>
      <trkpt lat="48.12719" lon="7.09606">
        <ele>1085.8</ele>
        <time>2010-01-01T03:54:20Z</time>
      </trkpt>
      <trkpt lat="48.12707" lon="7.09602">
        <ele>1088.8</ele>
        <time>2010-01-01T03:54:25Z</time>
      </trkpt>
      <trkpt lat="48.12691" lon="7.09598">
        <ele>1091.1999</ele>
        <time>2010-01-01T03:54:32Z</time>
      </trkpt>
      <trkpt lat="48.1268" lon="7.09595">
        <ele>1092.8</ele>
        <time>2010-01-01T03:54:37Z</time>
      </trkpt>
      <trkpt lat="48.12673" lon="7.09586">
        <ele>1094.8</ele>
        <time>2010-01-01T03:54:40Z</time>
      </trkpt>
      <trkpt lat="48.12672" lon="7.09578">
        <ele>1095.5999</ele>
        <time>2010-01-01T03:54:42Z</time>
      </trkpt>
      <trkpt lat="48.12681" lon="7.09572">
        <ele>1096.8</ele>
        <time>2010-01-01T03:54:46Z</time>
      </trkpt>
      <trkpt lat="48.12694" lon="7.0957">
        <ele>1098.8</ele>
        <time>2010-01-01T03:54:51Z</time>
      </trkpt>
      <trkpt lat="48.12706" lon="7.09563">
        <ele>1100.4</ele>
        <time>2010-01-01T03:54:56Z</time>
      </trkpt>
      <trkpt lat="48.12715" lon="7.09554">
        <ele>1101.4</ele>
        <time>2010-01-01T03:55:01Z</time>
      </trkpt>
      <trkpt lat="48.12731" lon="7.09539">
        <ele>1101</ele>
        <time>2010-01-01T03:55:08Z</time>
      </trkpt>
      <trkpt lat="48.1275" lon="7.09524">
        <ele>1099.8</ele>
        <time>2010-01-01T03:55:17Z</time>
      </trkpt>
      <trkpt lat="48.12776" lon="7.09501">
        <ele>1101.1999</ele>
        <time>2010-01-01T03:55:29Z</time>
      </trkpt>
      <trkpt lat="48.12796" lon="7.09476">
        <ele>1100.8</ele>
        <time>2010-01-01T03:55:40Z</time>
      </trkpt>
      <trkpt lat="48.12811" lon="7.09461">
        <ele>1102.5999</ele>
        <time>2010-01-01T03:55:47Z</time>
      </trkpt>
      <trkpt lat="48.12827" lon="7.09439">
        <ele>1104.4</ele>
        <time>2010-01-01T03:55:56Z</time>
      </trkpt>
      <trkpt lat="48.12844" lon="7.09419">
        <ele>1104.1999</ele>
        <time>2010-01-01T03:56:04Z</time>
      </trkpt>
      <trkpt lat="48.12862" lon="7.09399">
        <ele>1104</ele>
        <time>2010-01-01T03:56:13Z</time>
      </trkpt>
      <trkpt lat="48.12876" lon="7.09384">
        <ele>1103.5999</ele>
        <time>2010-01-01T03:56:20Z</time>
      </trkpt>
      <trkpt lat="48.129" lon="7.09359">
        <ele>1104.5999</ele>
        <time>2010-01-01T03:56:32Z</time>
      </trkpt>
      <trkpt lat="48.12922" lon="7.09337">
        <ele>1105.1999</ele>
        <time>2010-01-01T03:56:42Z</time>
      </trkpt>
      <trkpt lat="48.12933" lon="7.0933">
        <ele>1105.8</ele>
        <time>2010-01-01T03:56:47Z</time>
      </trkpt>
      <trkpt lat="48.12953" lon="7.09324">
        <ele>1107.8</ele>
        <time>2010-01-01T03:56:55Z</time>
      </trkpt>
      <trkpt lat="48.1297" lon="7.09317">
        <ele>1108.4</ele>
        <time>2010-01-01T03:57:02Z</time>
      </trkpt>
      <trkpt lat="48.12978" lon="7.09314">
        <ele>1108.1999</ele>
        <time>2010-01-01T03:57:06Z</time>
      </trkpt>
      <trkpt lat="48.13011" lon="7.09313">
        <ele>1107</ele>
        <time>2010-01-01T03:57:19Z</time>
      </trkpt>
      <trkpt lat="48.13031" lon="7.09312">
        <ele>1106.5999</ele>
        <time>2010-01-01T03:57:27Z</time>
      </trkpt>
      <trkpt lat="48.1305" lon="7.09311">
        <ele>1106.1999</ele>
        <time>2010-01-01T03:57:35Z</time>
      </trkpt>
      <trkpt lat="48.13067" lon="7.09306">
        <ele>1105.5999</ele>
        <time>2010-01-01T03:57:42Z</time>
      </trkpt>
      <trkpt lat="48.13103" lon="7.09303">
        <ele>1105</ele>
        <time>2010-01-01T03:57:56Z</time>
      </trkpt>
      <trkpt lat="48.13111" lon="7.09302">
        <ele>1104.5999</ele>
        <time>2010-01-01T03:57:59Z</time>
      </trkpt>
      <trkpt lat="48.13159" lon="7.09291">
        <ele>1101.1999</ele>
        <time>2010-01-01T03:58:18Z</time>
      </trkpt>
      <trkpt lat="48.13166" lon="7.0929">
        <ele>1100.4</ele>
        <time>2010-01-01T03:58:21Z</time>
      </trkpt>
      <trkpt lat="48.13208" lon="7.09291">
        <ele>1097.4</ele>
        <time>2010-01-01T03:58:38Z</time>
      </trkpt>
      <trkpt lat="48.13242" lon="7.09284">
        <ele>1095.5999</ele>
        <time>2010-01-01T03:58:52Z</time>
      </trkpt>
      <trkpt lat="48.1325" lon="7.09282">
        <ele>1095</ele>
        <time>2010-01-01T03:58:55Z</time>
      </trkpt>
      <trkpt lat="48.13283" lon="7.09283">
        <ele>1092.4</ele>
        <time>2010-01-01T03:59:09Z</time>
      </trkpt>
      <trkpt lat="48.13315" lon="7.09298">
        <ele>1090.1999</ele>
        <time>2010-01-01T03:59:22Z</time>
      </trkpt>
      <trkpt lat="48.13328" lon="7.0931">
        <ele>1088.8</ele>
        <time>2010-01-01T03:59:28Z</time>
      </trkpt>
      <trkpt lat="48.13343" lon="7.09327">
        <ele>1086.5999</ele>
        <time>2010-01-01T03:59:35Z</time>
      </trkpt>
      <trkpt lat="48.13347" lon="7.09351">
        <ele>1084.8</ele>
        <time>2010-01-01T03:59:42Z</time>
      </trkpt>
      <trkpt lat="48.13348" lon="7.09362">
        <ele>1085</ele>
        <time>2010-01-01T03:59:45Z</time>
      </trkpt>
      <trkpt lat="48.13357" lon="7.0941">
        <ele>1086.4</ele>
        <time>2010-01-01T03:59:58Z</time>
      </trkpt>
      <trkpt lat="48.13358" lon="7.09439">
        <ele>1086.4</ele>
        <time>2010-01-01T04:00:06Z</time>
      </trkpt>
      <trkpt lat="48.13356" lon="7.09462">
        <ele>1086</ele>
        <time>2010-01-01T04:00:12Z</time>
      </trkpt>
      <trkpt lat="48.13356" lon="7.09462">
        <ele>1086.1999</ele>
        <time>2010-01-01T04:00:12Z</time>
      </trkpt>
      <trkpt lat="48.13353" lon="7.0946">
        <ele>1093.1999</ele>
        <time>2010-01-01T00:00:00Z</time>
      </trkpt>
      <trkpt lat="48.13353" lon="7.09458">
        <ele>1093.1999</ele>
        <time>2010-01-01T00:00:00Z</time>
      </trkpt>
      <trkpt lat="48.13357" lon="7.09441">
        <ele>1093.8</ele>
        <time>2010-01-01T00:00:05Z</time>
      </trkpt>
      <trkpt lat="48.13362" lon="7.09408">
        <ele>1094</ele>
        <time>2010-01-01T00:00:14Z</time>
      </trkpt>
      <trkpt lat="48.1336" lon="7.09375">
        <ele>1095.8</ele>
        <time>2010-01-01T00:00:23Z</time>
      </trkpt>
      <trkpt lat="48.13359" lon="7.09341">
        <ele>1096.1999</ele>
        <time>2010-01-01T00:00:32Z</time>
      </trkpt>
      <trkpt lat="48.13368" lon="7.09296">
        <ele>1095.8</ele>
        <time>2010-01-01T00:00:44Z</time>
      </trkpt>
      <trkpt lat="48.13369" lon="7.09289">
        <ele>1095.5999</ele>
        <time>2010-01-01T00:00:46Z</time>
      </trkpt>
      <trkpt lat="48.13369" lon="7.09289">
        <ele>1095.5999</ele>
        <time>2010-01-01T00:00:46Z</time>
      </trkpt>
      <trkpt lat="48.13362" lon="7.09274">
        <ele>1095.4</ele>
        <time>2010-01-01T00:00:51Z</time>
      </trkpt>
      <trkpt lat="48.13354" lon="7.09265">
        <ele>1095.1999</ele>
        <time>2010-01-01T00:00:55Z</time>
      </trkpt>
      <trkpt lat="48.13321" lon="7.09233">
        <ele>1093.8</ele>
        <time>2010-01-01T00:01:11Z</time>
      </trkpt>
      <trkpt lat="48.13283" lon="7.09218">
        <ele>1092.1999</ele>
        <time>2010-01-01T00:01:27Z</time>
      </trkpt>
      <trkpt lat="48.13216" lon="7.0921">
        <ele>1090</ele>
        <time>2010-01-01T00:01:53Z</time>
      </trkpt>
      <trkpt lat="48.13133" lon="7.09193">
        <ele>1087.8</ele>
        <time>2010-01-01T00:02:27Z</time>
      </trkpt>
      <trkpt lat="48.13064" lon="7.0918">
        <ele>1085.5999</ele>
        <time>2010-01-01T00:02:55Z</time>
      </trkpt>
      <trkpt lat="48.1299" lon="7.09167">
        <ele>1084.4</ele>
        <time>2010-01-01T00:03:25Z</time>
      </trkpt>
      <trkpt lat="48.12944" lon="7.09174">
        <ele>1082.5999</ele>
        <time>2010-01-01T00:03:43Z</time>
      </trkpt>
      <trkpt lat="48.129" lon="7.09204">
        <ele>1080</ele>
        <time>2010-01-01T00:04:02Z</time>
      </trkpt>
      <trkpt lat="48.12857" lon="7.09252">
        <ele>1076.8</ele>
        <time>2010-01-01T00:04:24Z</time>
      </trkpt>
      <trkpt lat="48.12824" lon="7.09297">
        <ele>1075</ele>
        <time>2010-01-01T00:04:42Z</time>
      </trkpt>
      <trkpt lat="48.12772" lon="7.09358">
        <ele>1071.1999</ele>
        <time>2010-01-01T00:05:08Z</time>
      </trkpt>
      <trkpt lat="48.12723" lon="7.0941">
        <ele>1066.1999</ele>
        <time>2010-01-01T00:05:32Z</time>
      </trkpt>
      <trkpt lat="48.12681" lon="7.09448">
        <ele>1061.8</ele>
        <time>2010-01-01T00:05:52Z</time>
      </trkpt>
      <trkpt lat="48.12619" lon="7.09502">
        <ele>1056.1999</ele>
        <time>2010-01-01T00:06:21Z</time>
      </trkpt>
      <trkpt lat="48.12571" lon="7.09567">
        <ele>1052.5999</ele>
        <time>2010-01-01T00:06:46Z</time>
      </trkpt>
      <trkpt lat="48.12513" lon="7.09655">
        <ele>1047</ele>
        <time>2010-01-01T00:07:20Z</time>
      </trkpt>
      <trkpt lat="48.12486" lon="7.09716">
        <ele>1044.4</ele>
        <time>2010-01-01T00:07:39Z</time>
      </trkpt>
      <trkpt lat="48.12451" lon="7.09765">
        <ele>1040.1999</ele>
        <time>2010-01-01T00:07:58Z</time>
      </trkpt>
      <trkpt lat="48.1244" lon="7.09775">
        <ele>1039</ele>
        <time>2010-01-01T00:08:04Z</time>
      </trkpt>
      <trkpt lat="48.12396" lon="7.09809">
        <ele>1034.8</ele>
        <time>2010-01-01T00:08:24Z</time>
      </trkpt>
      <trkpt lat="48.1237" lon="7.09844">
        <ele>1031.1999</ele>
        <time>2010-01-01T00:08:37Z</time>
      </trkpt>
      <trkpt lat="48.12359" lon="7.09894">
        <ele>1028</ele>
        <time>2010-01-01T00:08:51Z</time>
      </trkpt>
      <trkpt lat="48.12351" lon="7.09943">
        <ele>1024.1999</ele>
        <time>2010-01-01T00:09:05Z</time>
      </trkpt>
      <trkpt lat="48.12327" lon="7.09988">
        <ele>1018.5999</ele>
        <time>2010-01-01T00:09:20Z</time>
      </trkpt>
      <trkpt lat="48.12311" lon="7.09992">
        <ele>1015.5999</ele>
        <time>2010-01-01T00:09:26Z</time>
      </trkpt>
      <trkpt lat="48.12296" lon="7.09974">
        <ele>1012</ele>
        <time>2010-01-01T00:09:34Z</time>
      </trkpt>
      <trkpt lat="48.12293" lon="7.09966">
        <ele>1011.2</ele>
        <time>2010-01-01T00:09:37Z</time>
      </trkpt>
      <trkpt lat="48.12284" lon="7.09927">
        <ele>1010.5999</ele>
        <time>2010-01-01T00:09:48Z</time>
      </trkpt>
      <trkpt lat="48.12277" lon="7.09896">
        <ele>1011.7999</ele>
        <time>2010-01-01T00:09:56Z</time>
      </trkpt>
      <trkpt lat="48.12271" lon="7.09872">
        <ele>1013.2</ele>
        <time>2010-01-01T00:10:03Z</time>
      </trkpt>
      <trkpt lat="48.12264" lon="7.09851">
        <ele>1015</ele>
        <time>2010-01-01T00:10:10Z</time>
      </trkpt>
      <trkpt lat="48.12249" lon="7.0982">
        <ele>1016.4</ele>
        <time>2010-01-01T00:10:20Z</time>
      </trkpt>
      <trkpt lat="48.12224" lon="7.09795">
        <ele>1016.5999</ele>
        <time>2010-01-01T00:10:32Z</time>
      </trkpt>
      <trkpt lat="48.12205" lon="7.09793">
        <ele>1016.4</ele>
        <time>2010-01-01T00:10:39Z</time>
      </trkpt>
      <trkpt lat="48.12186" lon="7.09805">
        <ele>1016.4</ele>
        <time>2010-01-01T00:10:48Z</time>
      </trkpt>
      <trkpt lat="48.1216" lon="7.09834">
        <ele>1016</ele>
        <time>2010-01-01T00:11:01Z</time>
      </trkpt>
      <trkpt lat="48.12155" lon="7.09854">
        <ele>1015.7999</ele>
        <time>2010-01-01T00:11:06Z</time>
      </trkpt>
      <trkpt lat="48.12148" lon="7.09882">
        <ele>1015.7999</ele>
        <time>2010-01-01T00:11:14Z</time>
      </trkpt>
      <trkpt lat="48.12128" lon="7.0991">
        <ele>1015.7999</ele>
        <time>2010-01-01T00:11:25Z</time>
      </trkpt>
      <trkpt lat="48.12118" lon="7.09944">
        <ele>1015.4</ele>
        <time>2010-01-01T00:11:35Z</time>
      </trkpt>
      <trkpt lat="48.12116" lon="7.0998">
        <ele>1015.4</ele>
        <time>2010-01-01T00:11:45Z</time>
      </trkpt>
      <trkpt lat="48.12117" lon="7.10033">
        <ele>1015</ele>
        <time>2010-01-01T00:11:59Z</time>
      </trkpt>
      <trkpt lat="48.12115" lon="7.10089">
        <ele>1014.2</ele>
        <time>2010-01-01T00:12:14Z</time>
      </trkpt>
      <trkpt lat="48.12113" lon="7.10136">
        <ele>1014</ele>
        <time>2010-01-01T00:12:26Z</time>
      </trkpt>
      <trkpt lat="48.12101" lon="7.1016">
        <ele>1013.5999</ele>
        <time>2010-01-01T00:12:34Z</time>
      </trkpt>
      <trkpt lat="48.12092" lon="7.10169">
        <ele>1013.4</ele>
        <time>2010-01-01T00:12:39Z</time>
      </trkpt>
      <trkpt lat="48.12076" lon="7.10206">
        <ele>1013</ele>
        <time>2010-01-01T00:12:51Z</time>
      </trkpt>
      <trkpt lat="48.12074" lon="7.10244">
        <ele>1013</ele>
        <time>2010-01-01T00:13:01Z</time>
      </trkpt>
      <trkpt lat="48.12075" lon="7.10252">
        <ele>1013</ele>
        <time>2010-01-01T00:13:03Z</time>
      </trkpt>
      <trkpt lat="48.1209" lon="7.10314">
        <ele>1011.4</ele>
        <time>2010-01-01T00:13:21Z</time>
      </trkpt>
      <trkpt lat="48.12094" lon="7.10329">
        <ele>1011.4</ele>
        <time>2010-01-01T00:13:25Z</time>
      </trkpt>
      <trkpt lat="48.12107" lon="7.10397">
        <ele>1010.7999</ele>
        <time>2010-01-01T00:13:44Z</time>
      </trkpt>
      <trkpt lat="48.12119" lon="7.10448">
        <ele>1010.5999</ele>
        <time>2010-01-01T00:13:58Z</time>
      </trkpt>
      <trkpt lat="48.12134" lon="7.10517">
        <ele>1011.4</ele>
        <time>2010-01-01T00:14:18Z</time>
      </trkpt>
      <trkpt lat="48.12135" lon="7.10565">
        <ele>1011.4</ele>
        <time>2010-01-01T00:14:31Z</time>
      </trkpt>
      <trkpt lat="48.12121" lon="7.10626">
        <ele>1010.4</ele>
        <time>2010-01-01T00:14:48Z</time>
      </trkpt>
      <trkpt lat="48.12103" lon="7.10656">
        <ele>1009.7999</ele>
        <time>2010-01-01T00:14:59Z</time>
      </trkpt>
      <trkpt lat="48.12084" lon="7.10678">
        <ele>1009.2</ele>
        <time>2010-01-01T00:15:08Z</time>
      </trkpt>
      <trkpt lat="48.12056" lon="7.10694">
        <ele>1009.2</ele>
        <time>2010-01-01T00:15:20Z</time>
      </trkpt>
      <trkpt lat="48.12046" lon="7.10691">
        <ele>1009</ele>
        <time>2010-01-01T00:15:24Z</time>
      </trkpt>
      <trkpt lat="48.12014" lon="7.1067">
        <ele>1008.5999</ele>
        <time>2010-01-01T00:15:38Z</time>
      </trkpt>
      <trkpt lat="48.11994" lon="7.10651">
        <ele>1008</ele>
        <time>2010-01-01T00:15:48Z</time>
      </trkpt>
      <trkpt lat="48.11954" lon="7.10624">
        <ele>1007.7999</ele>
        <time>2010-01-01T00:16:05Z</time>
      </trkpt>
      <trkpt lat="48.11944" lon="7.10619">
        <ele>1007.5999</ele>
        <time>2010-01-01T00:16:10Z</time>
      </trkpt>
      <trkpt lat="48.11899" lon="7.10591">
        <ele>1007</ele>
        <time>2010-01-01T00:16:29Z</time>
      </trkpt>
      <trkpt lat="48.11883" lon="7.10572">
        <ele>1007.2</ele>
        <time>2010-01-01T00:16:37Z</time>
      </trkpt>
      <trkpt lat="48.11866" lon="7.10551">
        <ele>1008</ele>
        <time>2010-01-01T00:16:46Z</time>
      </trkpt>
      <trkpt lat="48.11857" lon="7.10541">
        <ele>1009.4</ele>
        <time>2010-01-01T00:16:51Z</time>
      </trkpt>
      <trkpt lat="48.11849" lon="7.10526">
        <ele>1010.5999</ele>
        <time>2010-01-01T00:16:55Z</time>
      </trkpt>
      <trkpt lat="48.1184" lon="7.10507">
        <ele>1012.4</ele>
        <time>2010-01-01T00:17:02Z</time>
      </trkpt>
      <trkpt lat="48.11832" lon="7.10494">
        <ele>1013.4</ele>
        <time>2010-01-01T00:17:07Z</time>
      </trkpt>
      <trkpt lat="48.1182" lon="7.1047">
        <ele>1015.2</ele>
        <time>2010-01-01T00:17:15Z</time>
      </trkpt>
      <trkpt lat="48.11809" lon="7.10444">
        <ele>1016.5999</ele>
        <time>2010-01-01T00:17:23Z</time>
      </trkpt>
      <trkpt lat="48.118" lon="7.1042">
        <ele>1017.5999</ele>
        <time>2010-01-01T00:17:30Z</time>
      </trkpt>
      <trkpt lat="48.11794" lon="7.10398">
        <ele>1018.4</ele>
        <time>2010-01-01T00:17:36Z</time>
      </trkpt>
      <trkpt lat="48.11784" lon="7.10369">
        <ele>1020.2</ele>
        <time>2010-01-01T00:17:45Z</time>
      </trkpt>
      <trkpt lat="48.11775" lon="7.10334">
        <ele>1021.2</ele>
        <time>2010-01-01T00:17:55Z</time>
      </trkpt>
      <trkpt lat="48.11764" lon="7.10303">
        <ele>1022.2</ele>
        <time>2010-01-01T00:18:05Z</time>
      </trkpt>
      <trkpt lat="48.11759" lon="7.10281">
        <ele>1022.2</ele>
        <time>2010-01-01T00:18:11Z</time>
      </trkpt>
      <trkpt lat="48.11746" lon="7.10244">
        <ele>1023.2</ele>
        <time>2010-01-01T00:18:22Z</time>
      </trkpt>
      <trkpt lat="48.11737" lon="7.10211">
        <ele>1024.8</ele>
        <time>2010-01-01T00:18:32Z</time>
      </trkpt>
      <trkpt lat="48.11728" lon="7.10176">
        <ele>1026.5999</ele>
        <time>2010-01-01T00:18:42Z</time>
      </trkpt>
      <trkpt lat="48.11721" lon="7.10141">
        <ele>1028</ele>
        <time>2010-01-01T00:18:51Z</time>
      </trkpt>
      <trkpt lat="48.11712" lon="7.10106">
        <ele>1029.5999</ele>
        <time>2010-01-01T00:19:01Z</time>
      </trkpt>
      <trkpt lat="48.11707" lon="7.10071">
        <ele>1031.4</ele>
        <time>2010-01-01T00:19:11Z</time>
      </trkpt>
      <trkpt lat="48.11699" lon="7.10025">
        <ele>1033.1999</ele>
        <time>2010-01-01T00:19:24Z</time>
      </trkpt>
      <trkpt lat="48.11689" lon="7.09991">
        <ele>1034.5999</ele>
        <time>2010-01-01T00:19:34Z</time>
      </trkpt>
      <trkpt lat="48.1168" lon="7.09961">
        <ele>1035.8</ele>
        <time>2010-01-01T00:19:42Z</time>
      </trkpt>
      <trkpt lat="48.11668" lon="7.09934">
        <ele>1036.5999</ele>
        <time>2010-01-01T00:19:51Z</time>
      </trkpt>
      <trkpt lat="48.11657" lon="7.0993">
        <ele>1036.4</ele>
        <time>2010-01-01T00:19:55Z</time>
      </trkpt>
      <trkpt lat="48.11646" lon="7.0993">
        <ele>1034.8</ele>
        <time>2010-01-01T00:20:00Z</time>
      </trkpt>
      <trkpt lat="48.1163" lon="7.09922">
        <ele>1031.8</ele>
        <time>2010-01-01T00:20:07Z</time>
      </trkpt>
      <trkpt lat="48.1162" lon="7.09915">
        <ele>1030</ele>
        <time>2010-01-01T00:20:11Z</time>
      </trkpt>
      <trkpt lat="48.11601" lon="7.09919">
        <ele>1028.1999</ele>
        <time>2010-01-01T00:20:19Z</time>
      </trkpt>
      <trkpt lat="48.11592" lon="7.09926">
        <ele>1026.4</ele>
        <time>2010-01-01T00:20:23Z</time>
      </trkpt>
      <trkpt lat="48.11581" lon="7.09929">
        <ele>1024</ele>
        <time>2010-01-01T00:20:27Z</time>
      </trkpt>
      <trkpt lat="48.11566" lon="7.09934">
        <ele>1021.7999</ele>
        <time>2010-01-01T00:20:33Z</time>
      </trkpt>
      <trkpt lat="48.11562" lon="7.09934">
        <ele>1021.4</ele>
        <time>2010-01-01T00:20:35Z</time>
      </trkpt>
      <trkpt lat="48.11544" lon="7.0994">
        <ele>1019.4</ele>
        <time>2010-01-01T00:20:43Z</time>
      </trkpt>
      <trkpt lat="48.11529" lon="7.09953">
        <ele>1017.2</ele>
        <time>2010-01-01T00:20:49Z</time>
      </trkpt>
      <trkpt lat="48.11514" lon="7.09966">
        <ele>1015.7999</ele>
        <time>2010-01-01T00:20:56Z</time>
      </trkpt>
      <trkpt lat="48.11501" lon="7.09976">
        <ele>1013.7999</ele>
        <time>2010-01-01T00:21:02Z</time>
      </trkpt>
      <trkpt lat="48.11494" lon="7.09989">
        <ele>1011.7999</ele>
        <time>2010-01-01T00:21:07Z</time>
      </trkpt>
      <trkpt lat="48.11491" lon="7.1001">
        <ele>1010.4</ele>
        <time>2010-01-01T00:21:12Z</time>
      </trkpt>
      <trkpt lat="48.11492" lon="7.10031">
        <ele>1010</ele>
        <time>2010-01-01T00:21:18Z</time>
      </trkpt>
      <trkpt lat="48.11493" lon="7.10038">
        <ele>1010</ele>
        <time>2010-01-01T00:21:20Z</time>
      </trkpt>
      <trkpt lat="48.11501" lon="7.10069">
        <ele>1009.2</ele>
        <time>2010-01-01T00:21:29Z</time>
      </trkpt>
      <trkpt lat="48.11509" lon="7.10087">
        <ele>1008.4</ele>
        <time>2010-01-01T00:21:34Z</time>
      </trkpt>
      <trkpt lat="48.11518" lon="7.10106">
        <ele>1007.2</ele>
        <time>2010-01-01T00:21:41Z</time>
      </trkpt>
      <trkpt lat="48.11537" lon="7.10134">
        <ele>1003.4</ele>
        <time>2010-01-01T00:21:51Z</time>
      </trkpt>
      <trkpt lat="48.11547" lon="7.1015">
        <ele>1001.2</ele>
        <time>2010-01-01T00:21:57Z</time>
      </trkpt>
      <trkpt lat="48.11568" lon="7.10176">
        <ele>997.59997</ele>
        <time>2010-01-01T00:22:08Z</time>
      </trkpt>
      <trkpt lat="48.11583" lon="7.10195">
        <ele>995</ele>
        <time>2010-01-01T00:22:16Z</time>
      </trkpt>
      <trkpt lat="48.11598" lon="7.10218">
        <ele>993.59997</ele>
        <time>2010-01-01T00:22:25Z</time>
      </trkpt>
      <trkpt lat="48.11601" lon="7.10223">
        <ele>993.40002</ele>
        <time>2010-01-01T00:22:26Z</time>
      </trkpt>
      <trkpt lat="48.11618" lon="7.10246">
        <ele>992</ele>
        <time>2010-01-01T00:22:36Z</time>
      </trkpt>
      <trkpt lat="48.11634" lon="7.10271">
        <ele>990.40002</ele>
        <time>2010-01-01T00:22:45Z</time>
      </trkpt>
      <trkpt lat="48.11645" lon="7.10288">
        <ele>989.79998</ele>
        <time>2010-01-01T00:22:51Z</time>
      </trkpt>
      <trkpt lat="48.11657" lon="7.10327">
        <ele>987.79998</ele>
        <time>2010-01-01T00:23:03Z</time>
      </trkpt>
      <trkpt lat="48.11669" lon="7.10361">
        <ele>984.20001</ele>
        <time>2010-01-01T00:23:13Z</time>
      </trkpt>
      <trkpt lat="48.11681" lon="7.10383">
        <ele>982.40002</ele>
        <time>2010-01-01T00:23:21Z</time>
      </trkpt>
      <trkpt lat="48.11689" lon="7.10402">
        <ele>980.79998</ele>
        <time>2010-01-01T00:23:27Z</time>
      </trkpt>
      <trkpt lat="48.11704" lon="7.10443">
        <ele>978.40002</ele>
        <time>2010-01-01T00:23:39Z</time>
      </trkpt>
      <trkpt lat="48.11717" lon="7.10484">
        <ele>975.40002</ele>
        <time>2010-01-01T00:23:51Z</time>
      </trkpt>
      <trkpt lat="48.11722" lon="7.10501">
        <ele>973.20001</ele>
        <time>2010-01-01T00:23:56Z</time>
      </trkpt>
      <trkpt lat="48.11718" lon="7.10508">
        <ele>971.20001</ele>
        <time>2010-01-01T00:23:59Z</time>
      </trkpt>
      <trkpt lat="48.11716" lon="7.10505">
        <ele>970.59997</ele>
        <time>2010-01-01T00:24:00Z</time>
      </trkpt>
      <trkpt lat="48.11687" lon="7.10472">
        <ele>968.59997</ele>
        <time>2010-01-01T00:24:15Z</time>
      </trkpt>
      <trkpt lat="48.11645" lon="7.10429">
        <ele>966.40002</ele>
        <time>2010-01-01T00:24:35Z</time>
      </trkpt>
      <trkpt lat="48.11603" lon="7.10387">
        <ele>962.79998</ele>
        <time>2010-01-01T00:24:55Z</time>
      </trkpt>
      <trkpt lat="48.11553" lon="7.10351">
        <ele>959</ele>
        <time>2010-01-01T00:25:17Z</time>
      </trkpt>
      <trkpt lat="48.11514" lon="7.10332">
        <ele>956</ele>
        <time>2010-01-01T00:25:34Z</time>
      </trkpt>
      <trkpt lat="48.11477" lon="7.10335">
        <ele>954</ele>
        <time>2010-01-01T00:25:49Z</time>
      </trkpt>
      <trkpt lat="48.11457" lon="7.10339">
        <ele>953.20001</ele>
        <time>2010-01-01T00:25:57Z</time>
      </trkpt>
      <trkpt lat="48.1142" lon="7.10327">
        <ele>952.40002</ele>
        <time>2010-01-01T00:26:12Z</time>
      </trkpt>
      <trkpt lat="48.11413" lon="7.1032">
        <ele>952</ele>
        <time>2010-01-01T00:26:16Z</time>
      </trkpt>
      <trkpt lat="48.11361" lon="7.10269">
        <ele>949.40002</ele>
        <time>2010-01-01T00:26:40Z</time>
      </trkpt>
      <trkpt lat="48.11327" lon="7.10218">
        <ele>948.79998</ele>
        <time>2010-01-01T00:26:59Z</time>
      </trkpt>
      <trkpt lat="48.11301" lon="7.1017">
        <ele>947.59997</ele>
        <time>2010-01-01T00:27:16Z</time>
      </trkpt>
      <trkpt lat="48.11286" lon="7.10129">
        <ele>947</ele>
        <time>2010-01-01T00:27:28Z</time>
      </trkpt>
      <trkpt lat="48.11269" lon="7.10045">
        <ele>945</ele>
        <time>2010-01-01T00:27:52Z</time>
      </trkpt>
      <trkpt lat="48.11266" lon="7.10014">
        <ele>944</ele>
        <time>2010-01-01T00:28:00Z</time>
      </trkpt>
      <trkpt lat="48.11251" lon="7.0999">
        <ele>942.20001</ele>
        <time>2010-01-01T00:28:09Z</time>
      </trkpt>
      <trkpt lat="48.11227" lon="7.09995">
        <ele>941.20001</ele>
        <time>2010-01-01T00:28:19Z</time>
      </trkpt>
      <trkpt lat="48.11217" lon="7.10013">
        <ele>940.59997</ele>
        <time>2010-01-01T00:28:25Z</time>
      </trkpt>
      <trkpt lat="48.11217" lon="7.10029">
        <ele>940.20001</ele>
        <time>2010-01-01T00:28:29Z</time>
      </trkpt>
      <trkpt lat="48.11218" lon="7.10095">
        <ele>941.40002</ele>
        <time>2010-01-01T00:28:47Z</time>
      </trkpt>
      <trkpt lat="48.11216" lon="7.10102">
        <ele>941.59997</ele>
        <time>2010-01-01T00:28:49Z</time>
      </trkpt>
      <trkpt lat="48.11201" lon="7.10143">
        <ele>944</ele>
        <time>2010-01-01T00:29:01Z</time>
      </trkpt>
      <trkpt lat="48.11198" lon="7.10148">
        <ele>944.59997</ele>
        <time>2010-01-01T00:29:03Z</time>
      </trkpt>
      <trkpt lat="48.11181" lon="7.10174">
        <ele>946.59997</ele>
        <time>2010-01-01T00:29:13Z</time>
      </trkpt>
      <trkpt lat="48.11158" lon="7.10201">
        <ele>948.59997</ele>
        <time>2010-01-01T00:29:24Z</time>
      </trkpt>
      <trkpt lat="48.1115" lon="7.1021">
        <ele>949.59997</ele>
        <time>2010-01-01T00:29:28Z</time>
      </trkpt>
      <trkpt lat="48.11139" lon="7.10226">
        <ele>951.20001</ele>
        <time>2010-01-01T00:29:35Z</time>
      </trkpt>
      <trkpt lat="48.11128" lon="7.10237">
        <ele>952.40002</ele>
        <time>2010-01-01T00:29:40Z</time>
      </trkpt>
      <trkpt lat="48.11118" lon="7.10249">
        <ele>953.40002</ele>
        <time>2010-01-01T00:29:45Z</time>
      </trkpt>
      <trkpt lat="48.11108" lon="7.10255">
        <ele>954.40002</ele>
        <time>2010-01-01T00:29:50Z</time>
      </trkpt>
      <trkpt lat="48.11107" lon="7.10256">
        <ele>954.79998</ele>
        <time>2010-01-01T00:29:50Z</time>
      </trkpt>
      <trkpt lat="48.11096" lon="7.10266">
        <ele>956.59997</ele>
        <time>2010-01-01T00:29:55Z</time>
      </trkpt>
      <trkpt lat="48.11093" lon="7.10268">
        <ele>957</ele>
        <time>2010-01-01T00:29:56Z</time>
      </trkpt>
      <trkpt lat="48.11072" lon="7.10278">
        <ele>958.79998</ele>
        <time>2010-01-01T00:30:05Z</time>
      </trkpt>
      <trkpt lat="48.11042" lon="7.10283">
        <ele>959.20001</ele>
        <time>2010-01-01T00:30:17Z</time>
      </trkpt>
      <trkpt lat="48.11016" lon="7.10296">
        <ele>959.40002</ele>
        <time>2010-01-01T00:30:28Z</time>
      </trkpt>
      <trkpt lat="48.10981" lon="7.10311">
        <ele>959</ele>
        <time>2010-01-01T00:30:43Z</time>
      </trkpt>
      <trkpt lat="48.10977" lon="7.10312">
        <ele>959</ele>
        <time>2010-01-01T00:30:44Z</time>
      </trkpt>
      <trkpt lat="48.10935" lon="7.10318">
        <ele>959.20001</ele>
        <time>2010-01-01T00:31:01Z</time>
      </trkpt>
      <trkpt lat="48.10897" lon="7.10325">
        <ele>958</ele>
        <time>2010-01-01T00:31:17Z</time>
      </trkpt>
      <trkpt lat="48.10871" lon="7.10331">
        <ele>958.20001</ele>
        <time>2010-01-01T00:31:27Z</time>
      </trkpt>
      <trkpt lat="48.10834" lon="7.10336">
        <ele>959</ele>
        <time>2010-01-01T00:31:42Z</time>
      </trkpt>
      <trkpt lat="48.10806" lon="7.10337">
        <ele>960</ele>
        <time>2010-01-01T00:31:53Z</time>
      </trkpt>
      <trkpt lat="48.10787" lon="7.10332">
        <ele>960.59997</ele>
        <time>2010-01-01T00:32:01Z</time>
      </trkpt>
      <trkpt lat="48.1076" lon="7.1032">
        <ele>961.59997</ele>
        <time>2010-01-01T00:32:12Z</time>
      </trkpt>
      <trkpt lat="48.10727" lon="7.10322">
        <ele>961.79998</ele>
        <time>2010-01-01T00:32:25Z</time>
      </trkpt>
      <trkpt lat="48.10693" lon="7.10328">
        <ele>962.40002</ele>
        <time>2010-01-01T00:32:39Z</time>
      </trkpt>
      <trkpt lat="48.10675" lon="7.1033">
        <ele>962.79998</ele>
        <time>2010-01-01T00:32:47Z</time>
      </trkpt>
      <trkpt lat="48.10646" lon="7.10324">
        <ele>963.20001</ele>
        <time>2010-01-01T00:32:58Z</time>
      </trkpt>
      <trkpt lat="48.10618" lon="7.10311">
        <ele>963.79998</ele>
        <time>2010-01-01T00:33:10Z</time>
      </trkpt>
      <trkpt lat="48.10613" lon="7.10309">
        <ele>963.79998</ele>
        <time>2010-01-01T00:33:12Z</time>
      </trkpt>
      <trkpt lat="48.10588" lon="7.10311">
        <ele>963.79998</ele>
        <time>2010-01-01T00:33:22Z</time>
      </trkpt>
      <trkpt lat="48.10576" lon="7.10321">
        <ele>963.79998</ele>
        <time>2010-01-01T00:33:28Z</time>
      </trkpt>
      <trkpt lat="48.10568" lon="7.10329">
        <ele>963.59997</ele>
        <time>2010-01-01T00:33:31Z</time>
      </trkpt>
      <trkpt lat="48.10552" lon="7.1034">
        <ele>963.20001</ele>
        <time>2010-01-01T00:33:38Z</time>
      </trkpt>
      <trkpt lat="48.10515" lon="7.10369">
        <ele>962.40002</ele>
        <time>2010-01-01T00:33:55Z</time>
      </trkpt>
      <trkpt lat="48.10502" lon="7.1038">
        <ele>962</ele>
        <time>2010-01-01T00:34:01Z</time>
      </trkpt>
      <trkpt lat="48.10469" lon="7.10396">
        <ele>960.79998</ele>
        <time>2010-01-01T00:34:15Z</time>
      </trkpt>
      <trkpt lat="48.10441" lon="7.10408">
        <ele>959.79998</ele>
        <time>2010-01-01T00:34:27Z</time>
      </trkpt>
      <trkpt lat="48.104" lon="7.10444">
        <ele>958</ele>
        <time>2010-01-01T00:34:46Z</time>
      </trkpt>
      <trkpt lat="48.10369" lon="7.10477">
        <ele>956.20001</ele>
        <time>2010-01-01T00:35:01Z</time>
      </trkpt>
      <trkpt lat="48.10333" lon="7.1052">
        <ele>953.20001</ele>
        <time>2010-01-01T00:35:19Z</time>
      </trkpt>
      <trkpt lat="48.1029" lon="7.10567">
        <ele>951</ele>
        <time>2010-01-01T00:35:41Z</time>
      </trkpt>
      <trkpt lat="48.1026" lon="7.10597">
        <ele>949.40002</ele>
        <time>2010-01-01T00:35:55Z</time>
      </trkpt>
      <trkpt lat="48.10224" lon="7.1064">
        <ele>947.59997</ele>
        <time>2010-01-01T00:36:14Z</time>
      </trkpt>
      <trkpt lat="48.10194" lon="7.10676">
        <ele>947.20001</ele>
        <time>2010-01-01T00:36:29Z</time>
      </trkpt>
      <trkpt lat="48.10171" lon="7.10696">
        <ele>946.79998</ele>
        <time>2010-01-01T00:36:40Z</time>
      </trkpt>
      <trkpt lat="48.10144" lon="7.10733">
        <ele>946.59997</ele>
        <time>2010-01-01T00:36:54Z</time>
      </trkpt>
      <trkpt lat="48.1011" lon="7.10784">
        <ele>946.40002</ele>
        <time>2010-01-01T00:37:14Z</time>
      </trkpt>
      <trkpt lat="48.10081" lon="7.10825">
        <ele>944.79998</ele>
        <time>2010-01-01T00:37:30Z</time>
      </trkpt>
      <trkpt lat="48.10076" lon="7.10834">
        <ele>944</ele>
        <time>2010-01-01T00:37:33Z</time>
      </trkpt>
      <trkpt lat="48.10067" lon="7.10886">
        <ele>939.20001</ele>
        <time>2010-01-01T00:37:47Z</time>
      </trkpt>
      <trkpt lat="48.10065" lon="7.10952">
        <ele>934.59997</ele>
        <time>2010-01-01T00:38:05Z</time>
      </trkpt>
      <trkpt lat="48.10065" lon="7.10969">
        <ele>933</ele>
        <time>2010-01-01T00:38:09Z</time>
      </trkpt>
      <trkpt lat="48.10081" lon="7.11034">
        <ele>927</ele>
        <time>2010-01-01T00:38:28Z</time>
      </trkpt>
      <trkpt lat="48.10116" lon="7.11122">
        <ele>918.20001</ele>
        <time>2010-01-01T00:38:55Z</time>
      </trkpt>
      <trkpt lat="48.10155" lon="7.1121">
        <ele>906.20001</ele>
        <time>2010-01-01T00:39:23Z</time>
      </trkpt>
      <trkpt lat="48.10175" lon="7.11264">
        <ele>897.40002</ele>
        <time>2010-01-01T00:39:40Z</time>
      </trkpt>
      <trkpt lat="48.10178" lon="7.11274">
        <ele>895.20001</ele>
        <time>2010-01-01T00:39:43Z</time>
      </trkpt>
      <trkpt lat="48.1018" lon="7.11287">
        <ele>891.59997</ele>
        <time>2010-01-01T00:39:46Z</time>
      </trkpt>
      <trkpt lat="48.10177" lon="7.11285">
        <ele>887.59997</ele>
        <time>2010-01-01T00:39:48Z</time>
      </trkpt>
      <trkpt lat="48.10176" lon="7.11283">
        <ele>887.20001</ele>
        <time>2010-01-01T00:39:48Z</time>
      </trkpt>
      <trkpt lat="48.1017" lon="7.11281">
        <ele>887.40002</ele>
        <time>2010-01-01T00:39:51Z</time>
      </trkpt>
      <trkpt lat="48.10156" lon="7.11283">
        <ele>888.20001</ele>
        <time>2010-01-01T00:39:57Z</time>
      </trkpt>
      <trkpt lat="48.10134" lon="7.11282">
        <ele>889.20001</ele>
        <time>2010-01-01T00:40:05Z</time>
      </trkpt>
      <trkpt lat="48.1011" lon="7.11279">
        <ele>890.79998</ele>
        <time>2010-01-01T00:40:15Z</time>
      </trkpt>
      <trkpt lat="48.10085" lon="7.11278">
        <ele>892.59997</ele>
        <time>2010-01-01T00:40:25Z</time>
      </trkpt>
      <trkpt lat="48.10063" lon="7.11275">
        <ele>893.40002</ele>
        <time>2010-01-01T00:40:34Z</time>
      </trkpt>
      <trkpt lat="48.10031" lon="7.11265">
        <ele>893.20001</ele>
        <time>2010-01-01T00:40:47Z</time>
      </trkpt>
      <trkpt lat="48.0999" lon="7.11255">
        <ele>891.59997</ele>
        <time>2010-01-01T00:41:04Z</time>
      </trkpt>
      <trkpt lat="48.09958" lon="7.11241">
        <ele>890.40002</ele>
        <time>2010-01-01T00:41:17Z</time>
      </trkpt>
      <trkpt lat="48.09938" lon="7.11224">
        <ele>889.40002</ele>
        <time>2010-01-01T00:41:26Z</time>
      </trkpt>
      <trkpt lat="48.09906" lon="7.11204">
        <ele>887.40002</ele>
        <time>2010-01-01T00:41:40Z</time>
      </trkpt>
      <trkpt lat="48.09873" lon="7.11192">
        <ele>886.59997</ele>
        <time>2010-01-01T00:41:54Z</time>
      </trkpt>
      <trkpt lat="48.09856" lon="7.11186">
        <ele>887.20001</ele>
        <time>2010-01-01T00:42:01Z</time>
      </trkpt>
      <trkpt lat="48.0984" lon="7.11173">
        <ele>888.59997</ele>
        <time>2010-01-01T00:42:08Z</time>
      </trkpt>
      <trkpt lat="48.09829" lon="7.1115">
        <ele>890.20001</ele>
        <time>2010-01-01T00:42:16Z</time>
      </trkpt>
      <trkpt lat="48.09813" lon="7.11137">
        <ele>892</ele>
        <time>2010-01-01T00:42:23Z</time>
      </trkpt>
      <trkpt lat="48.09791" lon="7.11136">
        <ele>894.40002</ele>
        <time>2010-01-01T00:42:31Z</time>
      </trkpt>
      <trkpt lat="48.09769" lon="7.11138">
        <ele>896.79998</ele>
        <time>2010-01-01T00:42:40Z</time>
      </trkpt>
      <trkpt lat="48.09754" lon="7.11144">
        <ele>898.79998</ele>
        <time>2010-01-01T00:42:47Z</time>
      </trkpt>
      <trkpt lat="48.09737" lon="7.11145">
        <ele>901.40002</ele>
        <time>2010-01-01T00:42:53Z</time>
      </trkpt>
      <trkpt lat="48.0972" lon="7.11146">
        <ele>903</ele>
        <time>2010-01-01T00:43:00Z</time>
      </trkpt>
      <trkpt lat="48.09704" lon="7.11149">
        <ele>904.59997</ele>
        <time>2010-01-01T00:43:07Z</time>
      </trkpt>
      <trkpt lat="48.09681" lon="7.11155">
        <ele>906.40002</ele>
        <time>2010-01-01T00:43:16Z</time>
      </trkpt>
      <trkpt lat="48.09655" lon="7.11158">
        <ele>907.40002</ele>
        <time>2010-01-01T00:43:27Z</time>
      </trkpt>
      <trkpt lat="48.09617" lon="7.11157">
        <ele>908</ele>
        <time>2010-01-01T00:43:42Z</time>
      </trkpt>
      <trkpt lat="48.09584" lon="7.11153">
        <ele>908.20001</ele>
        <time>2010-01-01T00:43:55Z</time>
      </trkpt>
      <trkpt lat="48.09544" lon="7.11149">
        <ele>908.20001</ele>
        <time>2010-01-01T00:44:11Z</time>
      </trkpt>
      <trkpt lat="48.09501" lon="7.11152">
        <ele>908.20001</ele>
        <time>2010-01-01T00:44:28Z</time>
      </trkpt>
      <trkpt lat="48.09467" lon="7.11159">
        <ele>908.20001</ele>
        <time>2010-01-01T00:44:42Z</time>
      </trkpt>
      <trkpt lat="48.09439" lon="7.1116">
        <ele>908.40002</ele>
        <time>2010-01-01T00:44:53Z</time>
      </trkpt>
      <trkpt lat="48.09413" lon="7.11164">
        <ele>909</ele>
        <time>2010-01-01T00:45:04Z</time>
      </trkpt>
      <trkpt lat="48.09389" lon="7.1116">
        <ele>910.20001</ele>
        <time>2010-01-01T00:45:13Z</time>
      </trkpt>
      <trkpt lat="48.09369" lon="7.11142">
        <ele>913.20001</ele>
        <time>2010-01-01T00:45:23Z</time>
      </trkpt>
      <trkpt lat="48.09353" lon="7.11129">
        <ele>915</ele>
        <time>2010-01-01T00:45:30Z</time>
      </trkpt>
      <trkpt lat="48.09338" lon="7.11125">
        <ele>915.79998</ele>
        <time>2010-01-01T00:45:36Z</time>
      </trkpt>
      <trkpt lat="48.09325" lon="7.11125">
        <ele>917.20001</ele>
        <time>2010-01-01T00:45:41Z</time>
      </trkpt>
      <trkpt lat="48.09316" lon="7.11131">
        <ele>918.40002</ele>
        <time>2010-01-01T00:45:45Z</time>
      </trkpt>
      <trkpt lat="48.09298" lon="7.11131">
        <ele>920.79998</ele>
        <time>2010-01-01T00:45:53Z</time>
      </trkpt>
      <trkpt lat="48.09286" lon="7.11126">
        <ele>922.59997</ele>
        <time>2010-01-01T00:45:57Z</time>
      </trkpt>
      <trkpt lat="48.09284" lon="7.11126">
        <ele>923</ele>
        <time>2010-01-01T00:45:58Z</time>
      </trkpt>
      <trkpt lat="48.09278" lon="7.11123">
        <ele>924</ele>
        <time>2010-01-01T00:46:01Z</time>
      </trkpt>
      <trkpt lat="48.09263" lon="7.11123">
        <ele>926</ele>
        <time>2010-01-01T00:46:07Z</time>
      </trkpt>
      <trkpt lat="48.09251" lon="7.11128">
        <ele>928</ele>
        <time>2010-01-01T00:46:11Z</time>
      </trkpt>
      <trkpt lat="48.0924" lon="7.11142">
        <ele>929.40002</ele>
        <time>2010-01-01T00:46:17Z</time>
      </trkpt>
      <trkpt lat="48.09233" lon="7.11151">
        <ele>930</ele>
        <time>2010-01-01T00:46:21Z</time>
      </trkpt>
      <trkpt lat="48.09224" lon="7.11163">
        <ele>930.20001</ele>
        <time>2010-01-01T00:46:26Z</time>
      </trkpt>
      <trkpt lat="48.0921" lon="7.11178">
        <ele>930.20001</ele>
        <time>2010-01-01T00:46:33Z</time>
      </trkpt>
      <trkpt lat="48.09196" lon="7.11196">
        <ele>931.40002</ele>
        <time>2010-01-01T00:46:40Z</time>
      </trkpt>
      <trkpt lat="48.09184" lon="7.11205">
        <ele>932.40002</ele>
        <time>2010-01-01T00:46:46Z</time>
      </trkpt>
      <trkpt lat="48.09172" lon="7.11217">
        <ele>934</ele>
        <time>2010-01-01T00:46:51Z</time>
      </trkpt>
      <trkpt lat="48.0916" lon="7.11226">
        <ele>934.79998</ele>
        <time>2010-01-01T00:46:56Z</time>
      </trkpt>
      <trkpt lat="48.09148" lon="7.11233">
        <ele>936.20001</ele>
        <time>2010-01-01T00:47:02Z</time>
      </trkpt>
      <trkpt lat="48.09135" lon="7.11235">
        <ele>937</ele>
        <time>2010-01-01T00:47:07Z</time>
      </trkpt>
      <trkpt lat="48.09121" lon="7.11227">
        <ele>937.79998</ele>
        <time>2010-01-01T00:47:13Z</time>
      </trkpt>
      <trkpt lat="48.0911" lon="7.11218">
        <ele>938.59997</ele>
        <time>2010-01-01T00:47:18Z</time>
      </trkpt>
      <trkpt lat="48.091" lon="7.11219">
        <ele>939.40002</ele>
        <time>2010-01-01T00:47:22Z</time>
      </trkpt>
      <trkpt lat="48.09081" lon="7.11223">
        <ele>939.40002</ele>
        <time>2010-01-01T00:47:30Z</time>
      </trkpt>
      <trkpt lat="48.09064" lon="7.11214">
        <ele>939.20001</ele>
        <time>2010-01-01T00:47:37Z</time>
      </trkpt>
      <trkpt lat="48.09058" lon="7.11204">
        <ele>938.40002</ele>
        <time>2010-01-01T00:47:40Z</time>
      </trkpt>
      <trkpt lat="48.09041" lon="7.11178">
        <ele>936.59997</ele>
        <time>2010-01-01T00:47:50Z</time>
      </trkpt>
      <trkpt lat="48.09016" lon="7.11131">
        <ele>935.79998</ele>
        <time>2010-01-01T00:48:06Z</time>
      </trkpt>
      <trkpt lat="48.09002" lon="7.11107">
        <ele>934.59997</ele>
        <time>2010-01-01T00:48:15Z</time>
      </trkpt>
      <trkpt lat="48.08995" lon="7.11096">
        <ele>934</ele>
        <time>2010-01-01T00:48:19Z</time>
      </trkpt>
      <trkpt lat="48.08977" lon="7.11065">
        <ele>931.20001</ele>
        <time>2010-01-01T00:48:30Z</time>
      </trkpt>
      <trkpt lat="48.08969" lon="7.11053">
        <ele>930</ele>
        <time>2010-01-01T00:48:34Z</time>
      </trkpt>
      <trkpt lat="48.08946" lon="7.11025">
        <ele>928.20001</ele>
        <time>2010-01-01T00:48:46Z</time>
      </trkpt>
      <trkpt lat="48.08911" lon="7.11">
        <ele>925</ele>
        <time>2010-01-01T00:49:02Z</time>
      </trkpt>
      <trkpt lat="48.0889" lon="7.10969">
        <ele>922.79998</ele>
        <time>2010-01-01T00:49:14Z</time>
      </trkpt>
      <trkpt lat="48.08888" lon="7.10963">
        <ele>922.40002</ele>
        <time>2010-01-01T00:49:16Z</time>
      </trkpt>
      <trkpt lat="48.08868" lon="7.10917">
        <ele>918.79998</ele>
        <time>2010-01-01T00:49:30Z</time>
      </trkpt>
      <trkpt lat="48.08856" lon="7.10901">
        <ele>917</ele>
        <time>2010-01-01T00:49:37Z</time>
      </trkpt>
      <trkpt lat="48.08849" lon="7.10913">
        <ele>915.20001</ele>
        <time>2010-01-01T00:49:41Z</time>
      </trkpt>
      <trkpt lat="48.08845" lon="7.10948">
        <ele>912.59997</ele>
        <time>2010-01-01T00:49:50Z</time>
      </trkpt>
      <trkpt lat="48.08842" lon="7.10961">
        <ele>912.20001</ele>
        <time>2010-01-01T00:49:54Z</time>
      </trkpt>
      <trkpt lat="48.08844" lon="7.11002">
        <ele>912</ele>
        <time>2010-01-01T00:50:05Z</time>
      </trkpt>
      <trkpt lat="48.08845" lon="7.11009">
        <ele>911.79998</ele>
        <time>2010-01-01T00:50:07Z</time>
      </trkpt>
      <trkpt lat="48.08841" lon="7.11041">
        <ele>911.40002</ele>
        <time>2010-01-01T00:50:15Z</time>
      </trkpt>
      <trkpt lat="48.08836" lon="7.11058">
        <ele>910.79998</ele>
        <time>2010-01-01T00:50:21Z</time>
      </trkpt>
      <trkpt lat="48.08833" lon="7.111">
        <ele>909.59997</ele>
        <time>2010-01-01T00:50:32Z</time>
      </trkpt>
      <trkpt lat="48.08835" lon="7.1111">
        <ele>909</ele>
        <time>2010-01-01T00:50:35Z</time>
      </trkpt>
      <trkpt lat="48.08855" lon="7.11172">
        <ele>906</ele>
        <time>2010-01-01T00:50:53Z</time>
      </trkpt>
      <trkpt lat="48.08879" lon="7.11203">
        <ele>903.40002</ele>
        <time>2010-01-01T00:51:06Z</time>
      </trkpt>
      <trkpt lat="48.08905" lon="7.11236">
        <ele>900.59997</ele>
        <time>2010-01-01T00:51:19Z</time>
      </trkpt>
      <trkpt lat="48.08915" lon="7.1127">
        <ele>898.40002</ele>
        <time>2010-01-01T00:51:29Z</time>
      </trkpt>
      <trkpt lat="48.08917" lon="7.11296">
        <ele>896.59997</ele>
        <time>2010-01-01T00:51:36Z</time>
      </trkpt>
      <trkpt lat="48.08915" lon="7.11322">
        <ele>895.59997</ele>
        <time>2010-01-01T00:51:43Z</time>
      </trkpt>
      <trkpt lat="48.08905" lon="7.11358">
        <ele>893</ele>
        <time>2010-01-01T00:51:54Z</time>
      </trkpt>
      <trkpt lat="48.08873" lon="7.11437">
        <ele>887</ele>
        <time>2010-01-01T00:52:19Z</time>
      </trkpt>
      <trkpt lat="48.08852" lon="7.11476">
        <ele>883.59997</ele>
        <time>2010-01-01T00:52:32Z</time>
      </trkpt>
      <trkpt lat="48.08818" lon="7.1154">
        <ele>877.79998</ele>
        <time>2010-01-01T00:52:54Z</time>
      </trkpt>
      <trkpt lat="48.08798" lon="7.11585">
        <ele>873.40002</ele>
        <time>2010-01-01T00:53:08Z</time>
      </trkpt>
      <trkpt lat="48.08791" lon="7.11606">
        <ele>870.40002</ele>
        <time>2010-01-01T00:53:15Z</time>
      </trkpt>
      <trkpt lat="48.08789" lon="7.11608">
        <ele>869.79998</ele>
        <time>2010-01-01T00:53:15Z</time>
      </trkpt>
      <trkpt lat="48.08791" lon="7.11608">
        <ele>868.59997</ele>
        <time>2010-01-01T00:53:16Z</time>
      </trkpt>
      <trkpt lat="48.08791" lon="7.11608">
        <ele>868.40002</ele>
        <time>2010-01-01T00:53:16Z</time>
      </trkpt>
      <trkpt lat="48.08791" lon="7.11629">
        <ele>868.40002</ele>
        <time>2010-01-01T00:53:22Z</time>
      </trkpt>
      <trkpt lat="48.08793" lon="7.11634">
        <ele>868.40002</ele>
        <time>2010-01-01T00:53:23Z</time>
      </trkpt>
      <trkpt lat="48.0881" lon="7.11683">
        <ele>868</ele>
        <time>2010-01-01T00:53:38Z</time>
      </trkpt>
      <trkpt lat="48.08816" lon="7.11696">
        <ele>867.79998</ele>
        <time>2010-01-01T00:53:42Z</time>
      </trkpt>
      <trkpt lat="48.08836" lon="7.11716">
        <ele>867.59997</ele>
        <time>2010-01-01T00:53:52Z</time>
      </trkpt>
      <trkpt lat="48.08889" lon="7.11748">
        <ele>866.59997</ele>
        <time>2010-01-01T00:54:15Z</time>
      </trkpt>
      <trkpt lat="48.08921" lon="7.11769">
        <ele>865.59997</ele>
        <time>2010-01-01T00:54:29Z</time>
      </trkpt>
      <trkpt lat="48.08924" lon="7.11773">
        <ele>865.40002</ele>
        <time>2010-01-01T00:54:30Z</time>
      </trkpt>
      <trkpt lat="48.08919" lon="7.11794">
        <ele>864.40002</ele>
        <time>2010-01-01T00:54:36Z</time>
      </trkpt>
      <trkpt lat="48.08903" lon="7.1182">
        <ele>862.79998</ele>
        <time>2010-01-01T00:54:45Z</time>
      </trkpt>
      <trkpt lat="48.08875" lon="7.11842">
        <ele>861</ele>
        <time>2010-01-01T00:54:58Z</time>
      </trkpt>
      <trkpt lat="48.08846" lon="7.11869">
        <ele>860.20001</ele>
        <time>2010-01-01T00:55:12Z</time>
      </trkpt>
      <trkpt lat="48.08818" lon="7.11908">
        <ele>860.40002</ele>
        <time>2010-01-01T00:55:27Z</time>
      </trkpt>
      <trkpt lat="48.08802" lon="7.1193">
        <ele>860.59997</ele>
        <time>2010-01-01T00:55:36Z</time>
      </trkpt>
      <trkpt lat="48.08796" lon="7.11945">
        <ele>861</ele>
        <time>2010-01-01T00:55:41Z</time>
      </trkpt>
      <trkpt lat="48.08786" lon="7.11967">
        <ele>861.40002</ele>
        <time>2010-01-01T00:55:48Z</time>
      </trkpt>
      <trkpt lat="48.08782" lon="7.11976">
        <ele>861.79998</ele>
        <time>2010-01-01T00:55:51Z</time>
      </trkpt>
      <trkpt lat="48.08768" lon="7.12022">
        <ele>863</ele>
        <time>2010-01-01T00:56:04Z</time>
      </trkpt>
      <trkpt lat="48.08764" lon="7.12039">
        <ele>863.40002</ele>
        <time>2010-01-01T00:56:09Z</time>
      </trkpt>
      <trkpt lat="48.0876" lon="7.1207">
        <ele>863.79998</ele>
        <time>2010-01-01T00:56:17Z</time>
      </trkpt>
      <trkpt lat="48.0876" lon="7.12098">
        <ele>864</ele>
        <time>2010-01-01T00:56:25Z</time>
      </trkpt>
      <trkpt lat="48.08765" lon="7.12155">
        <ele>864.20001</ele>
        <time>2010-01-01T00:56:40Z</time>
      </trkpt>
      <trkpt lat="48.08767" lon="7.12194">
        <ele>863.79998</ele>
        <time>2010-01-01T00:56:51Z</time>
      </trkpt>
      <trkpt lat="48.08764" lon="7.12254">
        <ele>862.79998</ele>
        <time>2010-01-01T00:57:07Z</time>
      </trkpt>
      <trkpt lat="48.0876" lon="7.12298">
        <ele>862.20001</ele>
        <time>2010-01-01T00:57:19Z</time>
      </trkpt>
      <trkpt lat="48.08758" lon="7.12356">
        <ele>861.20001</ele>
        <time>2010-01-01T00:57:34Z</time>
      </trkpt>
      <trkpt lat="48.08756" lon="7.12385">
        <ele>860.59997</ele>
        <time>2010-01-01T00:57:42Z</time>
      </trkpt>
      <trkpt lat="48.08749" lon="7.12435">
        <ele>860.40002</ele>
        <time>2010-01-01T00:57:56Z</time>
      </trkpt>
      <trkpt lat="48.08736" lon="7.12479">
        <ele>861.59997</ele>
        <time>2010-01-01T00:58:09Z</time>
      </trkpt>
      <trkpt lat="48.08723" lon="7.12514">
        <ele>863.40002</ele>
        <time>2010-01-01T00:58:19Z</time>
      </trkpt>
      <trkpt lat="48.08705" lon="7.12562">
        <ele>865.40002</ele>
        <time>2010-01-01T00:58:34Z</time>
      </trkpt>
      <trkpt lat="48.08691" lon="7.12599">
        <ele>866.20001</ele>
        <time>2010-01-01T00:58:45Z</time>
      </trkpt>
      <trkpt lat="48.08684" lon="7.12618">
        <ele>866.40002</ele>
        <time>2010-01-01T00:58:51Z</time>
      </trkpt>
      <trkpt lat="48.0868" lon="7.12629">
        <ele>866.40002</ele>
        <time>2010-01-01T00:58:55Z</time>
      </trkpt>
      <trkpt lat="48.08661" lon="7.12671">
        <ele>866.40002</ele>
        <time>2010-01-01T00:59:08Z</time>
      </trkpt>
      <trkpt lat="48.08645" lon="7.12694">
        <ele>866.59997</ele>
        <time>2010-01-01T00:59:17Z</time>
      </trkpt>
      <trkpt lat="48.08623" lon="7.12739">
        <ele>866.40002</ele>
        <time>2010-01-01T00:59:32Z</time>
      </trkpt>
      <trkpt lat="48.08615" lon="7.12755">
        <ele>866.20001</ele>
        <time>2010-01-01T00:59:37Z</time>
      </trkpt>
      <trkpt lat="48.08589" lon="7.12792">
        <ele>866.40002</ele>
        <time>2010-01-01T00:59:52Z</time>
      </trkpt>
      <trkpt lat="48.0857" lon="7.12809">
        <ele>866.40002</ele>
        <time>2010-01-01T01:00:00Z</time>
      </trkpt>
      <trkpt lat="48.08543" lon="7.12826">
        <ele>866.20001</ele>
        <time>2010-01-01T01:00:12Z</time>
      </trkpt>
      <trkpt lat="48.08539" lon="7.12828">
        <ele>866.20001</ele>
        <time>2010-01-01T01:00:14Z</time>
      </trkpt>
      <trkpt lat="48.08518" lon="7.12833">
        <ele>866.40002</ele>
        <time>2010-01-01T01:00:22Z</time>
      </trkpt>
      <trkpt lat="48.08504" lon="7.12832">
        <ele>866.59997</ele>
        <time>2010-01-01T01:00:28Z</time>
      </trkpt>
      <trkpt lat="48.08473" lon="7.12833">
        <ele>867.20001</ele>
        <time>2010-01-01T01:00:40Z</time>
      </trkpt>
      <trkpt lat="48.08441" lon="7.12835">
        <ele>867.59997</ele>
        <time>2010-01-01T01:00:53Z</time>
      </trkpt>
      <trkpt lat="48.08415" lon="7.12833">
        <ele>868</ele>
        <time>2010-01-01T01:01:04Z</time>
      </trkpt>
      <trkpt lat="48.08393" lon="7.12827">
        <ele>868.59997</ele>
        <time>2010-01-01T01:01:13Z</time>
      </trkpt>
      <trkpt lat="48.08377" lon="7.12823">
        <ele>869.40002</ele>
        <time>2010-01-01T01:01:19Z</time>
      </trkpt>
      <trkpt lat="48.08357" lon="7.12823">
        <ele>871</ele>
        <time>2010-01-01T01:01:27Z</time>
      </trkpt>
      <trkpt lat="48.08335" lon="7.12825">
        <ele>873</ele>
        <time>2010-01-01T01:01:36Z</time>
      </trkpt>
      <trkpt lat="48.08309" lon="7.12837">
        <ele>874.59997</ele>
        <time>2010-01-01T01:01:47Z</time>
      </trkpt>
      <trkpt lat="48.08305" lon="7.12839">
        <ele>874.59997</ele>
        <time>2010-01-01T01:01:48Z</time>
      </trkpt>
      <trkpt lat="48.08286" lon="7.12865">
        <ele>874.40002</ele>
        <time>2010-01-01T01:01:59Z</time>
      </trkpt>
      <trkpt lat="48.08277" lon="7.12909">
        <ele>873.20001</ele>
        <time>2010-01-01T01:02:11Z</time>
      </trkpt>
      <trkpt lat="48.08277" lon="7.12928">
        <ele>872.79998</ele>
        <time>2010-01-01T01:02:16Z</time>
      </trkpt>
      <trkpt lat="48.08283" lon="7.13008">
        <ele>871.59997</ele>
        <time>2010-01-01T01:02:38Z</time>
      </trkpt>
      <trkpt lat="48.08285" lon="7.13041">
        <ele>870.40002</ele>
        <time>2010-01-01T01:02:46Z</time>
      </trkpt>
      <trkpt lat="48.083" lon="7.13084">
        <ele>868.20001</ele>
        <time>2010-01-01T01:02:59Z</time>
      </trkpt>
      <trkpt lat="48.08307" lon="7.13091">
        <ele>867.40002</ele>
        <time>2010-01-01T01:03:03Z</time>
      </trkpt>
      <trkpt lat="48.08345" lon="7.13133">
        <ele>863</ele>
        <time>2010-01-01T01:03:22Z</time>
      </trkpt>
      <trkpt lat="48.08369" lon="7.1318">
        <ele>860.79998</ele>
        <time>2010-01-01T01:03:37Z</time>
      </trkpt>
      <trkpt lat="48.08396" lon="7.13235">
        <ele>859</ele>
        <time>2010-01-01T01:03:56Z</time>
      </trkpt>
      <trkpt lat="48.08426" lon="7.13295">
        <ele>857.20001</ele>
        <time>2010-01-01T01:04:16Z</time>
      </trkpt>
      <trkpt lat="48.0845" lon="7.13341">
        <ele>855.59997</ele>
        <time>2010-01-01T01:04:31Z</time>
      </trkpt>
      <trkpt lat="48.08468" lon="7.13391">
        <ele>854.40002</ele>
        <time>2010-01-01T01:04:46Z</time>
      </trkpt>
      <trkpt lat="48.08489" lon="7.13455">
        <ele>854.40002</ele>
        <time>2010-01-01T01:05:06Z</time>
      </trkpt>
      <trkpt lat="48.08494" lon="7.13472">
        <ele>854.40002</ele>
        <time>2010-01-01T01:05:11Z</time>
      </trkpt>
      <trkpt lat="48.08515" lon="7.13515">
        <ele>854.40002</ele>
        <time>2010-01-01T01:05:25Z</time>
      </trkpt>
      <trkpt lat="48.08537" lon="7.13553">
        <ele>854.59997</ele>
        <time>2010-01-01T01:05:38Z</time>
      </trkpt>
      <trkpt lat="48.08558" lon="7.13583">
        <ele>854.59997</ele>
        <time>2010-01-01T01:05:50Z</time>
      </trkpt>
      <trkpt lat="48.08571" lon="7.13599">
        <ele>854.59997</ele>
        <time>2010-01-01T01:05:57Z</time>
      </trkpt>
      <trkpt lat="48.08578" lon="7.13611">
        <ele>854.59997</ele>
        <time>2010-01-01T01:06:01Z</time>
      </trkpt>
      <trkpt lat="48.08589" lon="7.13638">
        <ele>854.59997</ele>
        <time>2010-01-01T01:06:09Z</time>
      </trkpt>
      <trkpt lat="48.08599" lon="7.13656">
        <ele>854.79998</ele>
        <time>2010-01-01T01:06:16Z</time>
      </trkpt>
      <trkpt lat="48.08628" lon="7.13687">
        <ele>855.40002</ele>
        <time>2010-01-01T01:06:30Z</time>
      </trkpt>
      <trkpt lat="48.08632" lon="7.13691">
        <ele>855.40002</ele>
        <time>2010-01-01T01:06:32Z</time>
      </trkpt>
      <trkpt lat="48.08653" lon="7.13725">
        <ele>855.59997</ele>
        <time>2010-01-01T01:06:44Z</time>
      </trkpt>
      <trkpt lat="48.08656" lon="7.13731">
        <ele>855.59997</ele>
        <time>2010-01-01T01:06:46Z</time>
      </trkpt>
      <trkpt lat="48.08665" lon="7.13748">
        <ele>855.59997</ele>
        <time>2010-01-01T01:06:52Z</time>
      </trkpt>
      <trkpt lat="48.0869" lon="7.13774">
        <ele>855.40002</ele>
        <time>2010-01-01T01:07:04Z</time>
      </trkpt>
      <trkpt lat="48.0871" lon="7.13799">
        <ele>855.20001</ele>
        <time>2010-01-01T01:07:15Z</time>
      </trkpt>
      <trkpt lat="48.08733" lon="7.13828">
        <ele>855.20001</ele>
        <time>2010-01-01T01:07:27Z</time>
      </trkpt>
      <trkpt lat="48.08743" lon="7.13847">
        <ele>855.59997</ele>
        <time>2010-01-01T01:07:33Z</time>
      </trkpt>
      <trkpt lat="48.08755" lon="7.13871">
        <ele>855.79998</ele>
        <time>2010-01-01T01:07:41Z</time>
      </trkpt>
      <trkpt lat="48.08764" lon="7.13881">
        <ele>855.79998</ele>
        <time>2010-01-01T01:07:46Z</time>
      </trkpt>
      <trkpt lat="48.08794" lon="7.13929">
        <ele>855.79998</ele>
        <time>2010-01-01T01:08:03Z</time>
      </trkpt>
      <trkpt lat="48.088" lon="7.13942">
        <ele>855.79998</ele>
        <time>2010-01-01T01:08:07Z</time>
      </trkpt>
      <trkpt lat="48.08807" lon="7.13962">
        <ele>855.79998</ele>
        <time>2010-01-01T01:08:14Z</time>
      </trkpt>
      <trkpt lat="48.08811" lon="7.13976">
        <ele>855.79998</ele>
        <time>2010-01-01T01:08:18Z</time>
      </trkpt>
      <trkpt lat="48.08814" lon="7.1399">
        <ele>855.59997</ele>
        <time>2010-01-01T01:08:22Z</time>
      </trkpt>
      <trkpt lat="48.08819" lon="7.14028">
        <ele>855.40002</ele>
        <time>2010-01-01T01:08:32Z</time>
      </trkpt>
      <trkpt lat="48.08824" lon="7.14045">
        <ele>855.40002</ele>
        <time>2010-01-01T01:08:37Z</time>
      </trkpt>
      <trkpt lat="48.08831" lon="7.14072">
        <ele>855</ele>
        <time>2010-01-01T01:08:45Z</time>
      </trkpt>
      <trkpt lat="48.0883" lon="7.14127">
        <ele>853.20001</ele>
        <time>2010-01-01T01:08:59Z</time>
      </trkpt>
      <trkpt lat="48.08821" lon="7.14185">
        <ele>851.20001</ele>
        <time>2010-01-01T01:09:15Z</time>
      </trkpt>
      <trkpt lat="48.08818" lon="7.14197">
        <ele>850.79998</ele>
        <time>2010-01-01T01:09:19Z</time>
      </trkpt>
      <trkpt lat="48.08792" lon="7.14281">
        <ele>846.59997</ele>
        <time>2010-01-01T01:09:43Z</time>
      </trkpt>
      <trkpt lat="48.08782" lon="7.14317">
        <ele>844.59997</ele>
        <time>2010-01-01T01:09:54Z</time>
      </trkpt>
      <trkpt lat="48.08751" lon="7.14389">
        <ele>840.79998</ele>
        <time>2010-01-01T01:10:17Z</time>
      </trkpt>
      <trkpt lat="48.08746" lon="7.14401">
        <ele>840</ele>
        <time>2010-01-01T01:10:21Z</time>
      </trkpt>
      <trkpt lat="48.08707" lon="7.14468">
        <ele>835</ele>
        <time>2010-01-01T01:10:44Z</time>
      </trkpt>
      <trkpt lat="48.08677" lon="7.14526">
        <ele>830.79998</ele>
        <time>2010-01-01T01:11:04Z</time>
      </trkpt>
      <trkpt lat="48.08655" lon="7.14574">
        <ele>828.20001</ele>
        <time>2010-01-01T01:11:19Z</time>
      </trkpt>
      <trkpt lat="48.08649" lon="7.14606">
        <ele>825.79998</ele>
        <time>2010-01-01T01:11:28Z</time>
      </trkpt>
      <trkpt lat="48.08665" lon="7.14625">
        <ele>824.59997</ele>
        <time>2010-01-01T01:11:36Z</time>
      </trkpt>
      <trkpt lat="48.08683" lon="7.14638">
        <ele>823</ele>
        <time>2010-01-01T01:11:44Z</time>
      </trkpt>
      <trkpt lat="48.0873" lon="7.14659">
        <ele>820.20001</ele>
        <time>2010-01-01T01:12:04Z</time>
      </trkpt>
      <trkpt lat="48.08769" lon="7.14683">
        <ele>817.59997</ele>
        <time>2010-01-01T01:12:21Z</time>
      </trkpt>
      <trkpt lat="48.08778" lon="7.14688">
        <ele>816.79998</ele>
        <time>2010-01-01T01:12:25Z</time>
      </trkpt>
      <trkpt lat="48.08806" lon="7.1469">
        <ele>813.79998</ele>
        <time>2010-01-01T01:12:36Z</time>
      </trkpt>
      <trkpt lat="48.08812" lon="7.14686">
        <ele>813</ele>
        <time>2010-01-01T01:12:39Z</time>
      </trkpt>
      <trkpt lat="48.08835" lon="7.14671">
        <ele>811.59997</ele>
        <time>2010-01-01T01:12:49Z</time>
      </trkpt>
      <trkpt lat="48.0887" lon="7.1465">
        <ele>809</ele>
        <time>2010-01-01T01:13:04Z</time>
      </trkpt>
      <trkpt lat="48.0892" lon="7.14621">
        <ele>806.40002</ele>
        <time>2010-01-01T01:13:25Z</time>
      </trkpt>
      <trkpt lat="48.08966" lon="7.14598">
        <ele>803.59997</ele>
        <time>2010-01-01T01:13:45Z</time>
      </trkpt>
      <trkpt lat="48.09007" lon="7.14573">
        <ele>801.40002</ele>
        <time>2010-01-01T01:14:02Z</time>
      </trkpt>
      <trkpt lat="48.09052" lon="7.14547">
        <ele>798.79998</ele>
        <time>2010-01-01T01:14:21Z</time>
      </trkpt>
      <trkpt lat="48.09087" lon="7.14529">
        <ele>796.20001</ele>
        <time>2010-01-01T01:14:36Z</time>
      </trkpt>
      <trkpt lat="48.0912" lon="7.14505">
        <ele>794</ele>
        <time>2010-01-01T01:14:51Z</time>
      </trkpt>
      <trkpt lat="48.09162" lon="7.14468">
        <ele>791.20001</ele>
        <time>2010-01-01T01:15:11Z</time>
      </trkpt>
      <trkpt lat="48.09184" lon="7.1445">
        <ele>789.79998</ele>
        <time>2010-01-01T01:15:20Z</time>
      </trkpt>
      <trkpt lat="48.09192" lon="7.14446">
        <ele>788.40002</ele>
        <time>2010-01-01T01:15:24Z</time>
      </trkpt>
      <trkpt lat="48.09198" lon="7.14433">
        <ele>787.59997</ele>
        <time>2010-01-01T01:15:28Z</time>
      </trkpt>
      <trkpt lat="48.09218" lon="7.14402">
        <ele>786.20001</ele>
        <time>2010-01-01T01:15:40Z</time>
      </trkpt>
      <trkpt lat="48.09241" lon="7.14364">
        <ele>783.40002</ele>
        <time>2010-01-01T01:15:53Z</time>
      </trkpt>
      <trkpt lat="48.09275" lon="7.14309">
        <ele>778.40002</ele>
        <time>2010-01-01T01:16:13Z</time>
      </trkpt>
      <trkpt lat="48.09309" lon="7.14276">
        <ele>774.79998</ele>
        <time>2010-01-01T01:16:30Z</time>
      </trkpt>
      <trkpt lat="48.09317" lon="7.14272">
        <ele>774.79998</ele>
        <time>2010-01-01T01:16:33Z</time>
      </trkpt>
      <trkpt lat="48.09357" lon="7.14258">
        <ele>772.59997</ele>
        <time>2010-01-01T01:16:50Z</time>
      </trkpt>
      <trkpt lat="48.09373" lon="7.14257">
        <ele>772</ele>
        <time>2010-01-01T01:16:56Z</time>
      </trkpt>
      <trkpt lat="48.0942" lon="7.14263">
        <ele>770.20001</ele>
        <time>2010-01-01T01:17:15Z</time>
      </trkpt>
      <trkpt lat="48.09432" lon="7.14264">
        <ele>769.79998</ele>
        <time>2010-01-01T01:17:20Z</time>
      </trkpt>
      <trkpt lat="48.09452" lon="7.14278">
        <ele>769.40002</ele>
        <time>2010-01-01T01:17:28Z</time>
      </trkpt>
      <trkpt lat="48.09464" lon="7.1428">
        <ele>769.20001</ele>
        <time>2010-01-01T01:17:33Z</time>
      </trkpt>
      <trkpt lat="48.09484" lon="7.14274">
        <ele>769.40002</ele>
        <time>2010-01-01T01:17:41Z</time>
      </trkpt>
      <trkpt lat="48.09515" lon="7.14268">
        <ele>770.20001</ele>
        <time>2010-01-01T01:17:54Z</time>
      </trkpt>
      <trkpt lat="48.09536" lon="7.14277">
        <ele>771</ele>
        <time>2010-01-01T01:18:03Z</time>
      </trkpt>
      <trkpt lat="48.09561" lon="7.14287">
        <ele>771.40002</ele>
        <time>2010-01-01T01:18:13Z</time>
      </trkpt>
      <trkpt lat="48.09579" lon="7.14296">
        <ele>771.59997</ele>
        <time>2010-01-01T01:18:20Z</time>
      </trkpt>
      <trkpt lat="48.09602" lon="7.14305">
        <ele>772.59997</ele>
        <time>2010-01-01T01:18:30Z</time>
      </trkpt>
      <trkpt lat="48.09626" lon="7.1431">
        <ele>773.20001</ele>
        <time>2010-01-01T01:18:40Z</time>
      </trkpt>
      <trkpt lat="48.09651" lon="7.14316">
        <ele>774</ele>
        <time>2010-01-01T01:18:50Z</time>
      </trkpt>
      <trkpt lat="48.0967" lon="7.1432">
        <ele>774.79998</ele>
        <time>2010-01-01T01:18:58Z</time>
      </trkpt>
      <trkpt lat="48.09688" lon="7.14326">
        <ele>775.40002</ele>
        <time>2010-01-01T01:19:05Z</time>
      </trkpt>
      <trkpt lat="48.09716" lon="7.14336">
        <ele>776.40002</ele>
        <time>2010-01-01T01:19:17Z</time>
      </trkpt>
      <trkpt lat="48.09735" lon="7.14343">
        <ele>777</ele>
        <time>2010-01-01T01:19:24Z</time>
      </trkpt>
      <trkpt lat="48.09758" lon="7.14354">
        <ele>778.20001</ele>
        <time>2010-01-01T01:19:34Z</time>
      </trkpt>
      <trkpt lat="48.09776" lon="7.14361">
        <ele>779</ele>
        <time>2010-01-01T01:19:41Z</time>
      </trkpt>
      <trkpt lat="48.09801" lon="7.14365">
        <ele>779.79998</ele>
        <time>2010-01-01T01:19:52Z</time>
      </trkpt>
      <trkpt lat="48.09819" lon="7.14367">
        <ele>780.40002</ele>
        <time>2010-01-01T01:19:59Z</time>
      </trkpt>
      <trkpt lat="48.09843" lon="7.14375">
        <ele>781.20001</ele>
        <time>2010-01-01T01:20:08Z</time>
      </trkpt>
      <trkpt lat="48.09864" lon="7.14391">
        <ele>781.79998</ele>
        <time>2010-01-01T01:20:18Z</time>
      </trkpt>
      <trkpt lat="48.09884" lon="7.14405">
        <ele>782.59997</ele>
        <time>2010-01-01T01:20:27Z</time>
      </trkpt>
      <trkpt lat="48.09905" lon="7.14426">
        <ele>783.79998</ele>
        <time>2010-01-01T01:20:37Z</time>
      </trkpt>
      <trkpt lat="48.09919" lon="7.14441">
        <ele>784.40002</ele>
        <time>2010-01-01T01:20:44Z</time>
      </trkpt>
      <trkpt lat="48.09935" lon="7.1447">
        <ele>785</ele>
        <time>2010-01-01T01:20:54Z</time>
      </trkpt>
      <trkpt lat="48.09948" lon="7.145">
        <ele>785.40002</ele>
        <time>2010-01-01T01:21:03Z</time>
      </trkpt>
      <trkpt lat="48.09964" lon="7.14528">
        <ele>786.20001</ele>
        <time>2010-01-01T01:21:13Z</time>
      </trkpt>
      <trkpt lat="48.09985" lon="7.14557">
        <ele>787</ele>
        <time>2010-01-01T01:21:25Z</time>
      </trkpt>
      <trkpt lat="48.10009" lon="7.14586">
        <ele>787.59997</ele>
        <time>2010-01-01T01:21:37Z</time>
      </trkpt>
      <trkpt lat="48.10027" lon="7.14612">
        <ele>788.40002</ele>
        <time>2010-01-01T01:21:47Z</time>
      </trkpt>
      <trkpt lat="48.10046" lon="7.14651">
        <ele>789.59997</ele>
        <time>2010-01-01T01:22:00Z</time>
      </trkpt>
      <trkpt lat="48.10064" lon="7.1468">
        <ele>790.40002</ele>
        <time>2010-01-01T01:22:10Z</time>
      </trkpt>
      <trkpt lat="48.10079" lon="7.14703">
        <ele>791.40002</ele>
        <time>2010-01-01T01:22:19Z</time>
      </trkpt>
      <trkpt lat="48.10093" lon="7.14732">
        <ele>792.40002</ele>
        <time>2010-01-01T01:22:29Z</time>
      </trkpt>
      <trkpt lat="48.10115" lon="7.14772">
        <ele>793.59997</ele>
        <time>2010-01-01T01:22:43Z</time>
      </trkpt>
      <trkpt lat="48.1013" lon="7.14805">
        <ele>794</ele>
        <time>2010-01-01T01:22:53Z</time>
      </trkpt>
      <trkpt lat="48.10145" lon="7.14849">
        <ele>794.79998</ele>
        <time>2010-01-01T01:23:06Z</time>
      </trkpt>
      <trkpt lat="48.10165" lon="7.14881">
        <ele>795.40002</ele>
        <time>2010-01-01T01:23:18Z</time>
      </trkpt>
      <trkpt lat="48.10189" lon="7.1491">
        <ele>796.20001</ele>
        <time>2010-01-01T01:23:31Z</time>
      </trkpt>
      <trkpt lat="48.10209" lon="7.14935">
        <ele>795.79998</ele>
        <time>2010-01-01T01:23:41Z</time>
      </trkpt>
      <trkpt lat="48.10236" lon="7.14972">
        <ele>795</ele>
        <time>2010-01-01T01:23:56Z</time>
      </trkpt>
      <trkpt lat="48.10265" lon="7.15011">
        <ele>793.59997</ele>
        <time>2010-01-01T01:24:11Z</time>
      </trkpt>
      <trkpt lat="48.10301" lon="7.15054">
        <ele>792.20001</ele>
        <time>2010-01-01T01:24:30Z</time>
      </trkpt>
      <trkpt lat="48.10336" lon="7.15087">
        <ele>791.20001</ele>
        <time>2010-01-01T01:24:46Z</time>
      </trkpt>
      <trkpt lat="48.10369" lon="7.15115">
        <ele>790.20001</ele>
        <time>2010-01-01T01:25:02Z</time>
      </trkpt>
      <trkpt lat="48.10414" lon="7.1515">
        <ele>788</ele>
        <time>2010-01-01T01:25:21Z</time>
      </trkpt>
      <trkpt lat="48.10442" lon="7.15167">
        <ele>786.40002</ele>
        <time>2010-01-01T01:25:34Z</time>
      </trkpt>
      <trkpt lat="48.10474" lon="7.15187">
        <ele>785</ele>
        <time>2010-01-01T01:25:48Z</time>
      </trkpt>
      <trkpt lat="48.10504" lon="7.15203">
        <ele>784</ele>
        <time>2010-01-01T01:26:01Z</time>
      </trkpt>
      <trkpt lat="48.10525" lon="7.15213">
        <ele>783.40002</ele>
        <time>2010-01-01T01:26:09Z</time>
      </trkpt>
      <trkpt lat="48.10577" lon="7.15225">
        <ele>781.40002</ele>
        <time>2010-01-01T01:26:30Z</time>
      </trkpt>
      <trkpt lat="48.10618" lon="7.15236">
        <ele>779.59997</ele>
        <time>2010-01-01T01:26:47Z</time>
      </trkpt>
      <trkpt lat="48.10625" lon="7.15237">
        <ele>779.20001</ele>
        <time>2010-01-01T01:26:50Z</time>
      </trkpt>
      <trkpt lat="48.10666" lon="7.15241">
        <ele>777.40002</ele>
        <time>2010-01-01T01:27:06Z</time>
      </trkpt>
      <trkpt lat="48.1071" lon="7.15257">
        <ele>774.40002</ele>
        <time>2010-01-01T01:27:24Z</time>
      </trkpt>
      <trkpt lat="48.10727" lon="7.15265">
        <ele>773.20001</ele>
        <time>2010-01-01T01:27:32Z</time>
      </trkpt>
      <trkpt lat="48.10777" lon="7.15299">
        <ele>769.59997</ele>
        <time>2010-01-01T01:27:53Z</time>
      </trkpt>
      <trkpt lat="48.10801" lon="7.15317">
        <ele>767.59997</ele>
        <time>2010-01-01T01:28:04Z</time>
      </trkpt>
      <trkpt lat="48.1085" lon="7.15366">
        <ele>763</ele>
        <time>2010-01-01T01:28:28Z</time>
      </trkpt>
      <trkpt lat="48.10877" lon="7.154">
        <ele>760.59997</ele>
        <time>2010-01-01T01:28:42Z</time>
      </trkpt>
      <trkpt lat="48.10886" lon="7.15412">
        <ele>759</ele>
        <time>2010-01-01T01:28:47Z</time>
      </trkpt>
      <trkpt lat="48.10886" lon="7.15412">
        <ele>772.98828125</ele>
      </trkpt>
      <trkpt lat="48.1089" lon="7.15417">
        <ele>772.51171875</ele>
      </trkpt>
      <trkpt lat="48.10892" lon="7.15423">
        <ele>772.984375</ele>
      </trkpt>
      <trkpt lat="48.10894" lon="7.15429">
        <ele>773.171875</ele>
      </trkpt>
      <trkpt lat="48.10896" lon="7.15435">
        <ele>773.06640625</ele>
      </trkpt>
      <trkpt lat="48.10899" lon="7.1544">
        <ele>773.21484375</ele>
      </trkpt>
      <trkpt lat="48.10901" lon="7.15446">
        <ele>773.078125</ele>
      </trkpt>
      <trkpt lat="48.10905" lon="7.15451">
        <ele>772.7109375</ele>
      </trkpt>
      <trkpt lat="48.10909" lon="7.15455">
        <ele>772.24609375</ele>
      </trkpt>
      <trkpt lat="48.10913" lon="7.15461">
        <ele>771.7109375</ele>
      </trkpt>
      <trkpt lat="48.10916" lon="7.15466">
        <ele>771.3125</ele>
      </trkpt>
      <trkpt lat="48.10919" lon="7.15471">
        <ele>770.92578125</ele>
      </trkpt>
      <trkpt lat="48.10922" lon="7.15476">
        <ele>770.55078125</ele>
      </trkpt>
      <trkpt lat="48.10925" lon="7.15482">
        <ele>770.37109375</ele>
      </trkpt>
      <trkpt lat="48.10928" lon="7.15487">
        <ele>770.01953125</ele>
      </trkpt>
      <trkpt lat="48.1093" lon="7.15493">
        <ele>769.984375</ele>
      </trkpt>
      <trkpt lat="48.10933" lon="7.15499">
        <ele>769.83984375</ele>
      </trkpt>
      <trkpt lat="48.10935" lon="7.15505">
        <ele>769.703125</ele>
      </trkpt>
      <trkpt lat="48.10938" lon="7.1551">
        <ele>769.35546875</ele>
      </trkpt>
      <trkpt lat="48.10943" lon="7.15511">
        <ele>768.203125</ele>
      </trkpt>
      <trkpt lat="48.10943" lon="7.15505">
        <ele>767.5703125</ele>
      </trkpt>
      <trkpt lat="48.10943" lon="7.15497">
        <ele>766.82421875</ele>
      </trkpt>
      <trkpt lat="48.10943" lon="7.1549">
        <ele>766.078125</ele>
      </trkpt>
      <trkpt lat="48.10942" lon="7.15484">
        <ele>765.76953125</ele>
      </trkpt>
      <trkpt lat="48.10939" lon="7.15478">
        <ele>765.9140625</ele>
      </trkpt>
      <trkpt lat="48.10936" lon="7.15472">
        <ele>766.06640625</ele>
      </trkpt>
      <trkpt lat="48.10934" lon="7.15466">
        <ele>766.1015625</ele>
      </trkpt>
      <trkpt lat="48.10931" lon="7.1546">
        <ele>766.40234375</ele>
      </trkpt>
      <trkpt lat="48.10928" lon="7.15455">
        <ele>766.78125</ele>
      </trkpt>
      <trkpt lat="48.10924" lon="7.1545">
        <ele>767.23046875</ele>
      </trkpt>
      <trkpt lat="48.10922" lon="7.15445">
        <ele>766.9921875</ele>
      </trkpt>
      <trkpt lat="48.10921" lon="7.15438">
        <ele>766.38671875</ele>
      </trkpt>
      <trkpt lat="48.10921" lon="7.15431">
        <ele>765.1875</ele>
      </trkpt>
      <trkpt lat="48.10926" lon="7.1543">
        <ele>763.76953125</ele>
      </trkpt>
      <trkpt lat="48.1093" lon="7.15431">
        <ele>762.73828125</ele>
      </trkpt>
      <trkpt lat="48.10933" lon="7.15436">
        <ele>762.75</ele>
      </trkpt>
      <trkpt lat="48.10936" lon="7.15441">
        <ele>762.3984375</ele>
      </trkpt>
      <trkpt lat="48.1094" lon="7.15445">
        <ele>762.02734375</ele>
      </trkpt>
      <trkpt lat="48.10943" lon="7.15451">
        <ele>762.0703125</ele>
      </trkpt>
      <trkpt lat="48.10946" lon="7.15455">
        <ele>761.50390625</ele>
      </trkpt>
      <trkpt lat="48.1095" lon="7.1546">
        <ele>761.03125</ele>
      </trkpt>
      <trkpt lat="48.10953" lon="7.15466">
        <ele>760.5703125</ele>
      </trkpt>
      <trkpt lat="48.10957" lon="7.15469">
        <ele>759.78125</ele>
      </trkpt>
      <trkpt lat="48.10962" lon="7.15472">
        <ele>759.1640625</ele>
      </trkpt>
      <trkpt lat="48.10966" lon="7.15475">
        <ele>758.6328125</ele>
      </trkpt>
      <trkpt lat="48.1097" lon="7.15479">
        <ele>758.2578125</ele>
      </trkpt>
      <trkpt lat="48.10974" lon="7.15483">
        <ele>757.88671875</ele>
      </trkpt>
      <trkpt lat="48.10978" lon="7.15488">
        <ele>757.83203125</ele>
      </trkpt>
      <trkpt lat="48.10982" lon="7.15493">
        <ele>757.53125</ele>
      </trkpt>
      <trkpt lat="48.10985" lon="7.15498">
        <ele>757.48046875</ele>
      </trkpt>
      <trkpt lat="48.10988" lon="7.15502">
        <ele>757.265625</ele>
      </trkpt>
      <trkpt lat="48.10993" lon="7.15506">
        <ele>756.8046875</ele>
      </trkpt>
      <trkpt lat="48.10997" lon="7.1551">
        <ele>756.40234375</ele>
      </trkpt>
      <trkpt lat="48.11001" lon="7.15512">
        <ele>755.63671875</ele>
      </trkpt>
      <trkpt lat="48.11005" lon="7.15515">
        <ele>755.1328125</ele>
      </trkpt>
      <trkpt lat="48.1101" lon="7.15517">
        <ele>754.42578125</ele>
      </trkpt>
      <trkpt lat="48.11014" lon="7.15519">
        <ele>753.8125</ele>
      </trkpt>
      <trkpt lat="48.11019" lon="7.1552">
        <ele>753.4296875</ele>
      </trkpt>
      <trkpt lat="48.11023" lon="7.15524">
        <ele>753.32421875</ele>
      </trkpt>
      <trkpt lat="48.11027" lon="7.15527">
        <ele>753.1484375</ele>
      </trkpt>
      <trkpt lat="48.11031" lon="7.15531">
        <ele>752.96484375</ele>
      </trkpt>
      <trkpt lat="48.11036" lon="7.15533">
        <ele>752.6171875</ele>
      </trkpt>
      <trkpt lat="48.1104" lon="7.15535">
        <ele>752.2578125</ele>
      </trkpt>
      <trkpt lat="48.11045" lon="7.15538">
        <ele>751.9453125</ele>
      </trkpt>
      <trkpt lat="48.11049" lon="7.15541">
        <ele>751.625</ele>
      </trkpt>
      <trkpt lat="48.11053" lon="7.15544">
        <ele>751.40234375</ele>
      </trkpt>
      <trkpt lat="48.11058" lon="7.15547">
        <ele>751.1171875</ele>
      </trkpt>
      <trkpt lat="48.11063" lon="7.15549">
        <ele>750.66796875</ele>
      </trkpt>
      <trkpt lat="48.11067" lon="7.15551">
        <ele>750.26953125</ele>
      </trkpt>
      <trkpt lat="48.11072" lon="7.15552">
        <ele>749.8671875</ele>
      </trkpt>
      <trkpt lat="48.11077" lon="7.15552">
        <ele>749.421875</ele>
      </trkpt>
      <trkpt lat="48.11081" lon="7.15553">
        <ele>749.1171875</ele>
      </trkpt>
      <trkpt lat="48.11086" lon="7.15554">
        <ele>748.72265625</ele>
      </trkpt>
      <trkpt lat="48.11091" lon="7.15555">
        <ele>748.328125</ele>
      </trkpt>
      <trkpt lat="48.11095" lon="7.15556">
        <ele>748.01953125</ele>
      </trkpt>
      <trkpt lat="48.111" lon="7.15556">
        <ele>747.578125</ele>
      </trkpt>
      <trkpt lat="48.11105" lon="7.15555">
        <ele>747.08203125</ele>
      </trkpt>
      <trkpt lat="48.11109" lon="7.15553">
        <ele>746.5390625</ele>
      </trkpt>
      <trkpt lat="48.11114" lon="7.1555">
        <ele>745.953125</ele>
      </trkpt>
      <trkpt lat="48.11118" lon="7.15549">
        <ele>745.45703125</ele>
      </trkpt>
      <trkpt lat="48.11123" lon="7.15549">
        <ele>745.0546875</ele>
      </trkpt>
      <trkpt lat="48.11127" lon="7.15547">
        <ele>744.546875</ele>
      </trkpt>
      <trkpt lat="48.11132" lon="7.15547">
        <ele>744.1484375</ele>
      </trkpt>
      <trkpt lat="48.11136" lon="7.15545">
        <ele>743.71484375</ele>
      </trkpt>
      <trkpt lat="48.11141" lon="7.15543">
        <ele>743.24609375</ele>
      </trkpt>
      <trkpt lat="48.11146" lon="7.15541">
        <ele>742.71875</ele>
      </trkpt>
      <trkpt lat="48.11149" lon="7.15536">
        <ele>742.1953125</ele>
      </trkpt>
      <trkpt lat="48.11148" lon="7.15535">
        <ele>742.15234375</ele>
      </trkpt>
      <trkpt lat="48.11153" lon="7.15531">
        <ele>741.69140625</ele>
      </trkpt>
      <trkpt lat="48.11157" lon="7.15529">
        <ele>741.25390625</ele>
      </trkpt>
      <trkpt lat="48.11162" lon="7.15526">
        <ele>740.828125</ele>
      </trkpt>
      <trkpt lat="48.11166" lon="7.15524">
        <ele>740.44921875</ele>
      </trkpt>
      <trkpt lat="48.11171" lon="7.15522">
        <ele>740.078125</ele>
      </trkpt>
      <trkpt lat="48.11175" lon="7.15522">
        <ele>739.76953125</ele>
      </trkpt>
      <trkpt lat="48.1118" lon="7.15522">
        <ele>739.4921875</ele>
      </trkpt>
      <trkpt lat="48.11184" lon="7.15522">
        <ele>739.3671875</ele>
      </trkpt>
      <trkpt lat="48.11189" lon="7.15522">
        <ele>739.25</ele>
      </trkpt>
      <trkpt lat="48.11193" lon="7.15522">
        <ele>739.12890625</ele>
      </trkpt>
      <trkpt lat="48.11198" lon="7.15522">
        <ele>739</ele>
      </trkpt>
      <trkpt lat="48.11202" lon="7.15522">
        <ele>738.87890625</ele>
      </trkpt>
      <trkpt lat="48.11207" lon="7.15524">
        <ele>738.796875</ele>
      </trkpt>
      <trkpt lat="48.11211" lon="7.15528">
        <ele>738.74609375</ele>
      </trkpt>
      <trkpt lat="48.11215" lon="7.15532">
        <ele>738.671875</ele>
      </trkpt>
      <trkpt lat="48.11219" lon="7.15535">
        <ele>738.57421875</ele>
      </trkpt>
      <trkpt lat="48.11223" lon="7.15537">
        <ele>738.4296875</ele>
      </trkpt>
      <trkpt lat="48.11228" lon="7.15538">
        <ele>738.26953125</ele>
      </trkpt>
      <trkpt lat="48.11233" lon="7.15538">
        <ele>738.0703125</ele>
      </trkpt>
      <trkpt lat="48.11238" lon="7.15537">
        <ele>738.09375</ele>
      </trkpt>
      <trkpt lat="48.11242" lon="7.15535">
        <ele>738.265625</ele>
      </trkpt>
      <trkpt lat="48.11247" lon="7.15533">
        <ele>738.4453125</ele>
      </trkpt>
      <trkpt lat="48.11251" lon="7.15536">
        <ele>738.58984375</ele>
      </trkpt>
      <trkpt lat="48.11255" lon="7.15539">
        <ele>738.69140625</ele>
      </trkpt>
      <trkpt lat="48.11258" lon="7.15544">
        <ele>738.71875</ele>
      </trkpt>
      <trkpt lat="48.11263" lon="7.15549">
        <ele>738.76171875</ele>
      </trkpt>
      <trkpt lat="48.11266" lon="7.15553">
        <ele>738.78515625</ele>
      </trkpt>
      <trkpt lat="48.1127" lon="7.15557">
        <ele>738.796875</ele>
      </trkpt>
      <trkpt lat="48.11275" lon="7.1556">
        <ele>738.80078125</ele>
      </trkpt>
      <trkpt lat="48.11279" lon="7.15564">
        <ele>738.765625</ele>
      </trkpt>
      <trkpt lat="48.11283" lon="7.15568">
        <ele>738.68359375</ele>
      </trkpt>
      <trkpt lat="48.11287" lon="7.1557">
        <ele>738.6171875</ele>
      </trkpt>
      <trkpt lat="48.11292" lon="7.15571">
        <ele>738.6640625</ele>
      </trkpt>
      <trkpt lat="48.11296" lon="7.15573">
        <ele>738.76953125</ele>
      </trkpt>
      <trkpt lat="48.11301" lon="7.15574">
        <ele>738.96875</ele>
      </trkpt>
      <trkpt lat="48.11306" lon="7.15575">
        <ele>739.09765625</ele>
      </trkpt>
      <trkpt lat="48.1131" lon="7.15576">
        <ele>739.2578125</ele>
      </trkpt>
      <trkpt lat="48.11314" lon="7.15578">
        <ele>739.328125</ele>
      </trkpt>
      <trkpt lat="48.11319" lon="7.1558">
        <ele>739.33984375</ele>
      </trkpt>
      <trkpt lat="48.11323" lon="7.15584">
        <ele>739.26953125</ele>
      </trkpt>
      <trkpt lat="48.11327" lon="7.15587">
        <ele>739.19921875</ele>
      </trkpt>
      <trkpt lat="48.11332" lon="7.15588">
        <ele>739.265625</ele>
      </trkpt>
      <trkpt lat="48.11337" lon="7.15591">
        <ele>739.23046875</ele>
      </trkpt>
      <trkpt lat="48.11341" lon="7.15594">
        <ele>739.1640625</ele>
      </trkpt>
      <trkpt lat="48.11346" lon="7.15596">
        <ele>739.140625</ele>
      </trkpt>
      <trkpt lat="48.1135" lon="7.15598">
        <ele>739.109375</ele>
      </trkpt>
      <trkpt lat="48.11355" lon="7.156">
        <ele>739.0625</ele>
      </trkpt>
      <trkpt lat="48.1136" lon="7.15602">
        <ele>738.953125</ele>
      </trkpt>
      <trkpt lat="48.11364" lon="7.15604">
        <ele>738.8828125</ele>
      </trkpt>
      <trkpt lat="48.11369" lon="7.15606">
        <ele>738.796875</ele>
      </trkpt>
      <trkpt lat="48.11373" lon="7.15608">
        <ele>738.703125</ele>
      </trkpt>
      <trkpt lat="48.11378" lon="7.1561">
        <ele>738.66796875</ele>
      </trkpt>
      <trkpt lat="48.11403" lon="7.15605">
        <ele>739.8828125</ele>
      </trkpt>
      <trkpt lat="48.11407" lon="7.15601">
        <ele>740.2890625</ele>
      </trkpt>
      <trkpt lat="48.11412" lon="7.15599">
        <ele>740.609375</ele>
      </trkpt>
      <trkpt lat="48.11416" lon="7.15597">
        <ele>740.8515625</ele>
      </trkpt>
      <trkpt lat="48.11421" lon="7.15596">
        <ele>740.92578125</ele>
      </trkpt>
      <trkpt lat="48.11425" lon="7.15596">
        <ele>741.00390625</ele>
      </trkpt>
      <trkpt lat="48.1143" lon="7.15594">
        <ele>741.16015625</ele>
      </trkpt>
      <trkpt lat="48.11434" lon="7.15597">
        <ele>740.828125</ele>
      </trkpt>
      <trkpt lat="48.11438" lon="7.15601">
        <ele>740.33203125</ele>
      </trkpt>
      <trkpt lat="48.11441" lon="7.15606">
        <ele>739.67578125</ele>
      </trkpt>
      <trkpt lat="48.11444" lon="7.15611">
        <ele>739.015625</ele>
      </trkpt>
      <trkpt lat="48.11447" lon="7.15617">
        <ele>738.2734375</ele>
      </trkpt>
      <trkpt lat="48.11449" lon="7.15623">
        <ele>737.46875</ele>
      </trkpt>
      <trkpt lat="48.11451" lon="7.1563">
        <ele>736.43359375</ele>
      </trkpt>
      <trkpt lat="48.11453" lon="7.15637">
        <ele>735.49609375</ele>
      </trkpt>
      <trkpt lat="48.11455" lon="7.15645">
        <ele>734.37109375</ele>
      </trkpt>
      <trkpt lat="48.11457" lon="7.15651">
        <ele>733.4296875</ele>
      </trkpt>
      <trkpt lat="48.11459" lon="7.15657">
        <ele>732.328125</ele>
      </trkpt>
      <trkpt lat="48.11462" lon="7.15663">
        <ele>731.15625</ele>
      </trkpt>
      <trkpt lat="48.11465" lon="7.1567">
        <ele>729.953125</ele>
      </trkpt>
      <trkpt lat="48.11468" lon="7.15674">
        <ele>728.95703125</ele>
      </trkpt>
      <trkpt lat="48.1147" lon="7.1568">
        <ele>727.90234375</ele>
      </trkpt>
      <trkpt lat="48.11473" lon="7.15686">
        <ele>726.875</ele>
      </trkpt>
      <trkpt lat="48.11475" lon="7.15692">
        <ele>725.8515625</ele>
      </trkpt>
      <trkpt lat="48.11479" lon="7.15699">
        <ele>724.6484375</ele>
      </trkpt>
      <trkpt lat="48.11482" lon="7.15704">
        <ele>723.79296875</ele>
      </trkpt>
      <trkpt lat="48.11485" lon="7.15709">
        <ele>723.015625</ele>
      </trkpt>
      <trkpt lat="48.11487" lon="7.15715">
        <ele>722.28125</ele>
      </trkpt>
      <trkpt lat="48.11492" lon="7.15717">
        <ele>721.8046875</ele>
      </trkpt>
      <trkpt lat="48.11497" lon="7.15719">
        <ele>721.47265625</ele>
      </trkpt>
      <trkpt lat="48.11501" lon="7.15719">
        <ele>721.30078125</ele>
      </trkpt>
      <trkpt lat="48.11506" lon="7.15719">
        <ele>721.12890625</ele>
      </trkpt>
      <trkpt lat="48.11511" lon="7.15719">
        <ele>720.94140625</ele>
      </trkpt>
      <trkpt lat="48.11515" lon="7.15719">
        <ele>720.38671875</ele>
      </trkpt>
      <trkpt lat="48.1152" lon="7.15721">
        <ele>719.203125</ele>
      </trkpt>
      <trkpt lat="48.11524" lon="7.15725">
        <ele>718.2421875</ele>
      </trkpt>
      <trkpt lat="48.11528" lon="7.15728">
        <ele>717.26171875</ele>
      </trkpt>
      <trkpt lat="48.11533" lon="7.15731">
        <ele>716.41015625</ele>
      </trkpt>
      <trkpt lat="48.11533" lon="7.15732">
        <ele>716.2734375</ele>
      </trkpt>
      <trkpt lat="48.11536" lon="7.15726">
        <ele>715.8984375</ele>
      </trkpt>
      <trkpt lat="48.1154" lon="7.15726">
        <ele>715.0390625</ele>
      </trkpt>
      <trkpt lat="48.11545" lon="7.15726">
        <ele>714.08984375</ele>
      </trkpt>
      <trkpt lat="48.1155" lon="7.15726">
        <ele>713.2421875</ele>
      </trkpt>
      <trkpt lat="48.11554" lon="7.1573">
        <ele>712.50390625</ele>
      </trkpt>
      <trkpt lat="48.11559" lon="7.15733">
        <ele>711.6796875</ele>
      </trkpt>
      <trkpt lat="48.11562" lon="7.15737">
        <ele>711.0078125</ele>
      </trkpt>
      <trkpt lat="48.11567" lon="7.1574">
        <ele>710.25</ele>
      </trkpt>
      <trkpt lat="48.11571" lon="7.15742">
        <ele>709.25390625</ele>
      </trkpt>
      <trkpt lat="48.11576" lon="7.15743">
        <ele>708.140625</ele>
      </trkpt>
      <trkpt lat="48.1158" lon="7.15744">
        <ele>707.03125</ele>
      </trkpt>
      <trkpt lat="48.11585" lon="7.15745">
        <ele>705.953125</ele>
      </trkpt>
      <trkpt lat="48.11589" lon="7.15747">
        <ele>704.9140625</ele>
      </trkpt>
      <trkpt lat="48.11594" lon="7.1575">
        <ele>703.93359375</ele>
      </trkpt>
      <trkpt lat="48.11598" lon="7.15753">
        <ele>703.125</ele>
      </trkpt>
      <trkpt lat="48.11602" lon="7.15755">
        <ele>702.18359375</ele>
      </trkpt>
      <trkpt lat="48.11607" lon="7.15758">
        <ele>701.31640625</ele>
      </trkpt>
      <trkpt lat="48.11611" lon="7.15759">
        <ele>700.39453125</ele>
      </trkpt>
      <trkpt lat="48.11616" lon="7.15761">
        <ele>699.54296875</ele>
      </trkpt>
      <trkpt lat="48.1162" lon="7.15762">
        <ele>698.60546875</ele>
      </trkpt>
      <trkpt lat="48.11625" lon="7.15764">
        <ele>697.83203125</ele>
      </trkpt>
      <trkpt lat="48.1163" lon="7.15766">
        <ele>697.125</ele>
      </trkpt>
      <trkpt lat="48.11635" lon="7.15768">
        <ele>696.4140625</ele>
      </trkpt>
      <trkpt lat="48.11639" lon="7.1577">
        <ele>695.84765625</ele>
      </trkpt>
      <trkpt lat="48.11643" lon="7.15772">
        <ele>695.21875</ele>
      </trkpt>
      <trkpt lat="48.11648" lon="7.15775">
        <ele>694.6484375</ele>
      </trkpt>
      <trkpt lat="48.11652" lon="7.15777">
        <ele>694.08203125</ele>
      </trkpt>
      <trkpt lat="48.11657" lon="7.15779">
        <ele>693.453125</ele>
      </trkpt>
      <trkpt lat="48.11661" lon="7.1578">
        <ele>692.70703125</ele>
      </trkpt>
      <trkpt lat="48.11665" lon="7.15776">
        <ele>691.65234375</ele>
      </trkpt>
      <trkpt lat="48.11665" lon="7.15769">
        <ele>690.98046875</ele>
      </trkpt>
      <trkpt lat="48.11666" lon="7.15763">
        <ele>690.30859375</ele>
      </trkpt>
      <trkpt lat="48.11666" lon="7.15756">
        <ele>689.71875</ele>
      </trkpt>
      <trkpt lat="48.11666" lon="7.15749">
        <ele>688.98828125</ele>
      </trkpt>
      <trkpt lat="48.11667" lon="7.15742">
        <ele>688.33984375</ele>
      </trkpt>
      <trkpt lat="48.11667" lon="7.15735">
        <ele>687.74609375</ele>
      </trkpt>
      <trkpt lat="48.11667" lon="7.15729">
        <ele>687.00390625</ele>
      </trkpt>
      <trkpt lat="48.11668" lon="7.15722">
        <ele>686.2734375</ele>
      </trkpt>
      <trkpt lat="48.11668" lon="7.15716">
        <ele>685.70703125</ele>
      </trkpt>
      <trkpt lat="48.11668" lon="7.15709">
        <ele>685.140625</ele>
      </trkpt>
      <trkpt lat="48.11671" lon="7.15704">
        <ele>684.1796875</ele>
      </trkpt>
      <trkpt lat="48.11674" lon="7.15699">
        <ele>683.125</ele>
      </trkpt>
      <trkpt lat="48.11679" lon="7.15696">
        <ele>681.98046875</ele>
      </trkpt>
      <trkpt lat="48.11683" lon="7.15696">
        <ele>681.125</ele>
      </trkpt>
      <trkpt lat="48.11688" lon="7.15696">
        <ele>680.265625</ele>
      </trkpt>
      <trkpt lat="48.11692" lon="7.15697">
        <ele>679.53515625</ele>
      </trkpt>
      <trkpt lat="48.11697" lon="7.15699">
        <ele>678.87109375</ele>
      </trkpt>
      <trkpt lat="48.11698" lon="7.15692">
        <ele>677.921875</ele>
      </trkpt>
      <trkpt lat="48.11697" lon="7.15686">
        <ele>677.55078125</ele>
      </trkpt>
      <trkpt lat="48.11694" lon="7.1568">
        <ele>677.6640625</ele>
      </trkpt>
      <trkpt lat="48.11692" lon="7.15675">
        <ele>677.5703125</ele>
      </trkpt>
      <trkpt lat="48.11694" lon="7.15668">
        <ele>676.80078125</ele>
      </trkpt>
      <trkpt lat="48.11698" lon="7.15666">
        <ele>675.79296875</ele>
      </trkpt>
      <trkpt lat="48.11703" lon="7.15662">
        <ele>674.6796875</ele>
      </trkpt>
      <trkpt lat="48.11708" lon="7.1566">
        <ele>673.63671875</ele>
      </trkpt>
      <trkpt lat="48.11712" lon="7.15657">
        <ele>672.7109375</ele>
      </trkpt>
      <trkpt lat="48.11717" lon="7.15655">
        <ele>671.73828125</ele>
      </trkpt>
      <trkpt lat="48.11721" lon="7.15651">
        <ele>670.8046875</ele>
      </trkpt>
      <trkpt lat="48.11726" lon="7.15647">
        <ele>669.7109375</ele>
      </trkpt>
      <trkpt lat="48.1173" lon="7.15644">
        <ele>668.765625</ele>
      </trkpt>
      <trkpt lat="48.11734" lon="7.15641">
        <ele>667.859375</ele>
      </trkpt>
      <trkpt lat="48.11739" lon="7.15638">
        <ele>666.76171875</ele>
      </trkpt>
      <trkpt lat="48.11743" lon="7.15635">
        <ele>665.71484375</ele>
      </trkpt>
      <trkpt lat="48.11747" lon="7.15632">
        <ele>664.578125</ele>
      </trkpt>
      <trkpt lat="48.11752" lon="7.1563">
        <ele>663.4375</ele>
      </trkpt>
      <trkpt lat="48.11756" lon="7.15628">
        <ele>662.31640625</ele>
      </trkpt>
      <trkpt lat="48.1176" lon="7.15625">
        <ele>661.234375</ele>
      </trkpt>
      <trkpt lat="48.11765" lon="7.15622">
        <ele>660.0703125</ele>
      </trkpt>
      <trkpt lat="48.11769" lon="7.15621">
        <ele>658.9609375</ele>
      </trkpt>
      <trkpt lat="48.11774" lon="7.1562">
        <ele>657.8515625</ele>
      </trkpt>
      <trkpt lat="48.11779" lon="7.15618">
        <ele>656.546875</ele>
      </trkpt>
      <trkpt lat="48.11784" lon="7.15617">
        <ele>655.484375</ele>
      </trkpt>
      <trkpt lat="48.11789" lon="7.1562">
        <ele>654.421875</ele>
      </trkpt>
      <trkpt lat="48.11792" lon="7.15625">
        <ele>653.90625</ele>
      </trkpt>
      <trkpt lat="48.11797" lon="7.15628">
        <ele>653.17578125</ele>
      </trkpt>
      <trkpt lat="48.11801" lon="7.1563">
        <ele>652.4140625</ele>
      </trkpt>
      <trkpt lat="48.11806" lon="7.1563">
        <ele>651.578125</ele>
      </trkpt>
      <trkpt lat="48.11809" lon="7.15626">
        <ele>650.60546875</ele>
      </trkpt>
      <trkpt lat="48.11812" lon="7.15621">
        <ele>649.7578125</ele>
      </trkpt>
      <trkpt lat="48.11816" lon="7.15616">
        <ele>648.88671875</ele>
      </trkpt>
      <trkpt lat="48.11819" lon="7.15612">
        <ele>648.04296875</ele>
      </trkpt>
      <trkpt lat="48.11823" lon="7.15607">
        <ele>647.09765625</ele>
      </trkpt>
      <trkpt lat="48.11828" lon="7.15603">
        <ele>646.0703125</ele>
      </trkpt>
      <trkpt lat="48.11832" lon="7.156">
        <ele>645.05078125</ele>
      </trkpt>
      <trkpt lat="48.11837" lon="7.15598">
        <ele>644.0703125</ele>
      </trkpt>
      <trkpt lat="48.11841" lon="7.15595">
        <ele>643.125</ele>
      </trkpt>
      <trkpt lat="48.11845" lon="7.15591">
        <ele>642.1484375</ele>
      </trkpt>
      <trkpt lat="48.1185" lon="7.15585">
        <ele>640.98046875</ele>
      </trkpt>
      <trkpt lat="48.11854" lon="7.15582">
        <ele>639.87890625</ele>
      </trkpt>
      <trkpt lat="48.11858" lon="7.15579">
        <ele>638.84375</ele>
      </trkpt>
      <trkpt lat="48.11864" lon="7.15576">
        <ele>637.48828125</ele>
      </trkpt>
      <trkpt lat="48.11868" lon="7.15572">
        <ele>636.40234375</ele>
      </trkpt>
      <trkpt lat="48.11872" lon="7.15571">
        <ele>635.3046875</ele>
      </trkpt>
      <trkpt lat="48.11872" lon="7.15569">
        <ele>635.27734375</ele>
      </trkpt>
      <trkpt lat="48.11875" lon="7.15564">
        <ele>634.22265625</ele>
      </trkpt>
      <trkpt lat="48.11879" lon="7.1556">
        <ele>633.23828125</ele>
      </trkpt>
      <trkpt lat="48.11883" lon="7.15556">
        <ele>632.1875</ele>
      </trkpt>
      <trkpt lat="48.11887" lon="7.15553">
        <ele>631.10546875</ele>
      </trkpt>
      <trkpt lat="48.11891" lon="7.15551">
        <ele>629.97265625</ele>
      </trkpt>
      <trkpt lat="48.11895" lon="7.15548">
        <ele>628.8984375</ele>
      </trkpt>
      <trkpt lat="48.11899" lon="7.15543">
        <ele>627.765625</ele>
      </trkpt>
      <trkpt lat="48.11904" lon="7.15541">
        <ele>626.6015625</ele>
      </trkpt>
      <trkpt lat="48.11908" lon="7.15539">
        <ele>625.37890625</ele>
      </trkpt>
      <trkpt lat="48.11913" lon="7.15536">
        <ele>624.125</ele>
      </trkpt>
      <trkpt lat="48.11917" lon="7.15532">
        <ele>622.76953125</ele>
      </trkpt>
      <trkpt lat="48.11922" lon="7.1553">
        <ele>621.4921875</ele>
      </trkpt>
      <trkpt lat="48.11926" lon="7.15526">
        <ele>620.0546875</ele>
      </trkpt>
      <trkpt lat="48.11931" lon="7.15523">
        <ele>618.625</ele>
      </trkpt>
      <trkpt lat="48.11935" lon="7.15519">
        <ele>617.171875</ele>
      </trkpt>
      <trkpt lat="48.11939" lon="7.15515">
        <ele>615.78515625</ele>
      </trkpt>
      <trkpt lat="48.11943" lon="7.1551">
        <ele>614.3125</ele>
      </trkpt>
      <trkpt lat="48.11947" lon="7.15505">
        <ele>612.86328125</ele>
      </trkpt>
      <trkpt lat="48.11951" lon="7.15501">
        <ele>611.828125</ele>
      </trkpt>
      <trkpt lat="48.11953" lon="7.15496">
        <ele>611.0390625</ele>
      </trkpt>
      <trkpt lat="48.11957" lon="7.15492">
        <ele>609.984375</ele>
      </trkpt>
      <trkpt lat="48.1196" lon="7.15486">
        <ele>609.0703125</ele>
      </trkpt>
      <trkpt lat="48.11964" lon="7.15481">
        <ele>607.9765625</ele>
      </trkpt>
      <trkpt lat="48.11967" lon="7.15475">
        <ele>606.94140625</ele>
      </trkpt>
      <trkpt lat="48.11971" lon="7.15472">
        <ele>605.61328125</ele>
      </trkpt>
      <trkpt lat="48.11975" lon="7.15468">
        <ele>604.375</ele>
      </trkpt>
      <trkpt lat="48.11978" lon="7.15464">
        <ele>603.08984375</ele>
      </trkpt>
      <trkpt lat="48.11982" lon="7.15461">
        <ele>601.640625</ele>
      </trkpt>
      <trkpt lat="48.11987" lon="7.15457">
        <ele>599.96875</ele>
      </trkpt>
      <trkpt lat="48.11991" lon="7.15454">
        <ele>598.2734375</ele>
      </trkpt>
      <trkpt lat="48.11995" lon="7.1545">
        <ele>596.92578125</ele>
      </trkpt>
      <trkpt lat="48.12" lon="7.15447">
        <ele>595.4609375</ele>
      </trkpt>
      <trkpt lat="48.12004" lon="7.15444">
        <ele>594.1328125</ele>
      </trkpt>
      <trkpt lat="48.12008" lon="7.15441">
        <ele>592.78515625</ele>
      </trkpt>
      <trkpt lat="48.12013" lon="7.15438">
        <ele>591.0234375</ele>
      </trkpt>
      <trkpt lat="48.12018" lon="7.15435">
        <ele>589.890625</ele>
      </trkpt>
      <trkpt lat="48.12023" lon="7.15433">
        <ele>588.60546875</ele>
      </trkpt>
      <trkpt lat="48.12027" lon="7.1543">
        <ele>587.55859375</ele>
      </trkpt>
      <trkpt lat="48.12031" lon="7.15428">
        <ele>586.3671875</ele>
      </trkpt>
      <trkpt lat="48.12036" lon="7.15426">
        <ele>585.1640625</ele>
      </trkpt>
      <trkpt lat="48.1204" lon="7.15424">
        <ele>583.953125</ele>
      </trkpt>
      <trkpt lat="48.12045" lon="7.15421">
        <ele>582.84375</ele>
      </trkpt>
      <trkpt lat="48.12047" lon="7.15416">
        <ele>582.078125</ele>
      </trkpt>
      <trkpt lat="48.1205" lon="7.15411">
        <ele>581.171875</ele>
      </trkpt>
      <trkpt lat="48.12054" lon="7.15405">
        <ele>580.11328125</ele>
      </trkpt>
      <trkpt lat="48.12058" lon="7.15401">
        <ele>579.0390625</ele>
      </trkpt>
      <trkpt lat="48.12061" lon="7.15396">
        <ele>578.015625</ele>
      </trkpt>
      <trkpt lat="48.12065" lon="7.15393">
        <ele>577.01953125</ele>
      </trkpt>
      <trkpt lat="48.12069" lon="7.1539">
        <ele>576.01171875</ele>
      </trkpt>
      <trkpt lat="48.12074" lon="7.15389">
        <ele>574.7265625</ele>
      </trkpt>
      <trkpt lat="48.12078" lon="7.15389">
        <ele>573.4375</ele>
      </trkpt>
      <trkpt lat="48.12083" lon="7.15388">
        <ele>572.171875</ele>
      </trkpt>
      <trkpt lat="48.12088" lon="7.15388">
        <ele>570.58203125</ele>
      </trkpt>
      <trkpt lat="48.12093" lon="7.15391">
        <ele>569.0078125</ele>
      </trkpt>
      <trkpt lat="48.12097" lon="7.15394">
        <ele>567.7109375</ele>
      </trkpt>
      <trkpt lat="48.12101" lon="7.15399">
        <ele>566.69140625</ele>
      </trkpt>
      <trkpt lat="48.12104" lon="7.15404">
        <ele>565.96875</ele>
      </trkpt>
      <trkpt lat="48.12108" lon="7.15407">
        <ele>565.07421875</ele>
      </trkpt>
      <trkpt lat="48.12112" lon="7.15411">
        <ele>564.265625</ele>
      </trkpt>
      <trkpt lat="48.12117" lon="7.15414">
        <ele>563.26953125</ele>
      </trkpt>
      <trkpt lat="48.12118" lon="7.15413">
        <ele>562.85546875</ele>
      </trkpt>
      <trkpt lat="48.12123" lon="7.15415">
        <ele>561.8359375</ele>
      </trkpt>
      <trkpt lat="48.12127" lon="7.15415">
        <ele>560.9140625</ele>
      </trkpt>
      <trkpt lat="48.12132" lon="7.15415">
        <ele>559.98828125</ele>
      </trkpt>
      <trkpt lat="48.12136" lon="7.15413">
        <ele>558.9140625</ele>
      </trkpt>
      <trkpt lat="48.12141" lon="7.15412">
        <ele>557.87890625</ele>
      </trkpt>
      <trkpt lat="48.12146" lon="7.15411">
        <ele>556.84375</ele>
      </trkpt>
      <trkpt lat="48.1215" lon="7.15409">
        <ele>555.71484375</ele>
      </trkpt>
      <trkpt lat="48.12155" lon="7.15407">
        <ele>554.5625</ele>
      </trkpt>
      <trkpt lat="48.12159" lon="7.15405">
        <ele>553.296875</ele>
      </trkpt>
      <trkpt lat="48.12164" lon="7.15403">
        <ele>552.09375</ele>
      </trkpt>
      <trkpt lat="48.12169" lon="7.15402">
        <ele>550.78125</ele>
      </trkpt>
      <trkpt lat="48.12174" lon="7.154">
        <ele>549.5390625</ele>
      </trkpt>
      <trkpt lat="48.12178" lon="7.15399">
        <ele>548.484375</ele>
      </trkpt>
      <trkpt lat="48.12183" lon="7.15398">
        <ele>547.625</ele>
      </trkpt>
      <trkpt lat="48.12188" lon="7.15397">
        <ele>546.9140625</ele>
      </trkpt>
      <trkpt lat="48.12192" lon="7.15397">
        <ele>546.28515625</ele>
      </trkpt>
      <trkpt lat="48.12197" lon="7.15395">
        <ele>545.453125</ele>
      </trkpt>
      <trkpt lat="48.12201" lon="7.15393">
        <ele>544.734375</ele>
      </trkpt>
      <trkpt lat="48.12206" lon="7.15392">
        <ele>543.9453125</ele>
      </trkpt>
      <trkpt lat="48.12211" lon="7.15392">
        <ele>543.28125</ele>
      </trkpt>
      <trkpt lat="48.12215" lon="7.1539">
        <ele>542.53125</ele>
      </trkpt>
      <trkpt lat="48.1222" lon="7.1539">
        <ele>541.85546875</ele>
      </trkpt>
      <trkpt lat="48.12224" lon="7.15388">
        <ele>541.0859375</ele>
      </trkpt>
      <trkpt lat="48.12229" lon="7.15388">
        <ele>540.3984375</ele>
      </trkpt>
      <trkpt lat="48.12233" lon="7.15386">
        <ele>539.515625</ele>
      </trkpt>
      <trkpt lat="48.12238" lon="7.15384">
        <ele>538.69140625</ele>
      </trkpt>
      <trkpt lat="48.12242" lon="7.15382">
        <ele>537.78515625</ele>
      </trkpt>
      <trkpt lat="48.12247" lon="7.15378">
        <ele>536.76171875</ele>
      </trkpt>
      <trkpt lat="48.12251" lon="7.15375">
        <ele>535.72265625</ele>
      </trkpt>
      <trkpt lat="48.12255" lon="7.15372">
        <ele>534.72265625</ele>
      </trkpt>
      <trkpt lat="48.1226" lon="7.15369">
        <ele>533.75</ele>
      </trkpt>
      <trkpt lat="48.12264" lon="7.15367">
        <ele>532.76171875</ele>
      </trkpt>
      <trkpt lat="48.12269" lon="7.15364">
        <ele>531.703125</ele>
      </trkpt>
      <trkpt lat="48.12274" lon="7.15363">
        <ele>530.90625</ele>
      </trkpt>
      <trkpt lat="48.12278" lon="7.15362">
        <ele>530.21875</ele>
      </trkpt>
      <trkpt lat="48.12283" lon="7.15362">
        <ele>529.58203125</ele>
      </trkpt>
      <trkpt lat="48.12288" lon="7.15364">
        <ele>529.234375</ele>
      </trkpt>
      <trkpt lat="48.12293" lon="7.15366">
        <ele>528.8046875</ele>
      </trkpt>
      <trkpt lat="48.12297" lon="7.15368">
        <ele>528.43359375</ele>
      </trkpt>
      <trkpt lat="48.12302" lon="7.15369">
        <ele>527.70703125</ele>
      </trkpt>
      <trkpt lat="48.12306" lon="7.1537">
        <ele>526.9765625</ele>
      </trkpt>
      <trkpt lat="48.12311" lon="7.15371">
        <ele>526.2578125</ele>
      </trkpt>
      <trkpt lat="48.12316" lon="7.15372">
        <ele>525.42578125</ele>
      </trkpt>
      <trkpt lat="48.12321" lon="7.15372">
        <ele>524.5703125</ele>
      </trkpt>
      <trkpt lat="48.12326" lon="7.15372">
        <ele>523.55078125</ele>
      </trkpt>
      <trkpt lat="48.1233" lon="7.15373">
        <ele>522.7890625</ele>
      </trkpt>
      <trkpt lat="48.12336" lon="7.15373">
        <ele>521.76171875</ele>
      </trkpt>
      <trkpt lat="48.12341" lon="7.15373">
        <ele>520.734375</ele>
      </trkpt>
      <trkpt lat="48.12346" lon="7.15373">
        <ele>519.9609375</ele>
      </trkpt>
      <trkpt lat="48.12351" lon="7.15373">
        <ele>519.15234375</ele>
      </trkpt>
      <trkpt lat="48.12356" lon="7.15374">
        <ele>518.47265625</ele>
      </trkpt>
      <trkpt lat="48.12361" lon="7.15374">
        <ele>517.73046875</ele>
      </trkpt>
      <trkpt lat="48.12365" lon="7.15376">
        <ele>517.15625</ele>
      </trkpt>
      <trkpt lat="48.12371" lon="7.15376">
        <ele>516.375</ele>
      </trkpt>
      <trkpt lat="48.12375" lon="7.15378">
        <ele>515.8046875</ele>
      </trkpt>
      <trkpt lat="48.1238" lon="7.1538">
        <ele>515.203125</ele>
      </trkpt>
      <trkpt lat="48.12384" lon="7.15383">
        <ele>514.6015625</ele>
      </trkpt>
      <trkpt lat="48.12388" lon="7.15388">
        <ele>514.22265625</ele>
      </trkpt>
      <trkpt lat="48.12391" lon="7.15394">
        <ele>513.97265625</ele>
      </trkpt>
      <trkpt lat="48.12393" lon="7.154">
        <ele>514.1796875</ele>
      </trkpt>
      <trkpt lat="48.12395" lon="7.15406">
        <ele>514.99609375</ele>
      </trkpt>
      <trkpt lat="48.12398" lon="7.15413">
        <ele>515.75</ele>
      </trkpt>
      <trkpt lat="48.12402" lon="7.15418">
        <ele>515.99609375</ele>
      </trkpt>
      <trkpt lat="48.12406" lon="7.15424">
        <ele>516.63671875</ele>
      </trkpt>
      <trkpt lat="48.12409" lon="7.15429">
        <ele>517.015625</ele>
      </trkpt>
      <trkpt lat="48.12413" lon="7.15433">
        <ele>516.96484375</ele>
      </trkpt>
      <trkpt lat="48.12417" lon="7.15438">
        <ele>516.96484375</ele>
      </trkpt>
      <trkpt lat="48.12421" lon="7.15441">
        <ele>516.5859375</ele>
      </trkpt>
      <trkpt lat="48.12425" lon="7.15444">
        <ele>516.0078125</ele>
      </trkpt>
      <trkpt lat="48.1243" lon="7.15448">
        <ele>515.37109375</ele>
      </trkpt>
      <trkpt lat="48.12435" lon="7.15451">
        <ele>514.39453125</ele>
      </trkpt>
      <trkpt lat="48.12439" lon="7.15454">
        <ele>513.78515625</ele>
      </trkpt>
      <trkpt lat="48.12443" lon="7.15459">
        <ele>513.82421875</ele>
      </trkpt>
      <trkpt lat="48.12447" lon="7.15463">
        <ele>513.41015625</ele>
      </trkpt>
      <trkpt lat="48.12451" lon="7.15465">
        <ele>512.70703125</ele>
      </trkpt>
      <trkpt lat="48.12456" lon="7.15469">
        <ele>512.0859375</ele>
      </trkpt>
      <trkpt lat="48.12457" lon="7.15462">
        <ele>510.62890625</ele>
      </trkpt>
      <trkpt lat="48.12458" lon="7.15456">
        <ele>509.4375</ele>
      </trkpt>
      <trkpt lat="48.12459" lon="7.15449">
        <ele>508.97265625</ele>
      </trkpt>
      <trkpt lat="48.12461" lon="7.15443">
        <ele>508.984375</ele>
      </trkpt>
      <trkpt lat="48.12464" lon="7.15438">
        <ele>508.97265625</ele>
      </trkpt>
      <trkpt lat="48.12468" lon="7.15434">
        <ele>508.9609375</ele>
      </trkpt>
      <trkpt lat="48.12471" lon="7.15429">
        <ele>509.01171875</ele>
      </trkpt>
      <trkpt lat="48.12475" lon="7.15427">
        <ele>508.9453125</ele>
      </trkpt>
      <trkpt lat="48.1248" lon="7.15425">
        <ele>508.8671875</ele>
      </trkpt>
      <trkpt lat="48.12484" lon="7.15424">
        <ele>508.80078125</ele>
      </trkpt>
      <trkpt lat="48.12484" lon="7.15425">
        <ele>508.76953125</ele>
      </trkpt>
      <trkpt lat="48.12488" lon="7.15421">
        <ele>508.8515625</ele>
      </trkpt>
      <trkpt lat="48.12493" lon="7.15418">
        <ele>508.8828125</ele>
      </trkpt>
      <trkpt lat="48.12497" lon="7.15415">
        <ele>508.984375</ele>
      </trkpt>
      <trkpt lat="48.12502" lon="7.15412">
        <ele>509.09375</ele>
      </trkpt>
      <trkpt lat="48.12506" lon="7.15409">
        <ele>509.24609375</ele>
      </trkpt>
      <trkpt lat="48.12511" lon="7.15406">
        <ele>509.421875</ele>
      </trkpt>
      <trkpt lat="48.12515" lon="7.15403">
        <ele>509.65625</ele>
      </trkpt>
      <trkpt lat="48.1252" lon="7.15401">
        <ele>509.87890625</ele>
      </trkpt>
      <trkpt lat="48.12524" lon="7.15398">
        <ele>510.18359375</ele>
      </trkpt>
      <trkpt lat="48.12529" lon="7.15396">
        <ele>510.390625</ele>
      </trkpt>
      <trkpt lat="48.12533" lon="7.15394">
        <ele>510.63671875</ele>
      </trkpt>
      <trkpt lat="48.12536" lon="7.15399">
        <ele>510.3046875</ele>
      </trkpt>
      <trkpt lat="48.12537" lon="7.15406">
        <ele>509.9140625</ele>
      </trkpt>
      <trkpt lat="48.1254" lon="7.15412">
        <ele>509.546875</ele>
      </trkpt>
      <trkpt lat="48.12543" lon="7.15417">
        <ele>509.34375</ele>
      </trkpt>
      <trkpt lat="48.12548" lon="7.15418">
        <ele>509.4140625</ele>
      </trkpt>
      <trkpt lat="48.12553" lon="7.15418">
        <ele>509.53125</ele>
      </trkpt>
      <trkpt lat="48.12557" lon="7.15417">
        <ele>509.67578125</ele>
      </trkpt>
      <trkpt lat="48.12562" lon="7.15417">
        <ele>509.78515625</ele>
      </trkpt>
      <trkpt lat="48.12566" lon="7.15418">
        <ele>509.85546875</ele>
      </trkpt>
      <trkpt lat="48.12571" lon="7.15421">
        <ele>509.76953125</ele>
      </trkpt>
      <trkpt lat="48.12575" lon="7.15424">
        <ele>509.70703125</ele>
      </trkpt>
      <trkpt lat="48.12579" lon="7.15427">
        <ele>509.609375</ele>
      </trkpt>
      <trkpt lat="48.12584" lon="7.1543">
        <ele>509.51171875</ele>
      </trkpt>
      <trkpt lat="48.12588" lon="7.15433">
        <ele>509.44921875</ele>
      </trkpt>
      <trkpt lat="48.12593" lon="7.15435">
        <ele>509.421875</ele>
      </trkpt>
      <trkpt lat="48.12597" lon="7.15436">
        <ele>509.46484375</ele>
      </trkpt>
      <trkpt lat="48.12602" lon="7.15436">
        <ele>509.5546875</ele>
      </trkpt>
      <trkpt lat="48.12607" lon="7.15436">
        <ele>509.6328125</ele>
      </trkpt>
      <trkpt lat="48.1261" lon="7.1544">
        <ele>509.44921875</ele>
      </trkpt>
      <trkpt lat="48.12609" lon="7.15447">
        <ele>509.08203125</ele>
      </trkpt>
      <trkpt lat="48.12607" lon="7.15453">
        <ele>508.7265625</ele>
      </trkpt>
      <trkpt lat="48.12607" lon="7.15459">
        <ele>508.4453125</ele>
      </trkpt>
      <trkpt lat="48.12606" lon="7.15466">
        <ele>508.15625</ele>
      </trkpt>
      <trkpt lat="48.12605" lon="7.15472">
        <ele>507.86328125</ele>
      </trkpt>
      <trkpt lat="48.12605" lon="7.15481">
        <ele>507.5078125</ele>
      </trkpt>
      <trkpt lat="48.12604" lon="7.15487">
        <ele>507.22265625</ele>
      </trkpt>
      <trkpt lat="48.12604" lon="7.15495">
        <ele>506.875</ele>
      </trkpt>
      <trkpt lat="48.12604" lon="7.15503">
        <ele>506.546875</ele>
      </trkpt>
      <trkpt lat="48.12604" lon="7.15511">
        <ele>506.140625</ele>
      </trkpt>
      <trkpt lat="48.12603" lon="7.15518">
        <ele>505.703125</ele>
      </trkpt>
      <trkpt lat="48.12603" lon="7.15525">
        <ele>505.31640625</ele>
      </trkpt>
      <trkpt lat="48.12603" lon="7.15531">
        <ele>504.93359375</ele>
      </trkpt>
      <trkpt lat="48.12604" lon="7.15538">
        <ele>504.5625</ele>
      </trkpt>
      <trkpt lat="48.12605" lon="7.15544">
        <ele>504.1875</ele>
      </trkpt>
      <trkpt lat="48.12606" lon="7.15551">
        <ele>503.8046875</ele>
      </trkpt>
      <trkpt lat="48.12606" lon="7.15558">
        <ele>503.3671875</ele>
      </trkpt>
      <trkpt lat="48.12604" lon="7.15566">
        <ele>502.88671875</ele>
      </trkpt>
      <trkpt lat="48.12604" lon="7.15573">
        <ele>502.58203125</ele>
      </trkpt>
      <trkpt lat="48.12603" lon="7.15579">
        <ele>502.30859375</ele>
      </trkpt>
      <trkpt lat="48.12603" lon="7.15586">
        <ele>502.015625</ele>
      </trkpt>
      <trkpt lat="48.12602" lon="7.15592">
        <ele>501.73828125</ele>
      </trkpt>
      <trkpt lat="48.12602" lon="7.15599">
        <ele>501.421875</ele>
      </trkpt>
      <trkpt lat="48.12602" lon="7.15606">
        <ele>501.15625</ele>
      </trkpt>
      <trkpt lat="48.12601" lon="7.15614">
        <ele>500.875</ele>
      </trkpt>
      <trkpt lat="48.126" lon="7.1562">
        <ele>500.6875</ele>
      </trkpt>
      <trkpt lat="48.12599" lon="7.15627">
        <ele>500.66796875</ele>
      </trkpt>
      <trkpt lat="48.12598" lon="7.15634">
        <ele>500.62890625</ele>
      </trkpt>
      <trkpt lat="48.12598" lon="7.15642">
        <ele>500.54296875</ele>
      </trkpt>
      <trkpt lat="48.12598" lon="7.15648">
        <ele>500.46875</ele>
      </trkpt>
      <trkpt lat="48.12598" lon="7.15655">
        <ele>500.3984375</ele>
      </trkpt>
      <trkpt lat="48.12598" lon="7.15661">
        <ele>500.32421875</ele>
      </trkpt>
      <trkpt lat="48.12599" lon="7.15668">
        <ele>500.19921875</ele>
      </trkpt>
      <trkpt lat="48.12599" lon="7.15674">
        <ele>500.125</ele>
      </trkpt>
      <trkpt lat="48.12599" lon="7.15681">
        <ele>499.99609375</ele>
      </trkpt>
      <trkpt lat="48.12598" lon="7.1569">
        <ele>499.83203125</ele>
      </trkpt>
      <trkpt lat="48.12598" lon="7.15696">
        <ele>499.70703125</ele>
      </trkpt>
      <trkpt lat="48.12598" lon="7.15703">
        <ele>499.58203125</ele>
      </trkpt>
      <trkpt lat="48.12599" lon="7.15709">
        <ele>499.390625</ele>
      </trkpt>
      <trkpt lat="48.12599" lon="7.15716">
        <ele>499.1796875</ele>
      </trkpt>
      <trkpt lat="48.12599" lon="7.15723">
        <ele>499.0546875</ele>
      </trkpt>
      <trkpt lat="48.12599" lon="7.1573">
        <ele>498.9140625</ele>
      </trkpt>
      <trkpt lat="48.126" lon="7.15737">
        <ele>498.98828125</ele>
      </trkpt>
      <trkpt lat="48.126" lon="7.15744">
        <ele>499.04296875</ele>
      </trkpt>
      <trkpt lat="48.12601" lon="7.15751">
        <ele>499.15625</ele>
      </trkpt>
      <trkpt lat="48.12601" lon="7.15761">
        <ele>499.390625</ele>
      </trkpt>
      <trkpt lat="48.12601" lon="7.15768">
        <ele>499.578125</ele>
      </trkpt>
      <trkpt lat="48.12601" lon="7.15774">
        <ele>499.75</ele>
      </trkpt>
      <trkpt lat="48.12601" lon="7.15782">
        <ele>499.953125</ele>
      </trkpt>
      <trkpt lat="48.12601" lon="7.15789">
        <ele>500.078125</ele>
      </trkpt>
      <trkpt lat="48.12601" lon="7.15796">
        <ele>500.0546875</ele>
      </trkpt>
      <trkpt lat="48.12602" lon="7.15802">
        <ele>499.85546875</ele>
      </trkpt>
      <trkpt lat="48.12603" lon="7.15809">
        <ele>499.7421875</ele>
      </trkpt>
      <trkpt lat="48.12604" lon="7.15816">
        <ele>499.62109375</ele>
      </trkpt>
      <trkpt lat="48.12605" lon="7.15822">
        <ele>499.578125</ele>
      </trkpt>
      <trkpt lat="48.12605" lon="7.1583">
        <ele>499.546875</ele>
      </trkpt>
      <trkpt lat="48.12605" lon="7.15837">
        <ele>499.5078125</ele>
      </trkpt>
      <trkpt lat="48.12606" lon="7.15844">
        <ele>499.44921875</ele>
      </trkpt>
      <trkpt lat="48.12607" lon="7.15851">
        <ele>499.19140625</ele>
      </trkpt>
      <trkpt lat="48.12609" lon="7.15857">
        <ele>498.75</ele>
      </trkpt>
      <trkpt lat="48.12612" lon="7.15863">
        <ele>498.22265625</ele>
      </trkpt>
      <trkpt lat="48.12615" lon="7.15869">
        <ele>497.60546875</ele>
      </trkpt>
      <trkpt lat="48.12617" lon="7.15875">
        <ele>497.1640625</ele>
      </trkpt>
      <trkpt lat="48.1262" lon="7.15882">
        <ele>496.7265625</ele>
      </trkpt>
      <trkpt lat="48.12621" lon="7.15882">
        <ele>496.453125</ele>
      </trkpt>
      <trkpt lat="48.1262" lon="7.15889">
        <ele>496.640625</ele>
      </trkpt>
      <trkpt lat="48.1262" lon="7.15896">
        <ele>496.64453125</ele>
      </trkpt>
      <trkpt lat="48.1262" lon="7.15902">
        <ele>496.66796875</ele>
      </trkpt>
      <trkpt lat="48.1262" lon="7.15909">
        <ele>496.6015625</ele>
      </trkpt>
      <trkpt lat="48.12621" lon="7.15915">
        <ele>496.53125</ele>
      </trkpt>
      <trkpt lat="48.12621" lon="7.15922">
        <ele>496.55078125</ele>
      </trkpt>
      <trkpt lat="48.12621" lon="7.15928">
        <ele>496.47265625</ele>
      </trkpt>
      <trkpt lat="48.12621" lon="7.15935">
        <ele>496.4921875</ele>
      </trkpt>
      <trkpt lat="48.12622" lon="7.15941">
        <ele>496.40625</ele>
      </trkpt>
      <trkpt lat="48.12622" lon="7.15949">
        <ele>496.42578125</ele>
      </trkpt>
      <trkpt lat="48.12622" lon="7.15955">
        <ele>496.21484375</ele>
      </trkpt>
      <trkpt lat="48.12623" lon="7.15962">
        <ele>496.11328125</ele>
      </trkpt>
      <trkpt lat="48.12623" lon="7.15968">
        <ele>496.00390625</ele>
      </trkpt>
      <trkpt lat="48.12625" lon="7.15975">
        <ele>495.83984375</ele>
      </trkpt>
      <trkpt lat="48.12625" lon="7.15981">
        <ele>495.78125</ele>
      </trkpt>
    </trkseg>
  </trk>
</gpx>